<?xml version="1.0" encoding="UTF-8" standalone="no" ?>
<gpx xmlns="http://www.topografix.com/GPX/1/1" xmlns:xsi="http://www.w3.org/2001/XMLSchema-instance" xsi:schemaLocation="http://www.topografix.com/GPX/1/1 http://www.topografix.com/GPX/1/1/gpx.xsd" version="1.1" creator="VisuGPX - https://www.visugpx.com">
  <metadata>
    <name>VTT - Grasse - 18 janvier 2009</name>
    <desc><![CDATA[VTT
Grasse - tennis alt 500 -St Christophe - La marbrière]]></desc>
  </metadata>
  <trk>
    <name><![CDATA[Grasse on GPSies.com]]></name>
    <trkseg>
      <trkpt lat="43.67199" lon="6.91698">
        <ele>394.75854</ele>
        <time>2009-01-18T09:03:06Z</time>
      </trkpt>
      <trkpt lat="43.67122" lon="6.91605">
        <ele>458.68615</ele>
        <time>2009-01-18T09:03:14Z</time>
      </trkpt>
      <trkpt lat="43.67098" lon="6.91578">
        <ele>478.8739</ele>
        <time>2009-01-18T09:03:19Z</time>
      </trkpt>
      <trkpt lat="43.67083" lon="6.91559">
        <ele>491.37097</ele>
        <time>2009-01-18T09:03:20Z</time>
      </trkpt>
      <trkpt lat="43.66997" lon="6.91456">
        <ele>562.98925</ele>
        <time>2009-01-18T09:03:26Z</time>
      </trkpt>
      <trkpt lat="43.66983" lon="6.9144">
        <ele>575.00585</ele>
        <time>2009-01-18T09:03:27Z</time>
      </trkpt>
      <trkpt lat="43.66962" lon="6.91425">
        <ele>595.19335</ele>
        <time>2009-01-18T09:03:32Z</time>
      </trkpt>
      <trkpt lat="43.66954" lon="6.91443">
        <ele>608.65185</ele>
        <time>2009-01-18T09:03:42Z</time>
      </trkpt>
      <trkpt lat="43.66951" lon="6.91469">
        <ele>615.3811</ele>
        <time>2009-01-18T09:03:52Z</time>
      </trkpt>
      <trkpt lat="43.66952" lon="6.915">
        <ele>618.26489</ele>
        <time>2009-01-18T09:04:03Z</time>
      </trkpt>
      <trkpt lat="43.66956" lon="6.91531">
        <ele>618.26489</ele>
        <time>2009-01-18T09:04:14Z</time>
      </trkpt>
      <trkpt lat="43.66961" lon="6.91551">
        <ele>618.26489</ele>
        <time>2009-01-18T09:04:22Z</time>
      </trkpt>
      <trkpt lat="43.66964" lon="6.91568">
        <ele>621.62963</ele>
        <time>2009-01-18T09:04:30Z</time>
      </trkpt>
      <trkpt lat="43.6697" lon="6.91588">
        <ele>625.47485</ele>
        <time>2009-01-18T09:04:40Z</time>
      </trkpt>
      <trkpt lat="43.6698" lon="6.91606">
        <ele>622.11035</ele>
        <time>2009-01-18T09:04:48Z</time>
      </trkpt>
      <trkpt lat="43.66992" lon="6.91626">
        <ele>624.03295</ele>
        <time>2009-01-18T09:04:58Z</time>
      </trkpt>
      <trkpt lat="43.67" lon="6.9164">
        <ele>625.95556</ele>
        <time>2009-01-18T09:05:06Z</time>
      </trkpt>
      <trkpt lat="43.67007" lon="6.91655">
        <ele>625.47485</ele>
        <time>2009-01-18T09:05:14Z</time>
      </trkpt>
      <trkpt lat="43.6702" lon="6.91673">
        <ele>618.26489</ele>
        <time>2009-01-18T09:05:21Z</time>
      </trkpt>
      <trkpt lat="43.67026" lon="6.91689">
        <ele>616.34228</ele>
        <time>2009-01-18T09:05:27Z</time>
      </trkpt>
      <trkpt lat="43.67031" lon="6.91707">
        <ele>616.34228</ele>
        <time>2009-01-18T09:05:33Z</time>
      </trkpt>
      <trkpt lat="43.67033" lon="6.91732">
        <ele>624.99438</ele>
        <time>2009-01-18T09:05:41Z</time>
      </trkpt>
      <trkpt lat="43.67032" lon="6.91758">
        <ele>632.2041</ele>
        <time>2009-01-18T09:05:50Z</time>
      </trkpt>
      <trkpt lat="43.67031" lon="6.91783">
        <ele>636.04956</ele>
        <time>2009-01-18T09:05:59Z</time>
      </trkpt>
      <trkpt lat="43.67029" lon="6.91811">
        <ele>638.45288</ele>
        <time>2009-01-18T09:06:10Z</time>
      </trkpt>
      <trkpt lat="43.67028" lon="6.91815">
        <ele>639.89477</ele>
        <time>2009-01-18T09:06:12Z</time>
      </trkpt>
      <trkpt lat="43.67026" lon="6.91826">
        <ele>640.85595</ele>
        <time>2009-01-18T09:06:17Z</time>
      </trkpt>
      <trkpt lat="43.67028" lon="6.91852">
        <ele>639.89477</ele>
        <time>2009-01-18T09:06:26Z</time>
      </trkpt>
      <trkpt lat="43.67028" lon="6.91878">
        <ele>642.29809</ele>
        <time>2009-01-18T09:06:36Z</time>
      </trkpt>
      <trkpt lat="43.6703" lon="6.91908">
        <ele>643.25927</ele>
        <time>2009-01-18T09:06:48Z</time>
      </trkpt>
      <trkpt lat="43.67033" lon="6.91931">
        <ele>645.18188</ele>
        <time>2009-01-18T09:06:57Z</time>
      </trkpt>
      <trkpt lat="43.67035" lon="6.91946">
        <ele>644.70117</ele>
        <time>2009-01-18T09:07:03Z</time>
      </trkpt>
      <trkpt lat="43.6704" lon="6.9197">
        <ele>643.25927</ele>
        <time>2009-01-18T09:07:12Z</time>
      </trkpt>
      <trkpt lat="43.67044" lon="6.91996">
        <ele>648.06591</ele>
        <time>2009-01-18T09:07:23Z</time>
      </trkpt>
      <trkpt lat="43.6705" lon="6.92024">
        <ele>649.98852</ele>
        <time>2009-01-18T09:07:35Z</time>
      </trkpt>
      <trkpt lat="43.67056" lon="6.92047">
        <ele>654.31469</ele>
        <time>2009-01-18T09:07:46Z</time>
      </trkpt>
      <trkpt lat="43.67066" lon="6.92068">
        <ele>649.98852</ele>
        <time>2009-01-18T09:07:55Z</time>
      </trkpt>
      <trkpt lat="43.67069" lon="6.92076">
        <ele>648.54638</ele>
        <time>2009-01-18T09:08:01Z</time>
      </trkpt>
      <trkpt lat="43.67081" lon="6.92092">
        <ele>635.5686</ele>
        <time>2009-01-18T09:08:08Z</time>
      </trkpt>
      <trkpt lat="43.67089" lon="6.92089">
        <ele>630.28149</ele>
        <time>2009-01-18T09:08:13Z</time>
      </trkpt>
      <trkpt lat="43.67088" lon="6.9207">
        <ele>642.7788</ele>
        <time>2009-01-18T09:08:23Z</time>
      </trkpt>
      <trkpt lat="43.67085" lon="6.92053">
        <ele>653.83398</ele>
        <time>2009-01-18T09:08:31Z</time>
      </trkpt>
      <trkpt lat="43.67087" lon="6.92035">
        <ele>658.15991</ele>
        <time>2009-01-18T09:08:41Z</time>
      </trkpt>
      <trkpt lat="43.67088" lon="6.9202">
        <ele>662.9663</ele>
        <time>2009-01-18T09:08:50Z</time>
      </trkpt>
      <trkpt lat="43.67093" lon="6.92006">
        <ele>664.4082</ele>
        <time>2009-01-18T09:08:59Z</time>
      </trkpt>
      <trkpt lat="43.67096" lon="6.9199">
        <ele>667.29223</ele>
        <time>2009-01-18T09:09:08Z</time>
      </trkpt>
      <trkpt lat="43.67101" lon="6.91973">
        <ele>668.73437</ele>
        <time>2009-01-18T09:09:18Z</time>
      </trkpt>
      <trkpt lat="43.67105" lon="6.91957">
        <ele>670.65698</ele>
        <time>2009-01-18T09:09:27Z</time>
      </trkpt>
      <trkpt lat="43.67109" lon="6.91942">
        <ele>673.0603</ele>
        <time>2009-01-18T09:09:36Z</time>
      </trkpt>
      <trkpt lat="43.67114" lon="6.91929">
        <ele>674.98291</ele>
        <time>2009-01-18T09:09:44Z</time>
      </trkpt>
      <trkpt lat="43.67119" lon="6.91916">
        <ele>677.38623</ele>
        <time>2009-01-18T09:09:53Z</time>
      </trkpt>
      <trkpt lat="43.67124" lon="6.91904">
        <ele>679.7893</ele>
        <time>2009-01-18T09:10:01Z</time>
      </trkpt>
      <trkpt lat="43.6713" lon="6.91892">
        <ele>680.75073</ele>
        <time>2009-01-18T09:10:09Z</time>
      </trkpt>
      <trkpt lat="43.67138" lon="6.91875">
        <ele>682.67333</ele>
        <time>2009-01-18T09:10:20Z</time>
      </trkpt>
      <trkpt lat="43.67145" lon="6.91862">
        <ele>684.11547</ele>
        <time>2009-01-18T09:10:29Z</time>
      </trkpt>
      <trkpt lat="43.67152" lon="6.91852">
        <ele>685.55737</ele>
        <time>2009-01-18T09:10:37Z</time>
      </trkpt>
      <trkpt lat="43.6716" lon="6.91837">
        <ele>685.55737</ele>
        <time>2009-01-18T09:10:47Z</time>
      </trkpt>
      <trkpt lat="43.67166" lon="6.91826">
        <ele>686.03808</ele>
        <time>2009-01-18T09:10:55Z</time>
      </trkpt>
      <trkpt lat="43.67168" lon="6.91823">
        <ele>686.99926</ele>
        <time>2009-01-18T09:10:57Z</time>
      </trkpt>
      <trkpt lat="43.67172" lon="6.9183">
        <ele>687.96069</ele>
        <time>2009-01-18T09:11:03Z</time>
      </trkpt>
      <trkpt lat="43.67171" lon="6.91833">
        <ele>688.4414</ele>
        <time>2009-01-18T09:11:05Z</time>
      </trkpt>
      <trkpt lat="43.67168" lon="6.91849">
        <ele>689.40258</ele>
        <time>2009-01-18T09:11:14Z</time>
      </trkpt>
      <trkpt lat="43.67167" lon="6.91866">
        <ele>690.84448</ele>
        <time>2009-01-18T09:11:23Z</time>
      </trkpt>
      <trkpt lat="43.67167" lon="6.91882">
        <ele>691.8059</ele>
        <time>2009-01-18T09:11:31Z</time>
      </trkpt>
      <trkpt lat="43.67167" lon="6.91905">
        <ele>692.76733</ele>
        <time>2009-01-18T09:11:42Z</time>
      </trkpt>
      <trkpt lat="43.67167" lon="6.91925">
        <ele>694.20922</ele>
        <time>2009-01-18T09:11:52Z</time>
      </trkpt>
      <trkpt lat="43.67168" lon="6.91946">
        <ele>696.13183</ele>
        <time>2009-01-18T09:12:03Z</time>
      </trkpt>
      <trkpt lat="43.67169" lon="6.91971">
        <ele>698.53491</ele>
        <time>2009-01-18T09:12:15Z</time>
      </trkpt>
      <trkpt lat="43.67173" lon="6.91986">
        <ele>699.97705</ele>
        <time>2009-01-18T09:12:24Z</time>
      </trkpt>
      <trkpt lat="43.67183" lon="6.91996">
        <ele>700.93847</ele>
        <time>2009-01-18T09:12:33Z</time>
      </trkpt>
      <trkpt lat="43.67195" lon="6.92003">
        <ele>700.93847</ele>
        <time>2009-01-18T09:12:42Z</time>
      </trkpt>
      <trkpt lat="43.67205" lon="6.92011">
        <ele>702.38037</ele>
        <time>2009-01-18T09:12:51Z</time>
      </trkpt>
      <trkpt lat="43.67213" lon="6.92017">
        <ele>705.74511</ele>
        <time>2009-01-18T09:12:58Z</time>
      </trkpt>
      <trkpt lat="43.67223" lon="6.92026">
        <ele>708.6289</ele>
        <time>2009-01-18T09:13:05Z</time>
      </trkpt>
      <trkpt lat="43.67233" lon="6.92037">
        <ele>711.51293</ele>
        <time>2009-01-18T09:13:14Z</time>
      </trkpt>
      <trkpt lat="43.67239" lon="6.92045">
        <ele>715.35815</ele>
        <time>2009-01-18T09:13:21Z</time>
      </trkpt>
      <trkpt lat="43.67244" lon="6.92052">
        <ele>718.24218</ele>
        <time>2009-01-18T09:13:27Z</time>
      </trkpt>
      <trkpt lat="43.67249" lon="6.92062">
        <ele>723.52954</ele>
        <time>2009-01-18T09:13:34Z</time>
      </trkpt>
      <trkpt lat="43.67253" lon="6.92071">
        <ele>725.4519</ele>
        <time>2009-01-18T09:13:41Z</time>
      </trkpt>
      <trkpt lat="43.6726" lon="6.92077">
        <ele>726.41333</ele>
        <time>2009-01-18T09:13:47Z</time>
      </trkpt>
      <trkpt lat="43.67264" lon="6.92086">
        <ele>727.37475</ele>
        <time>2009-01-18T09:13:54Z</time>
      </trkpt>
      <trkpt lat="43.67269" lon="6.92095">
        <ele>729.29711</ele>
        <time>2009-01-18T09:14:00Z</time>
      </trkpt>
      <trkpt lat="43.67275" lon="6.92103">
        <ele>728.33593</ele>
        <time>2009-01-18T09:14:07Z</time>
      </trkpt>
      <trkpt lat="43.67278" lon="6.92113">
        <ele>727.85522</ele>
        <time>2009-01-18T09:14:13Z</time>
      </trkpt>
      <trkpt lat="43.67285" lon="6.92123">
        <ele>724.97143</ele>
        <time>2009-01-18T09:14:21Z</time>
      </trkpt>
      <trkpt lat="43.6729" lon="6.92138">
        <ele>726.41333</ele>
        <time>2009-01-18T09:14:29Z</time>
      </trkpt>
      <trkpt lat="43.67295" lon="6.9214">
        <ele>723.52954</ele>
        <time>2009-01-18T09:14:35Z</time>
      </trkpt>
      <trkpt lat="43.67295" lon="6.92142">
        <ele>729.77783</ele>
        <time>2009-01-18T09:14:43Z</time>
      </trkpt>
      <trkpt lat="43.67295" lon="6.92149">
        <ele>734.104</ele>
        <time>2009-01-18T09:14:56Z</time>
      </trkpt>
      <trkpt lat="43.67298" lon="6.92161">
        <ele>734.58471</ele>
        <time>2009-01-18T09:15:02Z</time>
      </trkpt>
      <trkpt lat="43.67304" lon="6.92176">
        <ele>737.4685</ele>
        <time>2009-01-18T09:15:10Z</time>
      </trkpt>
      <trkpt lat="43.67308" lon="6.92185">
        <ele>737.94921</ele>
        <time>2009-01-18T09:15:17Z</time>
      </trkpt>
      <trkpt lat="43.67313" lon="6.92198">
        <ele>736.50732</ele>
        <time>2009-01-18T09:15:24Z</time>
      </trkpt>
      <trkpt lat="43.67318" lon="6.92212">
        <ele>736.98779</ele>
        <time>2009-01-18T09:15:31Z</time>
      </trkpt>
      <trkpt lat="43.67322" lon="6.92225">
        <ele>736.98779</ele>
        <time>2009-01-18T09:15:39Z</time>
      </trkpt>
      <trkpt lat="43.67326" lon="6.92239">
        <ele>736.50732</ele>
        <time>2009-01-18T09:15:47Z</time>
      </trkpt>
      <trkpt lat="43.67332" lon="6.92252">
        <ele>736.50732</ele>
        <time>2009-01-18T09:15:55Z</time>
      </trkpt>
      <trkpt lat="43.67332" lon="6.92255">
        <ele>736.98779</ele>
        <time>2009-01-18T09:15:56Z</time>
      </trkpt>
      <trkpt lat="43.67337" lon="6.92269">
        <ele>737.4685</ele>
        <time>2009-01-18T09:16:04Z</time>
      </trkpt>
      <trkpt lat="43.67341" lon="6.9228">
        <ele>737.94921</ele>
        <time>2009-01-18T09:16:09Z</time>
      </trkpt>
      <trkpt lat="43.67346" lon="6.92296">
        <ele>739.87182</ele>
        <time>2009-01-18T09:16:16Z</time>
      </trkpt>
      <trkpt lat="43.67349" lon="6.92306">
        <ele>738.91064</ele>
        <time>2009-01-18T09:16:23Z</time>
      </trkpt>
      <trkpt lat="43.67355" lon="6.92319">
        <ele>738.42993</ele>
        <time>2009-01-18T09:16:31Z</time>
      </trkpt>
      <trkpt lat="43.67361" lon="6.92333">
        <ele>737.94921</ele>
        <time>2009-01-18T09:16:39Z</time>
      </trkpt>
      <trkpt lat="43.67369" lon="6.92351">
        <ele>737.94921</ele>
        <time>2009-01-18T09:16:49Z</time>
      </trkpt>
      <trkpt lat="43.67374" lon="6.92366">
        <ele>738.42993</ele>
        <time>2009-01-18T09:16:57Z</time>
      </trkpt>
      <trkpt lat="43.67378" lon="6.92387">
        <ele>742.27514</ele>
        <time>2009-01-18T09:17:07Z</time>
      </trkpt>
      <trkpt lat="43.67381" lon="6.92403">
        <ele>745.15893</ele>
        <time>2009-01-18T09:17:15Z</time>
      </trkpt>
      <trkpt lat="43.67384" lon="6.9242">
        <ele>747.08154</ele>
        <time>2009-01-18T09:17:23Z</time>
      </trkpt>
      <trkpt lat="43.67387" lon="6.92433">
        <ele>749.00439</ele>
        <time>2009-01-18T09:17:29Z</time>
      </trkpt>
      <trkpt lat="43.67392" lon="6.9245">
        <ele>749.00439</ele>
        <time>2009-01-18T09:17:37Z</time>
      </trkpt>
      <trkpt lat="43.67396" lon="6.92467">
        <ele>747.56225</ele>
        <time>2009-01-18T09:17:45Z</time>
      </trkpt>
      <trkpt lat="43.67399" lon="6.92486">
        <ele>749.96582</ele>
        <time>2009-01-18T09:17:54Z</time>
      </trkpt>
      <trkpt lat="43.67404" lon="6.92501">
        <ele>750.44653</ele>
        <time>2009-01-18T09:18:02Z</time>
      </trkpt>
      <trkpt lat="43.6741" lon="6.92514">
        <ele>751.40771</ele>
        <time>2009-01-18T09:18:10Z</time>
      </trkpt>
      <trkpt lat="43.67415" lon="6.92527">
        <ele>755.25292</ele>
        <time>2009-01-18T09:18:18Z</time>
      </trkpt>
      <trkpt lat="43.67421" lon="6.92539">
        <ele>758.13696</ele>
        <time>2009-01-18T09:18:27Z</time>
      </trkpt>
      <trkpt lat="43.6743" lon="6.92551">
        <ele>760.54003</ele>
        <time>2009-01-18T09:18:36Z</time>
      </trkpt>
      <trkpt lat="43.67442" lon="6.92566">
        <ele>760.05932</ele>
        <time>2009-01-18T09:18:47Z</time>
      </trkpt>
      <trkpt lat="43.67453" lon="6.92577">
        <ele>759.57885</ele>
        <time>2009-01-18T09:18:57Z</time>
      </trkpt>
      <trkpt lat="43.67464" lon="6.92587">
        <ele>761.02075</ele>
        <time>2009-01-18T09:19:06Z</time>
      </trkpt>
      <trkpt lat="43.67477" lon="6.92594">
        <ele>761.50146</ele>
        <time>2009-01-18T09:19:16Z</time>
      </trkpt>
      <trkpt lat="43.67486" lon="6.92602">
        <ele>766.78881</ele>
        <time>2009-01-18T09:19:24Z</time>
      </trkpt>
      <trkpt lat="43.67498" lon="6.92608">
        <ele>768.23071</ele>
        <time>2009-01-18T09:19:32Z</time>
      </trkpt>
      <trkpt lat="43.67509" lon="6.92613">
        <ele>768.71142</ele>
        <time>2009-01-18T09:19:40Z</time>
      </trkpt>
      <trkpt lat="43.67521" lon="6.92618">
        <ele>770.15332</ele>
        <time>2009-01-18T09:19:49Z</time>
      </trkpt>
      <trkpt lat="43.67535" lon="6.92622">
        <ele>770.15332</ele>
        <time>2009-01-18T09:19:58Z</time>
      </trkpt>
      <trkpt lat="43.67549" lon="6.92625">
        <ele>769.19213</ele>
        <time>2009-01-18T09:20:07Z</time>
      </trkpt>
      <trkpt lat="43.67565" lon="6.92626">
        <ele>773.51806</ele>
        <time>2009-01-18T09:20:18Z</time>
      </trkpt>
      <trkpt lat="43.67579" lon="6.92627">
        <ele>778.32446</ele>
        <time>2009-01-18T09:20:28Z</time>
      </trkpt>
      <trkpt lat="43.6759" lon="6.92625">
        <ele>782.65063</ele>
        <time>2009-01-18T09:20:37Z</time>
      </trkpt>
      <trkpt lat="43.67601" lon="6.92624">
        <ele>781.6892</ele>
        <time>2009-01-18T09:20:44Z</time>
      </trkpt>
      <trkpt lat="43.67612" lon="6.92618">
        <ele>780.24731</ele>
        <time>2009-01-18T09:20:51Z</time>
      </trkpt>
      <trkpt lat="43.67623" lon="6.92614">
        <ele>775.44042</ele>
        <time>2009-01-18T09:20:58Z</time>
      </trkpt>
      <trkpt lat="43.67638" lon="6.92608">
        <ele>772.07592</ele>
        <time>2009-01-18T09:21:08Z</time>
      </trkpt>
      <trkpt lat="43.67648" lon="6.92605">
        <ele>772.55664</ele>
        <time>2009-01-18T09:21:15Z</time>
      </trkpt>
      <trkpt lat="43.67659" lon="6.926">
        <ele>773.99853</ele>
        <time>2009-01-18T09:21:23Z</time>
      </trkpt>
      <trkpt lat="43.67669" lon="6.92595">
        <ele>775.92114</ele>
        <time>2009-01-18T09:21:31Z</time>
      </trkpt>
      <trkpt lat="43.67679" lon="6.92589">
        <ele>777.36328</ele>
        <time>2009-01-18T09:21:38Z</time>
      </trkpt>
      <trkpt lat="43.67691" lon="6.92583">
        <ele>779.76635</ele>
        <time>2009-01-18T09:21:47Z</time>
      </trkpt>
      <trkpt lat="43.67703" lon="6.92577">
        <ele>783.61181</ele>
        <time>2009-01-18T09:21:58Z</time>
      </trkpt>
      <trkpt lat="43.67713" lon="6.92572">
        <ele>787.93774</ele>
        <time>2009-01-18T09:22:07Z</time>
      </trkpt>
      <trkpt lat="43.67724" lon="6.92566">
        <ele>787.93774</ele>
        <time>2009-01-18T09:22:15Z</time>
      </trkpt>
      <trkpt lat="43.67736" lon="6.92559">
        <ele>786.97631</ele>
        <time>2009-01-18T09:22:24Z</time>
      </trkpt>
      <trkpt lat="43.67749" lon="6.92552">
        <ele>789.86035</ele>
        <time>2009-01-18T09:22:35Z</time>
      </trkpt>
      <trkpt lat="43.67759" lon="6.92545">
        <ele>792.26367</ele>
        <time>2009-01-18T09:22:43Z</time>
      </trkpt>
      <trkpt lat="43.6777" lon="6.92537">
        <ele>794.18627</ele>
        <time>2009-01-18T09:22:52Z</time>
      </trkpt>
      <trkpt lat="43.67781" lon="6.92532">
        <ele>795.14746</ele>
        <time>2009-01-18T09:23:01Z</time>
      </trkpt>
      <trkpt lat="43.67792" lon="6.92525">
        <ele>793.70556</ele>
        <time>2009-01-18T09:23:10Z</time>
      </trkpt>
      <trkpt lat="43.67803" lon="6.92519">
        <ele>794.18627</ele>
        <time>2009-01-18T09:23:19Z</time>
      </trkpt>
      <trkpt lat="43.67813" lon="6.92514">
        <ele>797.07031</ele>
        <time>2009-01-18T09:23:28Z</time>
      </trkpt>
      <trkpt lat="43.67821" lon="6.9251">
        <ele>798.03173</ele>
        <time>2009-01-18T09:23:36Z</time>
      </trkpt>
      <trkpt lat="43.6783" lon="6.92505">
        <ele>800.43505</ele>
        <time>2009-01-18T09:23:44Z</time>
      </trkpt>
      <trkpt lat="43.67839" lon="6.925">
        <ele>803.31884</ele>
        <time>2009-01-18T09:23:52Z</time>
      </trkpt>
      <trkpt lat="43.67848" lon="6.92496">
        <ele>806.68334</ele>
        <time>2009-01-18T09:24:00Z</time>
      </trkpt>
      <trkpt lat="43.67858" lon="6.92492">
        <ele>806.68334</ele>
        <time>2009-01-18T09:24:08Z</time>
      </trkpt>
      <trkpt lat="43.67868" lon="6.92489">
        <ele>806.68334</ele>
        <time>2009-01-18T09:24:15Z</time>
      </trkpt>
      <trkpt lat="43.67877" lon="6.92485">
        <ele>810.04785</ele>
        <time>2009-01-18T09:24:23Z</time>
      </trkpt>
      <trkpt lat="43.67888" lon="6.9248">
        <ele>814.37402</ele>
        <time>2009-01-18T09:24:32Z</time>
      </trkpt>
      <trkpt lat="43.67898" lon="6.92474">
        <ele>817.25805</ele>
        <time>2009-01-18T09:24:40Z</time>
      </trkpt>
      <trkpt lat="43.67907" lon="6.9247">
        <ele>820.14184</ele>
        <time>2009-01-18T09:24:48Z</time>
      </trkpt>
      <trkpt lat="43.67908" lon="6.92469">
        <ele>820.14184</ele>
        <time>2009-01-18T09:24:49Z</time>
      </trkpt>
      <trkpt lat="43.67914" lon="6.92463">
        <ele>820.14184</ele>
        <time>2009-01-18T09:24:55Z</time>
      </trkpt>
      <trkpt lat="43.67924" lon="6.92457">
        <ele>820.62255</ele>
        <time>2009-01-18T09:25:03Z</time>
      </trkpt>
      <trkpt lat="43.67933" lon="6.92447">
        <ele>819.18066</ele>
        <time>2009-01-18T09:25:10Z</time>
      </trkpt>
      <trkpt lat="43.67942" lon="6.92439">
        <ele>821.10327</ele>
        <time>2009-01-18T09:25:18Z</time>
      </trkpt>
      <trkpt lat="43.6795" lon="6.9243">
        <ele>823.02587</ele>
        <time>2009-01-18T09:25:26Z</time>
      </trkpt>
      <trkpt lat="43.67954" lon="6.92423">
        <ele>823.02587</ele>
        <time>2009-01-18T09:25:31Z</time>
      </trkpt>
      <trkpt lat="43.67961" lon="6.92414">
        <ele>825.42895</ele>
        <time>2009-01-18T09:25:38Z</time>
      </trkpt>
      <trkpt lat="43.67966" lon="6.92403">
        <ele>824.46777</ele>
        <time>2009-01-18T09:25:45Z</time>
      </trkpt>
      <trkpt lat="43.67972" lon="6.92391">
        <ele>823.50659</ele>
        <time>2009-01-18T09:25:53Z</time>
      </trkpt>
      <trkpt lat="43.67976" lon="6.92385">
        <ele>826.87109</ele>
        <time>2009-01-18T09:25:59Z</time>
      </trkpt>
      <trkpt lat="43.67978" lon="6.9238">
        <ele>827.83227</ele>
        <time>2009-01-18T09:26:05Z</time>
      </trkpt>
      <trkpt lat="43.67984" lon="6.92373">
        <ele>828.79394</ele>
        <time>2009-01-18T09:26:13Z</time>
      </trkpt>
      <trkpt lat="43.67989" lon="6.92365">
        <ele>827.83227</ele>
        <time>2009-01-18T09:26:21Z</time>
      </trkpt>
      <trkpt lat="43.67996" lon="6.92357">
        <ele>824.46777</ele>
        <time>2009-01-18T09:26:36Z</time>
      </trkpt>
      <trkpt lat="43.68" lon="6.92347">
        <ele>827.3518</ele>
        <time>2009-01-18T09:26:42Z</time>
      </trkpt>
      <trkpt lat="43.68007" lon="6.92339">
        <ele>833.11962</ele>
        <time>2009-01-18T09:26:49Z</time>
      </trkpt>
      <trkpt lat="43.68007" lon="6.92339">
        <ele>837.44555</ele>
        <time>2009-01-18T09:26:54Z</time>
      </trkpt>
      <trkpt lat="43.68009" lon="6.92338">
        <ele>840.81005</ele>
        <time>2009-01-18T09:26:59Z</time>
      </trkpt>
      <trkpt lat="43.68012" lon="6.92334">
        <ele>842.25219</ele>
        <time>2009-01-18T09:27:04Z</time>
      </trkpt>
      <trkpt lat="43.6802" lon="6.92326">
        <ele>838.88769</ele>
        <time>2009-01-18T09:27:12Z</time>
      </trkpt>
      <trkpt lat="43.68025" lon="6.92324">
        <ele>839.84887</ele>
        <time>2009-01-18T09:27:17Z</time>
      </trkpt>
      <trkpt lat="43.68027" lon="6.92322">
        <ele>839.84887</ele>
        <time>2009-01-18T09:27:20Z</time>
      </trkpt>
      <trkpt lat="43.68032" lon="6.92319">
        <ele>839.36816</ele>
        <time>2009-01-18T09:27:27Z</time>
      </trkpt>
      <trkpt lat="43.68031" lon="6.92312">
        <ele>834.08105</ele>
        <time>2009-01-18T09:28:00Z</time>
      </trkpt>
      <trkpt lat="43.68031" lon="6.92313">
        <ele>836.48437</ele>
        <time>2009-01-18T09:28:18Z</time>
      </trkpt>
      <trkpt lat="43.68042" lon="6.92314">
        <ele>840.32958</ele>
        <time>2009-01-18T09:28:26Z</time>
      </trkpt>
      <trkpt lat="43.68045" lon="6.92316">
        <ele>841.77148</ele>
        <time>2009-01-18T09:28:28Z</time>
      </trkpt>
      <trkpt lat="43.68049" lon="6.92322">
        <ele>844.17504</ele>
        <time>2009-01-18T09:28:33Z</time>
      </trkpt>
      <trkpt lat="43.68045" lon="6.92335">
        <ele>843.69409</ele>
        <time>2009-01-18T09:28:39Z</time>
      </trkpt>
      <trkpt lat="43.68038" lon="6.92342">
        <ele>844.65551</ele>
        <time>2009-01-18T09:28:45Z</time>
      </trkpt>
      <trkpt lat="43.68041" lon="6.92356">
        <ele>847.53955</ele>
        <time>2009-01-18T09:28:51Z</time>
      </trkpt>
      <trkpt lat="43.68043" lon="6.92376">
        <ele>848.98144</ele>
        <time>2009-01-18T09:29:01Z</time>
      </trkpt>
      <trkpt lat="43.68044" lon="6.92396">
        <ele>848.50073</ele>
        <time>2009-01-18T09:29:11Z</time>
      </trkpt>
      <trkpt lat="43.68043" lon="6.92395">
        <ele>847.05883</ele>
        <time>2009-01-18T09:29:19Z</time>
      </trkpt>
      <trkpt lat="43.68042" lon="6.92395">
        <ele>848.02026</ele>
        <time>2009-01-18T09:29:25Z</time>
      </trkpt>
      <trkpt lat="43.68042" lon="6.92402">
        <ele>848.98144</ele>
        <time>2009-01-18T09:29:31Z</time>
      </trkpt>
      <trkpt lat="43.68042" lon="6.92416">
        <ele>849.94287</ele>
        <time>2009-01-18T09:29:38Z</time>
      </trkpt>
      <trkpt lat="43.68043" lon="6.92434">
        <ele>852.34594</ele>
        <time>2009-01-18T09:29:47Z</time>
      </trkpt>
      <trkpt lat="43.68042" lon="6.9245">
        <ele>854.74926</ele>
        <time>2009-01-18T09:29:56Z</time>
      </trkpt>
      <trkpt lat="43.68042" lon="6.92464">
        <ele>856.19116</ele>
        <time>2009-01-18T09:30:04Z</time>
      </trkpt>
      <trkpt lat="43.68042" lon="6.9248">
        <ele>856.67187</ele>
        <time>2009-01-18T09:30:12Z</time>
      </trkpt>
      <trkpt lat="43.68042" lon="6.92486">
        <ele>856.19116</ele>
        <time>2009-01-18T09:30:15Z</time>
      </trkpt>
      <trkpt lat="43.68047" lon="6.92491">
        <ele>856.67187</ele>
        <time>2009-01-18T09:30:20Z</time>
      </trkpt>
      <trkpt lat="43.68052" lon="6.92486">
        <ele>857.6333</ele>
        <time>2009-01-18T09:30:25Z</time>
      </trkpt>
      <trkpt lat="43.68055" lon="6.92473">
        <ele>861.47875</ele>
        <time>2009-01-18T09:30:33Z</time>
      </trkpt>
      <trkpt lat="43.68058" lon="6.92462">
        <ele>860.99804</ele>
        <time>2009-01-18T09:30:40Z</time>
      </trkpt>
      <trkpt lat="43.68063" lon="6.9245">
        <ele>860.03662</ele>
        <time>2009-01-18T09:30:47Z</time>
      </trkpt>
      <trkpt lat="43.68069" lon="6.92432">
        <ele>862.43994</ele>
        <time>2009-01-18T09:30:57Z</time>
      </trkpt>
      <trkpt lat="43.68073" lon="6.9242">
        <ele>864.36254</ele>
        <time>2009-01-18T09:31:04Z</time>
      </trkpt>
      <trkpt lat="43.6808" lon="6.9241">
        <ele>865.32397</ele>
        <time>2009-01-18T09:31:11Z</time>
      </trkpt>
      <trkpt lat="43.68088" lon="6.92404">
        <ele>864.36254</ele>
        <time>2009-01-18T09:31:18Z</time>
      </trkpt>
      <trkpt lat="43.68096" lon="6.92395">
        <ele>867.24658</ele>
        <time>2009-01-18T09:31:25Z</time>
      </trkpt>
      <trkpt lat="43.68103" lon="6.92383">
        <ele>868.68847</ele>
        <time>2009-01-18T09:31:33Z</time>
      </trkpt>
      <trkpt lat="43.68114" lon="6.92372">
        <ele>870.13037</ele>
        <time>2009-01-18T09:31:43Z</time>
      </trkpt>
      <trkpt lat="43.68122" lon="6.92363">
        <ele>872.05297</ele>
        <time>2009-01-18T09:31:50Z</time>
      </trkpt>
      <trkpt lat="43.6813" lon="6.92354">
        <ele>873.0144</ele>
        <time>2009-01-18T09:31:58Z</time>
      </trkpt>
      <trkpt lat="43.6814" lon="6.92342">
        <ele>873.97558</ele>
        <time>2009-01-18T09:32:07Z</time>
      </trkpt>
      <trkpt lat="43.68149" lon="6.92333">
        <ele>876.37915</ele>
        <time>2009-01-18T09:32:14Z</time>
      </trkpt>
      <trkpt lat="43.68157" lon="6.92328">
        <ele>874.93701</ele>
        <time>2009-01-18T09:32:21Z</time>
      </trkpt>
      <trkpt lat="43.6817" lon="6.92323">
        <ele>876.37915</ele>
        <time>2009-01-18T09:32:30Z</time>
      </trkpt>
      <trkpt lat="43.68185" lon="6.92324">
        <ele>878.30175</ele>
        <time>2009-01-18T09:32:38Z</time>
      </trkpt>
      <trkpt lat="43.68189" lon="6.92326">
        <ele>878.78247</ele>
        <time>2009-01-18T09:32:42Z</time>
      </trkpt>
      <trkpt lat="43.68194" lon="6.92326">
        <ele>879.26293</ele>
        <time>2009-01-18T09:32:48Z</time>
      </trkpt>
      <trkpt lat="43.68196" lon="6.92328">
        <ele>885.031</ele>
        <time>2009-01-18T09:33:02Z</time>
      </trkpt>
      <trkpt lat="43.68197" lon="6.92325">
        <ele>885.51147</ele>
        <time>2009-01-18T09:33:24Z</time>
      </trkpt>
      <trkpt lat="43.68198" lon="6.92326">
        <ele>876.37915</ele>
        <time>2009-01-18T09:33:42Z</time>
      </trkpt>
      <trkpt lat="43.68199" lon="6.92325">
        <ele>881.18579</ele>
        <time>2009-01-18T09:33:47Z</time>
      </trkpt>
      <trkpt lat="43.68196" lon="6.92321">
        <ele>884.06958</ele>
        <time>2009-01-18T09:33:58Z</time>
      </trkpt>
      <trkpt lat="43.6819" lon="6.92315">
        <ele>885.99218</ele>
        <time>2009-01-18T09:34:26Z</time>
      </trkpt>
      <trkpt lat="43.68194" lon="6.9232">
        <ele>880.70507</ele>
        <time>2009-01-18T09:34:35Z</time>
      </trkpt>
      <trkpt lat="43.68196" lon="6.92321">
        <ele>881.66625</ele>
        <time>2009-01-18T09:34:44Z</time>
      </trkpt>
      <trkpt lat="43.68196" lon="6.92319">
        <ele>885.51147</ele>
        <time>2009-01-18T09:34:50Z</time>
      </trkpt>
      <trkpt lat="43.68197" lon="6.92318">
        <ele>885.99218</ele>
        <time>2009-01-18T09:34:56Z</time>
      </trkpt>
      <trkpt lat="43.68204" lon="6.9232">
        <ele>885.031</ele>
        <time>2009-01-18T09:35:09Z</time>
      </trkpt>
      <trkpt lat="43.68212" lon="6.92321">
        <ele>883.58886</ele>
        <time>2009-01-18T09:35:14Z</time>
      </trkpt>
      <trkpt lat="43.68225" lon="6.92314">
        <ele>884.06958</ele>
        <time>2009-01-18T09:35:22Z</time>
      </trkpt>
      <trkpt lat="43.6823" lon="6.92307">
        <ele>884.06958</ele>
        <time>2009-01-18T09:35:27Z</time>
      </trkpt>
      <trkpt lat="43.68246" lon="6.92302">
        <ele>884.55029</ele>
        <time>2009-01-18T09:35:36Z</time>
      </trkpt>
      <trkpt lat="43.68259" lon="6.92306">
        <ele>890.79858</ele>
        <time>2009-01-18T09:35:45Z</time>
      </trkpt>
      <trkpt lat="43.68271" lon="6.92311">
        <ele>891.76</ele>
        <time>2009-01-18T09:35:53Z</time>
      </trkpt>
      <trkpt lat="43.68279" lon="6.92316">
        <ele>892.72167</ele>
        <time>2009-01-18T09:36:00Z</time>
      </trkpt>
      <trkpt lat="43.68286" lon="6.92319">
        <ele>894.64404</ele>
        <time>2009-01-18T09:36:12Z</time>
      </trkpt>
      <trkpt lat="43.68291" lon="6.92324">
        <ele>898.00878</ele>
        <time>2009-01-18T09:36:19Z</time>
      </trkpt>
      <trkpt lat="43.68293" lon="6.92325">
        <ele>898.96997</ele>
        <time>2009-01-18T09:36:23Z</time>
      </trkpt>
      <trkpt lat="43.68302" lon="6.92331">
        <ele>897.04736</ele>
        <time>2009-01-18T09:36:29Z</time>
      </trkpt>
      <trkpt lat="43.68308" lon="6.92337">
        <ele>896.56689</ele>
        <time>2009-01-18T09:36:34Z</time>
      </trkpt>
      <trkpt lat="43.68315" lon="6.92342">
        <ele>897.52807</ele>
        <time>2009-01-18T09:36:41Z</time>
      </trkpt>
      <trkpt lat="43.68323" lon="6.92348">
        <ele>897.04736</ele>
        <time>2009-01-18T09:36:46Z</time>
      </trkpt>
      <trkpt lat="43.6833" lon="6.92353">
        <ele>899.45068</ele>
        <time>2009-01-18T09:36:53Z</time>
      </trkpt>
      <trkpt lat="43.68336" lon="6.92358">
        <ele>901.37329</ele>
        <time>2009-01-18T09:36:58Z</time>
      </trkpt>
      <trkpt lat="43.68338" lon="6.92359">
        <ele>900.89257</ele>
        <time>2009-01-18T09:37:04Z</time>
      </trkpt>
      <trkpt lat="43.68337" lon="6.92359">
        <ele>895.60546</ele>
        <time>2009-01-18T09:37:12Z</time>
      </trkpt>
      <trkpt lat="43.68342" lon="6.92363">
        <ele>896.08618</ele>
        <time>2009-01-18T09:37:16Z</time>
      </trkpt>
      <trkpt lat="43.68356" lon="6.92367">
        <ele>901.854</ele>
        <time>2009-01-18T09:37:24Z</time>
      </trkpt>
      <trkpt lat="43.68363" lon="6.92369">
        <ele>902.33447</ele>
        <time>2009-01-18T09:37:29Z</time>
      </trkpt>
      <trkpt lat="43.68376" lon="6.9237">
        <ele>905.69921</ele>
        <time>2009-01-18T09:37:36Z</time>
      </trkpt>
      <trkpt lat="43.68379" lon="6.9237">
        <ele>909.06396</ele>
        <time>2009-01-18T09:37:41Z</time>
      </trkpt>
      <trkpt lat="43.68381" lon="6.92368">
        <ele>910.02514</ele>
        <time>2009-01-18T09:37:52Z</time>
      </trkpt>
      <trkpt lat="43.68384" lon="6.92368">
        <ele>909.54467</ele>
        <time>2009-01-18T09:37:58Z</time>
      </trkpt>
      <trkpt lat="43.68386" lon="6.92367">
        <ele>910.98657</ele>
        <time>2009-01-18T09:38:03Z</time>
      </trkpt>
      <trkpt lat="43.6839" lon="6.92367">
        <ele>908.58325</ele>
        <time>2009-01-18T09:38:10Z</time>
      </trkpt>
      <trkpt lat="43.68403" lon="6.92368">
        <ele>909.54467</ele>
        <time>2009-01-18T09:38:17Z</time>
      </trkpt>
      <trkpt lat="43.68423" lon="6.9237">
        <ele>911.46728</ele>
        <time>2009-01-18T09:38:26Z</time>
      </trkpt>
      <trkpt lat="43.68431" lon="6.9237">
        <ele>912.90917</ele>
        <time>2009-01-18T09:38:31Z</time>
      </trkpt>
      <trkpt lat="43.6845" lon="6.9237">
        <ele>914.83178</ele>
        <time>2009-01-18T09:38:40Z</time>
      </trkpt>
      <trkpt lat="43.68467" lon="6.92371">
        <ele>916.27368</ele>
        <time>2009-01-18T09:38:48Z</time>
      </trkpt>
      <trkpt lat="43.68468" lon="6.92372">
        <ele>914.83178</ele>
        <time>2009-01-18T09:38:53Z</time>
      </trkpt>
      <trkpt lat="43.6847" lon="6.92373">
        <ele>917.2351</ele>
        <time>2009-01-18T09:38:59Z</time>
      </trkpt>
      <trkpt lat="43.68476" lon="6.92373">
        <ele>917.2351</ele>
        <time>2009-01-18T09:39:04Z</time>
      </trkpt>
      <trkpt lat="43.68491" lon="6.92373">
        <ele>921.08032</ele>
        <time>2009-01-18T09:39:12Z</time>
      </trkpt>
      <trkpt lat="43.68502" lon="6.92373">
        <ele>922.52221</ele>
        <time>2009-01-18T09:39:19Z</time>
      </trkpt>
      <trkpt lat="43.68516" lon="6.92374">
        <ele>925.40625</ele>
        <time>2009-01-18T09:39:27Z</time>
      </trkpt>
      <trkpt lat="43.68532" lon="6.92373">
        <ele>924.44506</ele>
        <time>2009-01-18T09:39:36Z</time>
      </trkpt>
      <trkpt lat="43.68542" lon="6.92374">
        <ele>922.52221</ele>
        <time>2009-01-18T09:39:42Z</time>
      </trkpt>
      <trkpt lat="43.68556" lon="6.92377">
        <ele>923.00292</ele>
        <time>2009-01-18T09:39:50Z</time>
      </trkpt>
      <trkpt lat="43.6857" lon="6.92378">
        <ele>924.44506</ele>
        <time>2009-01-18T09:39:58Z</time>
      </trkpt>
      <trkpt lat="43.68584" lon="6.92381">
        <ele>922.52221</ele>
        <time>2009-01-18T09:40:06Z</time>
      </trkpt>
      <trkpt lat="43.686" lon="6.92388">
        <ele>923.48364</ele>
        <time>2009-01-18T09:40:15Z</time>
      </trkpt>
      <trkpt lat="43.68619" lon="6.92394">
        <ele>923.48364</ele>
        <time>2009-01-18T09:40:24Z</time>
      </trkpt>
      <trkpt lat="43.68635" lon="6.92393">
        <ele>922.52221</ele>
        <time>2009-01-18T09:40:30Z</time>
      </trkpt>
      <trkpt lat="43.68649" lon="6.92383">
        <ele>923.48364</ele>
        <time>2009-01-18T09:40:36Z</time>
      </trkpt>
      <trkpt lat="43.68655" lon="6.92371">
        <ele>919.63842</ele>
        <time>2009-01-18T09:40:43Z</time>
      </trkpt>
      <trkpt lat="43.68657" lon="6.92369">
        <ele>919.63842</ele>
        <time>2009-01-18T09:40:48Z</time>
      </trkpt>
      <trkpt lat="43.68662" lon="6.92364">
        <ele>922.52221</ele>
        <time>2009-01-18T09:40:58Z</time>
      </trkpt>
      <trkpt lat="43.68665" lon="6.92362">
        <ele>922.0415</ele>
        <time>2009-01-18T09:41:04Z</time>
      </trkpt>
      <trkpt lat="43.68661" lon="6.92364">
        <ele>919.15771</ele>
        <time>2009-01-18T09:41:10Z</time>
      </trkpt>
      <trkpt lat="43.68661" lon="6.92365">
        <ele>917.2351</ele>
        <time>2009-01-18T09:41:15Z</time>
      </trkpt>
      <trkpt lat="43.68664" lon="6.92363">
        <ele>920.11889</ele>
        <time>2009-01-18T09:41:58Z</time>
      </trkpt>
      <trkpt lat="43.68665" lon="6.9236">
        <ele>919.63842</ele>
        <time>2009-01-18T09:42:04Z</time>
      </trkpt>
      <trkpt lat="43.68664" lon="6.92354">
        <ele>920.11889</ele>
        <time>2009-01-18T09:42:11Z</time>
      </trkpt>
      <trkpt lat="43.68666" lon="6.92353">
        <ele>921.08032</ele>
        <time>2009-01-18T09:42:18Z</time>
      </trkpt>
      <trkpt lat="43.68672" lon="6.9234">
        <ele>923.96411</ele>
        <time>2009-01-18T09:42:24Z</time>
      </trkpt>
      <trkpt lat="43.68681" lon="6.92321">
        <ele>921.08032</ele>
        <time>2009-01-18T09:42:32Z</time>
      </trkpt>
      <trkpt lat="43.68692" lon="6.92299">
        <ele>922.52221</ele>
        <time>2009-01-18T09:42:40Z</time>
      </trkpt>
      <trkpt lat="43.68703" lon="6.92274">
        <ele>923.96411</ele>
        <time>2009-01-18T09:42:49Z</time>
      </trkpt>
      <trkpt lat="43.68713" lon="6.92255">
        <ele>923.48364</ele>
        <time>2009-01-18T09:42:56Z</time>
      </trkpt>
      <trkpt lat="43.6872" lon="6.92234">
        <ele>925.40625</ele>
        <time>2009-01-18T09:43:03Z</time>
      </trkpt>
      <trkpt lat="43.68729" lon="6.9221">
        <ele>923.96411</ele>
        <time>2009-01-18T09:43:12Z</time>
      </trkpt>
      <trkpt lat="43.6874" lon="6.92186">
        <ele>927.3291</ele>
        <time>2009-01-18T09:43:20Z</time>
      </trkpt>
      <trkpt lat="43.68745" lon="6.92166">
        <ele>927.80957</ele>
        <time>2009-01-18T09:43:27Z</time>
      </trkpt>
      <trkpt lat="43.68754" lon="6.92151">
        <ele>930.21289</ele>
        <time>2009-01-18T09:43:33Z</time>
      </trkpt>
      <trkpt lat="43.68761" lon="6.92133">
        <ele>932.13549</ele>
        <time>2009-01-18T09:43:40Z</time>
      </trkpt>
      <trkpt lat="43.68768" lon="6.92116">
        <ele>933.57739</ele>
        <time>2009-01-18T09:43:47Z</time>
      </trkpt>
      <trkpt lat="43.68777" lon="6.92104">
        <ele>936.94189</ele>
        <time>2009-01-18T09:43:53Z</time>
      </trkpt>
      <trkpt lat="43.68788" lon="6.92085">
        <ele>939.34521</ele>
        <time>2009-01-18T09:44:00Z</time>
      </trkpt>
      <trkpt lat="43.68797" lon="6.92061">
        <ele>940.30688</ele>
        <time>2009-01-18T09:44:09Z</time>
      </trkpt>
      <trkpt lat="43.68801" lon="6.92048">
        <ele>939.34521</ele>
        <time>2009-01-18T09:44:14Z</time>
      </trkpt>
      <trkpt lat="43.68808" lon="6.92026">
        <ele>939.34521</ele>
        <time>2009-01-18T09:44:23Z</time>
      </trkpt>
      <trkpt lat="43.68818" lon="6.92006">
        <ele>941.74877</ele>
        <time>2009-01-18T09:44:33Z</time>
      </trkpt>
      <trkpt lat="43.68827" lon="6.91994">
        <ele>944.63256</ele>
        <time>2009-01-18T09:44:40Z</time>
      </trkpt>
      <trkpt lat="43.68836" lon="6.91981">
        <ele>951.36181</ele>
        <time>2009-01-18T09:44:48Z</time>
      </trkpt>
      <trkpt lat="43.68845" lon="6.91968">
        <ele>952.32299</ele>
        <time>2009-01-18T09:44:55Z</time>
      </trkpt>
      <trkpt lat="43.68852" lon="6.91948">
        <ele>947.5166</ele>
        <time>2009-01-18T09:45:04Z</time>
      </trkpt>
      <trkpt lat="43.68859" lon="6.91933">
        <ele>946.0747</ele>
        <time>2009-01-18T09:45:11Z</time>
      </trkpt>
      <trkpt lat="43.68864" lon="6.91917">
        <ele>948.47778</ele>
        <time>2009-01-18T09:45:18Z</time>
      </trkpt>
      <trkpt lat="43.68868" lon="6.919">
        <ele>947.99731</ele>
        <time>2009-01-18T09:45:25Z</time>
      </trkpt>
      <trkpt lat="43.68873" lon="6.91879">
        <ele>946.55541</ele>
        <time>2009-01-18T09:45:33Z</time>
      </trkpt>
      <trkpt lat="43.68876" lon="6.91862">
        <ele>945.59399</ele>
        <time>2009-01-18T09:45:39Z</time>
      </trkpt>
      <trkpt lat="43.68886" lon="6.91849">
        <ele>947.99731</ele>
        <time>2009-01-18T09:45:45Z</time>
      </trkpt>
      <trkpt lat="43.68895" lon="6.91842">
        <ele>949.4392</ele>
        <time>2009-01-18T09:45:51Z</time>
      </trkpt>
      <trkpt lat="43.68905" lon="6.91838">
        <ele>952.80371</ele>
        <time>2009-01-18T09:45:58Z</time>
      </trkpt>
      <trkpt lat="43.6892" lon="6.91835">
        <ele>958.57177</ele>
        <time>2009-01-18T09:46:06Z</time>
      </trkpt>
      <trkpt lat="43.68934" lon="6.91831">
        <ele>962.41699</ele>
        <time>2009-01-18T09:46:13Z</time>
      </trkpt>
      <trkpt lat="43.68947" lon="6.9183">
        <ele>964.33959</ele>
        <time>2009-01-18T09:46:20Z</time>
      </trkpt>
      <trkpt lat="43.68958" lon="6.91827">
        <ele>961.93652</ele>
        <time>2009-01-18T09:46:27Z</time>
      </trkpt>
      <trkpt lat="43.68969" lon="6.91819">
        <ele>960.01367</ele>
        <time>2009-01-18T09:46:33Z</time>
      </trkpt>
      <trkpt lat="43.68978" lon="6.91802">
        <ele>958.0913</ele>
        <time>2009-01-18T09:46:41Z</time>
      </trkpt>
      <trkpt lat="43.68985" lon="6.91784">
        <ele>957.61059</ele>
        <time>2009-01-18T09:46:50Z</time>
      </trkpt>
      <trkpt lat="43.6899" lon="6.91767">
        <ele>958.0913</ele>
        <time>2009-01-18T09:46:58Z</time>
      </trkpt>
      <trkpt lat="43.68995" lon="6.91752">
        <ele>964.82031</ele>
        <time>2009-01-18T09:47:05Z</time>
      </trkpt>
      <trkpt lat="43.68995" lon="6.91732">
        <ele>965.30102</ele>
        <time>2009-01-18T09:47:13Z</time>
      </trkpt>
      <trkpt lat="43.68993" lon="6.91714">
        <ele>964.82031</ele>
        <time>2009-01-18T09:47:21Z</time>
      </trkpt>
      <trkpt lat="43.68996" lon="6.91692">
        <ele>963.37841</ele>
        <time>2009-01-18T09:47:31Z</time>
      </trkpt>
      <trkpt lat="43.69005" lon="6.91679">
        <ele>965.30102</ele>
        <time>2009-01-18T09:47:39Z</time>
      </trkpt>
      <trkpt lat="43.6902" lon="6.91668">
        <ele>967.22363</ele>
        <time>2009-01-18T09:47:48Z</time>
      </trkpt>
      <trkpt lat="43.69037" lon="6.91656">
        <ele>967.22363</ele>
        <time>2009-01-18T09:47:56Z</time>
      </trkpt>
      <trkpt lat="43.69047" lon="6.91638">
        <ele>967.7041</ele>
        <time>2009-01-18T09:48:03Z</time>
      </trkpt>
      <trkpt lat="43.69057" lon="6.91611">
        <ele>970.58813</ele>
        <time>2009-01-18T09:48:12Z</time>
      </trkpt>
      <trkpt lat="43.69064" lon="6.91586">
        <ele>972.03027</ele>
        <time>2009-01-18T09:48:21Z</time>
      </trkpt>
      <trkpt lat="43.69067" lon="6.9156">
        <ele>976.3562</ele>
        <time>2009-01-18T09:48:30Z</time>
      </trkpt>
      <trkpt lat="43.69068" lon="6.91538">
        <ele>984.04663</ele>
        <time>2009-01-18T09:48:38Z</time>
      </trkpt>
      <trkpt lat="43.6907" lon="6.91511">
        <ele>986.93041</ele>
        <time>2009-01-18T09:48:48Z</time>
      </trkpt>
      <trkpt lat="43.6907" lon="6.91491">
        <ele>988.85351</ele>
        <time>2009-01-18T09:48:55Z</time>
      </trkpt>
      <trkpt lat="43.69072" lon="6.91477">
        <ele>990.77587</ele>
        <time>2009-01-18T09:49:02Z</time>
      </trkpt>
      <trkpt lat="43.69073" lon="6.91464">
        <ele>985.48852</ele>
        <time>2009-01-18T09:49:08Z</time>
      </trkpt>
      <trkpt lat="43.69078" lon="6.91447">
        <ele>987.41113</ele>
        <time>2009-01-18T09:49:15Z</time>
      </trkpt>
      <trkpt lat="43.69084" lon="6.9143">
        <ele>983.56591</ele>
        <time>2009-01-18T09:49:23Z</time>
      </trkpt>
      <trkpt lat="43.69089" lon="6.91414">
        <ele>982.12402</ele>
        <time>2009-01-18T09:49:30Z</time>
      </trkpt>
      <trkpt lat="43.69098" lon="6.91392">
        <ele>985.00805</ele>
        <time>2009-01-18T09:49:38Z</time>
      </trkpt>
      <trkpt lat="43.69104" lon="6.91373">
        <ele>988.85351</ele>
        <time>2009-01-18T09:49:45Z</time>
      </trkpt>
      <trkpt lat="43.69109" lon="6.91357">
        <ele>993.65991</ele>
        <time>2009-01-18T09:49:51Z</time>
      </trkpt>
      <trkpt lat="43.69118" lon="6.9134">
        <ele>992.21801</ele>
        <time>2009-01-18T09:49:58Z</time>
      </trkpt>
      <trkpt lat="43.69134" lon="6.91327">
        <ele>990.29541</ele>
        <time>2009-01-18T09:50:07Z</time>
      </trkpt>
      <trkpt lat="43.6915" lon="6.91316">
        <ele>990.29541</ele>
        <time>2009-01-18T09:50:17Z</time>
      </trkpt>
      <trkpt lat="43.69161" lon="6.91305">
        <ele>990.29541</ele>
        <time>2009-01-18T09:50:24Z</time>
      </trkpt>
      <trkpt lat="43.6917" lon="6.91291">
        <ele>988.85351</ele>
        <time>2009-01-18T09:50:32Z</time>
      </trkpt>
      <trkpt lat="43.69178" lon="6.91278">
        <ele>990.29541</ele>
        <time>2009-01-18T09:50:39Z</time>
      </trkpt>
      <trkpt lat="43.69188" lon="6.91262">
        <ele>994.14062</ele>
        <time>2009-01-18T09:50:47Z</time>
      </trkpt>
      <trkpt lat="43.69199" lon="6.91248">
        <ele>1000.8696</ele>
        <time>2009-01-18T09:50:54Z</time>
      </trkpt>
      <trkpt lat="43.69211" lon="6.91228">
        <ele>999.90844</ele>
        <time>2009-01-18T09:51:04Z</time>
      </trkpt>
      <trkpt lat="43.6922" lon="6.9121">
        <ele>1000.3891</ele>
        <time>2009-01-18T09:51:11Z</time>
      </trkpt>
      <trkpt lat="43.69225" lon="6.9119">
        <ele>998.94702</ele>
        <time>2009-01-18T09:51:19Z</time>
      </trkpt>
      <trkpt lat="43.69225" lon="6.91188">
        <ele>998.94702</ele>
        <time>2009-01-18T09:51:20Z</time>
      </trkpt>
      <trkpt lat="43.69232" lon="6.91173">
        <ele>996.54394</ele>
        <time>2009-01-18T09:51:27Z</time>
      </trkpt>
      <trkpt lat="43.69244" lon="6.91169">
        <ele>998.94702</ele>
        <time>2009-01-18T09:51:34Z</time>
      </trkpt>
      <trkpt lat="43.69258" lon="6.91168">
        <ele>1000.8696</ele>
        <time>2009-01-18T09:51:41Z</time>
      </trkpt>
      <trkpt lat="43.69268" lon="6.91169">
        <ele>1004.2346</ele>
        <time>2009-01-18T09:51:47Z</time>
      </trkpt>
      <trkpt lat="43.69279" lon="6.91169">
        <ele>1007.1184</ele>
        <time>2009-01-18T09:51:53Z</time>
      </trkpt>
      <trkpt lat="43.6929" lon="6.91167">
        <ele>1011.925</ele>
        <time>2009-01-18T09:52:00Z</time>
      </trkpt>
      <trkpt lat="43.69296" lon="6.91164">
        <ele>1015.2895</ele>
        <time>2009-01-18T09:52:06Z</time>
      </trkpt>
      <trkpt lat="43.69305" lon="6.9116">
        <ele>1021.0576</ele>
        <time>2009-01-18T09:52:13Z</time>
      </trkpt>
      <trkpt lat="43.69316" lon="6.91153">
        <ele>1023.4609</ele>
        <time>2009-01-18T09:52:21Z</time>
      </trkpt>
      <trkpt lat="43.69328" lon="6.91141">
        <ele>1028.2673</ele>
        <time>2009-01-18T09:52:28Z</time>
      </trkpt>
      <trkpt lat="43.69339" lon="6.91131">
        <ele>1022.9802</ele>
        <time>2009-01-18T09:52:37Z</time>
      </trkpt>
      <trkpt lat="43.69355" lon="6.91125">
        <ele>1015.2895</ele>
        <time>2009-01-18T09:52:48Z</time>
      </trkpt>
      <trkpt lat="43.69365" lon="6.91125">
        <ele>1014.8088</ele>
        <time>2009-01-18T09:52:54Z</time>
      </trkpt>
      <trkpt lat="43.69378" lon="6.91126">
        <ele>1010.9636</ele>
        <time>2009-01-18T09:53:01Z</time>
      </trkpt>
      <trkpt lat="43.69388" lon="6.91139">
        <ele>1009.041</ele>
        <time>2009-01-18T09:53:08Z</time>
      </trkpt>
      <trkpt lat="43.69392" lon="6.91153">
        <ele>1007.1184</ele>
        <time>2009-01-18T09:53:15Z</time>
      </trkpt>
      <trkpt lat="43.69398" lon="6.9117">
        <ele>1003.2729</ele>
        <time>2009-01-18T09:53:24Z</time>
      </trkpt>
      <trkpt lat="43.69407" lon="6.9119">
        <ele>999.90844</ele>
        <time>2009-01-18T09:53:32Z</time>
      </trkpt>
      <trkpt lat="43.69415" lon="6.91207">
        <ele>999.90844</ele>
        <time>2009-01-18T09:53:39Z</time>
      </trkpt>
      <trkpt lat="43.69427" lon="6.91226">
        <ele>996.06323</ele>
        <time>2009-01-18T09:53:48Z</time>
      </trkpt>
      <trkpt lat="43.69438" lon="6.91246">
        <ele>1001.3503</ele>
        <time>2009-01-18T09:53:56Z</time>
      </trkpt>
      <trkpt lat="43.69452" lon="6.91261">
        <ele>1005.1958</ele>
        <time>2009-01-18T09:54:04Z</time>
      </trkpt>
      <trkpt lat="43.69466" lon="6.91275">
        <ele>1008.0798</ele>
        <time>2009-01-18T09:54:12Z</time>
      </trkpt>
      <trkpt lat="43.6948" lon="6.91291">
        <ele>1011.4443</ele>
        <time>2009-01-18T09:54:20Z</time>
      </trkpt>
      <trkpt lat="43.69496" lon="6.91299">
        <ele>1016.2507</ele>
        <time>2009-01-18T09:54:28Z</time>
      </trkpt>
      <trkpt lat="43.69514" lon="6.91308">
        <ele>1016.7314</ele>
        <time>2009-01-18T09:54:37Z</time>
      </trkpt>
      <trkpt lat="43.69529" lon="6.91309">
        <ele>1021.538</ele>
        <time>2009-01-18T09:54:44Z</time>
      </trkpt>
      <trkpt lat="43.69548" lon="6.9132">
        <ele>1025.3833</ele>
        <time>2009-01-18T09:54:54Z</time>
      </trkpt>
      <trkpt lat="43.69557" lon="6.91337">
        <ele>1022.9802</ele>
        <time>2009-01-18T09:55:02Z</time>
      </trkpt>
      <trkpt lat="43.69568" lon="6.91353">
        <ele>1027.3061</ele>
        <time>2009-01-18T09:55:10Z</time>
      </trkpt>
      <trkpt lat="43.69582" lon="6.91368">
        <ele>1028.2673</ele>
        <time>2009-01-18T09:55:19Z</time>
      </trkpt>
      <trkpt lat="43.69595" lon="6.91379">
        <ele>1030.1899</ele>
        <time>2009-01-18T09:55:28Z</time>
      </trkpt>
      <trkpt lat="43.69607" lon="6.91383">
        <ele>1033.0737</ele>
        <time>2009-01-18T09:55:35Z</time>
      </trkpt>
      <trkpt lat="43.69621" lon="6.91383">
        <ele>1035.477</ele>
        <time>2009-01-18T09:55:43Z</time>
      </trkpt>
      <trkpt lat="43.69638" lon="6.9138">
        <ele>1031.6318</ele>
        <time>2009-01-18T09:55:52Z</time>
      </trkpt>
      <trkpt lat="43.69651" lon="6.91374">
        <ele>1034.5158</ele>
        <time>2009-01-18T09:55:59Z</time>
      </trkpt>
      <trkpt lat="43.69672" lon="6.91368">
        <ele>1040.2839</ele>
        <time>2009-01-18T09:56:09Z</time>
      </trkpt>
      <trkpt lat="43.6969" lon="6.91368">
        <ele>1042.2065</ele>
        <time>2009-01-18T09:56:18Z</time>
      </trkpt>
      <trkpt lat="43.69707" lon="6.91371">
        <ele>1042.2065</ele>
        <time>2009-01-18T09:56:27Z</time>
      </trkpt>
      <trkpt lat="43.69723" lon="6.91369">
        <ele>1038.842</ele>
        <time>2009-01-18T09:56:35Z</time>
      </trkpt>
      <trkpt lat="43.69734" lon="6.91361">
        <ele>1036.9191</ele>
        <time>2009-01-18T09:56:41Z</time>
      </trkpt>
      <trkpt lat="43.69747" lon="6.91344">
        <ele>1035.9577</ele>
        <time>2009-01-18T09:56:49Z</time>
      </trkpt>
      <trkpt lat="43.6976" lon="6.91324">
        <ele>1037.3999</ele>
        <time>2009-01-18T09:56:59Z</time>
      </trkpt>
      <trkpt lat="43.69774" lon="6.91305">
        <ele>1040.7644</ele>
        <time>2009-01-18T09:57:09Z</time>
      </trkpt>
      <trkpt lat="43.69776" lon="6.9129">
        <ele>1040.7644</ele>
        <time>2009-01-18T09:57:16Z</time>
      </trkpt>
      <trkpt lat="43.69774" lon="6.9127">
        <ele>1042.6872</ele>
        <time>2009-01-18T09:57:25Z</time>
      </trkpt>
      <trkpt lat="43.69773" lon="6.91253">
        <ele>1043.6484</ele>
        <time>2009-01-18T09:57:33Z</time>
      </trkpt>
      <trkpt lat="43.69771" lon="6.91233">
        <ele>1046.5324</ele>
        <time>2009-01-18T09:57:42Z</time>
      </trkpt>
      <trkpt lat="43.69766" lon="6.91216">
        <ele>1047.4936</ele>
        <time>2009-01-18T09:57:50Z</time>
      </trkpt>
      <trkpt lat="43.69762" lon="6.91197">
        <ele>1049.4162</ele>
        <time>2009-01-18T09:57:59Z</time>
      </trkpt>
      <trkpt lat="43.6976" lon="6.91178">
        <ele>1050.8581</ele>
        <time>2009-01-18T09:58:07Z</time>
      </trkpt>
      <trkpt lat="43.69759" lon="6.91162">
        <ele>1053.7424</ele>
        <time>2009-01-18T09:58:13Z</time>
      </trkpt>
      <trkpt lat="43.69759" lon="6.9115">
        <ele>1058.0683</ele>
        <time>2009-01-18T09:58:19Z</time>
      </trkpt>
      <trkpt lat="43.6976" lon="6.91137">
        <ele>1060.4714</ele>
        <time>2009-01-18T09:58:25Z</time>
      </trkpt>
      <trkpt lat="43.69762" lon="6.91118">
        <ele>1066.7199</ele>
        <time>2009-01-18T09:58:32Z</time>
      </trkpt>
      <trkpt lat="43.69762" lon="6.91093">
        <ele>1060.4714</ele>
        <time>2009-01-18T09:58:40Z</time>
      </trkpt>
      <trkpt lat="43.69764" lon="6.91067">
        <ele>1057.1069</ele>
        <time>2009-01-18T09:58:48Z</time>
      </trkpt>
      <trkpt lat="43.69765" lon="6.91043">
        <ele>1056.1455</ele>
        <time>2009-01-18T09:58:55Z</time>
      </trkpt>
      <trkpt lat="43.69766" lon="6.91011">
        <ele>1055.1843</ele>
        <time>2009-01-18T09:59:04Z</time>
      </trkpt>
      <trkpt lat="43.69771" lon="6.90988">
        <ele>1056.6262</ele>
        <time>2009-01-18T09:59:11Z</time>
      </trkpt>
      <trkpt lat="43.69781" lon="6.90975">
        <ele>1057.1069</ele>
        <time>2009-01-18T09:59:17Z</time>
      </trkpt>
      <trkpt lat="43.69796" lon="6.90958">
        <ele>1058.0683</ele>
        <time>2009-01-18T09:59:26Z</time>
      </trkpt>
      <trkpt lat="43.69808" lon="6.90944">
        <ele>1060.4714</ele>
        <time>2009-01-18T09:59:34Z</time>
      </trkpt>
      <trkpt lat="43.69823" lon="6.90929">
        <ele>1059.0295</ele>
        <time>2009-01-18T09:59:43Z</time>
      </trkpt>
      <trkpt lat="43.69837" lon="6.90905">
        <ele>1059.9907</ele>
        <time>2009-01-18T09:59:53Z</time>
      </trkpt>
      <trkpt lat="43.69844" lon="6.9088">
        <ele>1058.0683</ele>
        <time>2009-01-18T10:00:02Z</time>
      </trkpt>
      <trkpt lat="43.69851" lon="6.90861">
        <ele>1057.5876</ele>
        <time>2009-01-18T10:00:09Z</time>
      </trkpt>
      <trkpt lat="43.69858" lon="6.90843">
        <ele>1058.0683</ele>
        <time>2009-01-18T10:00:16Z</time>
      </trkpt>
      <trkpt lat="43.69862" lon="6.90822">
        <ele>1059.5102</ele>
        <time>2009-01-18T10:00:23Z</time>
      </trkpt>
      <trkpt lat="43.6987" lon="6.90797">
        <ele>1060.4714</ele>
        <time>2009-01-18T10:00:32Z</time>
      </trkpt>
      <trkpt lat="43.69876" lon="6.90774">
        <ele>1060.9521</ele>
        <time>2009-01-18T10:00:40Z</time>
      </trkpt>
      <trkpt lat="43.69882" lon="6.90747">
        <ele>1060.9521</ele>
        <time>2009-01-18T10:00:49Z</time>
      </trkpt>
      <trkpt lat="43.6989" lon="6.90723">
        <ele>1060.9521</ele>
        <time>2009-01-18T10:00:57Z</time>
      </trkpt>
      <trkpt lat="43.69898" lon="6.90703">
        <ele>1063.3554</ele>
        <time>2009-01-18T10:01:05Z</time>
      </trkpt>
      <trkpt lat="43.69908" lon="6.90686">
        <ele>1064.3166</ele>
        <time>2009-01-18T10:01:12Z</time>
      </trkpt>
      <trkpt lat="43.69916" lon="6.90667">
        <ele>1064.7973</ele>
        <time>2009-01-18T10:01:19Z</time>
      </trkpt>
      <trkpt lat="43.69931" lon="6.90642">
        <ele>1066.2392</ele>
        <time>2009-01-18T10:01:29Z</time>
      </trkpt>
      <trkpt lat="43.69944" lon="6.90614">
        <ele>1067.2006</ele>
        <time>2009-01-18T10:01:39Z</time>
      </trkpt>
      <trkpt lat="43.69958" lon="6.90591">
        <ele>1065.278</ele>
        <time>2009-01-18T10:01:49Z</time>
      </trkpt>
      <trkpt lat="43.69964" lon="6.90584">
        <ele>1064.3166</ele>
        <time>2009-01-18T10:01:55Z</time>
      </trkpt>
      <trkpt lat="43.69964" lon="6.90583">
        <ele>1071.5266</ele>
        <time>2009-01-18T10:03:02Z</time>
      </trkpt>
      <trkpt lat="43.6997" lon="6.90584">
        <ele>1082.5817</ele>
        <time>2009-01-18T10:04:49Z</time>
      </trkpt>
      <trkpt lat="43.6997" lon="6.90584">
        <ele>1082.5817</ele>
        <time>2009-01-18T10:04:50Z</time>
      </trkpt>
      <trkpt lat="43.69961" lon="6.90585">
        <ele>1083.0622</ele>
        <time>2009-01-18T10:04:57Z</time>
      </trkpt>
      <trkpt lat="43.69959" lon="6.90586">
        <ele>1082.101</ele>
        <time>2009-01-18T10:05:05Z</time>
      </trkpt>
      <trkpt lat="43.69958" lon="6.90583">
        <ele>1075.8525</ele>
        <time>2009-01-18T10:06:20Z</time>
      </trkpt>
      <trkpt lat="43.69957" lon="6.90583">
        <ele>1074.8913</ele>
        <time>2009-01-18T10:06:38Z</time>
      </trkpt>
      <trkpt lat="43.69956" lon="6.90585">
        <ele>1077.7751</ele>
        <time>2009-01-18T10:07:00Z</time>
      </trkpt>
      <trkpt lat="43.69955" lon="6.9058">
        <ele>1069.6042</ele>
        <time>2009-01-18T10:07:19Z</time>
      </trkpt>
      <trkpt lat="43.69957" lon="6.9058">
        <ele>1067.6811</ele>
        <time>2009-01-18T10:07:58Z</time>
      </trkpt>
      <trkpt lat="43.69957" lon="6.90579">
        <ele>1067.2006</ele>
        <time>2009-01-18T10:08:17Z</time>
      </trkpt>
      <trkpt lat="43.69957" lon="6.90579">
        <ele>1069.6042</ele>
        <time>2009-01-18T10:08:31Z</time>
      </trkpt>
      <trkpt lat="43.69957" lon="6.90579">
        <ele>1068.6428</ele>
        <time>2009-01-18T10:08:52Z</time>
      </trkpt>
      <trkpt lat="43.69957" lon="6.90581">
        <ele>1072.0073</ele>
        <time>2009-01-18T10:09:10Z</time>
      </trkpt>
      <trkpt lat="43.69956" lon="6.90582">
        <ele>1072.0073</ele>
        <time>2009-01-18T10:09:35Z</time>
      </trkpt>
      <trkpt lat="43.69957" lon="6.90581">
        <ele>1070.5654</ele>
        <time>2009-01-18T10:10:02Z</time>
      </trkpt>
      <trkpt lat="43.69958" lon="6.90582">
        <ele>1077.7751</ele>
        <time>2009-01-18T10:11:45Z</time>
      </trkpt>
      <trkpt lat="43.69959" lon="6.90582">
        <ele>1087.8691</ele>
        <time>2009-01-18T10:12:52Z</time>
      </trkpt>
      <trkpt lat="43.69957" lon="6.90584">
        <ele>1080.1784</ele>
        <time>2009-01-18T10:13:04Z</time>
      </trkpt>
      <trkpt lat="43.69958" lon="6.90585">
        <ele>1078.2558</ele>
        <time>2009-01-18T10:13:17Z</time>
      </trkpt>
      <trkpt lat="43.69958" lon="6.90584">
        <ele>1077.2946</ele>
        <time>2009-01-18T10:13:27Z</time>
      </trkpt>
      <trkpt lat="43.69958" lon="6.90584">
        <ele>1075.8525</ele>
        <time>2009-01-18T10:13:33Z</time>
      </trkpt>
      <trkpt lat="43.69957" lon="6.90583">
        <ele>1076.3332</ele>
        <time>2009-01-18T10:14:03Z</time>
      </trkpt>
      <trkpt lat="43.69956" lon="6.90585">
        <ele>1074.4106</ele>
        <time>2009-01-18T10:14:07Z</time>
      </trkpt>
      <trkpt lat="43.6995" lon="6.906">
        <ele>1072.9687</ele>
        <time>2009-01-18T10:14:13Z</time>
      </trkpt>
      <trkpt lat="43.69938" lon="6.9062">
        <ele>1072.488</ele>
        <time>2009-01-18T10:14:19Z</time>
      </trkpt>
      <trkpt lat="43.69926" lon="6.90643">
        <ele>1072.488</ele>
        <time>2009-01-18T10:14:25Z</time>
      </trkpt>
      <trkpt lat="43.6991" lon="6.90675">
        <ele>1071.5266</ele>
        <time>2009-01-18T10:14:32Z</time>
      </trkpt>
      <trkpt lat="43.69892" lon="6.90711">
        <ele>1069.1235</ele>
        <time>2009-01-18T10:14:39Z</time>
      </trkpt>
      <trkpt lat="43.69879" lon="6.90751">
        <ele>1066.7199</ele>
        <time>2009-01-18T10:14:45Z</time>
      </trkpt>
      <trkpt lat="43.69866" lon="6.908">
        <ele>1063.3554</ele>
        <time>2009-01-18T10:14:52Z</time>
      </trkpt>
      <trkpt lat="43.69852" lon="6.90851">
        <ele>1058.5488</ele>
        <time>2009-01-18T10:14:59Z</time>
      </trkpt>
      <trkpt lat="43.69836" lon="6.90896">
        <ele>1057.5876</ele>
        <time>2009-01-18T10:15:06Z</time>
      </trkpt>
      <trkpt lat="43.69833" lon="6.90903">
        <ele>1057.1069</ele>
        <time>2009-01-18T10:15:07Z</time>
      </trkpt>
      <trkpt lat="43.69827" lon="6.90916">
        <ele>1056.1455</ele>
        <time>2009-01-18T10:15:09Z</time>
      </trkpt>
      <trkpt lat="43.69813" lon="6.90936">
        <ele>1054.7036</ele>
        <time>2009-01-18T10:15:13Z</time>
      </trkpt>
      <trkpt lat="43.69799" lon="6.90945">
        <ele>1055.1843</ele>
        <time>2009-01-18T10:15:16Z</time>
      </trkpt>
      <trkpt lat="43.69768" lon="6.90974">
        <ele>1054.7036</ele>
        <time>2009-01-18T10:15:23Z</time>
      </trkpt>
      <trkpt lat="43.6976" lon="6.91001">
        <ele>1054.2231</ele>
        <time>2009-01-18T10:15:28Z</time>
      </trkpt>
      <trkpt lat="43.6976" lon="6.91008">
        <ele>1054.2231</ele>
        <time>2009-01-18T10:15:29Z</time>
      </trkpt>
      <trkpt lat="43.69759" lon="6.91068">
        <ele>1055.1843</ele>
        <time>2009-01-18T10:15:38Z</time>
      </trkpt>
      <trkpt lat="43.69755" lon="6.91111">
        <ele>1055.665</ele>
        <time>2009-01-18T10:15:45Z</time>
      </trkpt>
      <trkpt lat="43.69752" lon="6.91133">
        <ele>1057.1069</ele>
        <time>2009-01-18T10:15:48Z</time>
      </trkpt>
      <trkpt lat="43.69751" lon="6.91158">
        <ele>1056.1455</ele>
        <time>2009-01-18T10:15:51Z</time>
      </trkpt>
      <trkpt lat="43.69757" lon="6.91197">
        <ele>1047.4936</ele>
        <time>2009-01-18T10:15:57Z</time>
      </trkpt>
      <trkpt lat="43.69768" lon="6.91232">
        <ele>1041.2451</ele>
        <time>2009-01-18T10:16:03Z</time>
      </trkpt>
      <trkpt lat="43.69774" lon="6.91272">
        <ele>1035.9577</ele>
        <time>2009-01-18T10:16:09Z</time>
      </trkpt>
      <trkpt lat="43.69775" lon="6.9128">
        <ele>1034.9965</ele>
        <time>2009-01-18T10:16:10Z</time>
      </trkpt>
      <trkpt lat="43.6977" lon="6.9131">
        <ele>1036.9191</ele>
        <time>2009-01-18T10:16:14Z</time>
      </trkpt>
      <trkpt lat="43.69766" lon="6.91316">
        <ele>1037.3999</ele>
        <time>2009-01-18T10:16:15Z</time>
      </trkpt>
      <trkpt lat="43.69741" lon="6.91354">
        <ele>1036.9191</ele>
        <time>2009-01-18T10:16:21Z</time>
      </trkpt>
      <trkpt lat="43.69732" lon="6.91364">
        <ele>1037.3999</ele>
        <time>2009-01-18T10:16:24Z</time>
      </trkpt>
      <trkpt lat="43.69732" lon="6.91363">
        <ele>1040.7644</ele>
        <time>2009-01-18T10:16:28Z</time>
      </trkpt>
      <trkpt lat="43.69733" lon="6.91364">
        <ele>1040.7644</ele>
        <time>2009-01-18T10:16:31Z</time>
      </trkpt>
      <trkpt lat="43.69727" lon="6.91371">
        <ele>1038.3613</ele>
        <time>2009-01-18T10:16:40Z</time>
      </trkpt>
      <trkpt lat="43.69724" lon="6.91373">
        <ele>1036.4387</ele>
        <time>2009-01-18T10:16:47Z</time>
      </trkpt>
      <trkpt lat="43.69718" lon="6.91381">
        <ele>1036.9191</ele>
        <time>2009-01-18T10:16:52Z</time>
      </trkpt>
      <trkpt lat="43.69708" lon="6.9139">
        <ele>1037.8806</ele>
        <time>2009-01-18T10:16:57Z</time>
      </trkpt>
      <trkpt lat="43.69705" lon="6.91396">
        <ele>1037.8806</ele>
        <time>2009-01-18T10:17:01Z</time>
      </trkpt>
      <trkpt lat="43.69705" lon="6.91396">
        <ele>1037.3999</ele>
        <time>2009-01-18T10:17:08Z</time>
      </trkpt>
      <trkpt lat="43.69704" lon="6.91398">
        <ele>1035.477</ele>
        <time>2009-01-18T10:17:22Z</time>
      </trkpt>
      <trkpt lat="43.69701" lon="6.91401">
        <ele>1034.9965</ele>
        <time>2009-01-18T10:17:28Z</time>
      </trkpt>
      <trkpt lat="43.697" lon="6.91403">
        <ele>1034.0351</ele>
        <time>2009-01-18T10:17:30Z</time>
      </trkpt>
      <trkpt lat="43.69692" lon="6.914">
        <ele>1030.6706</ele>
        <time>2009-01-18T10:17:36Z</time>
      </trkpt>
      <trkpt lat="43.69682" lon="6.91397">
        <ele>1029.2285</ele>
        <time>2009-01-18T10:17:40Z</time>
      </trkpt>
      <trkpt lat="43.69679" lon="6.91412">
        <ele>1026.8254</ele>
        <time>2009-01-18T10:17:45Z</time>
      </trkpt>
      <trkpt lat="43.69678" lon="6.91425">
        <ele>1025.3833</ele>
        <time>2009-01-18T10:17:50Z</time>
      </trkpt>
      <trkpt lat="43.69678" lon="6.91423">
        <ele>1026.3447</ele>
        <time>2009-01-18T10:18:01Z</time>
      </trkpt>
      <trkpt lat="43.69677" lon="6.91424">
        <ele>1024.9028</ele>
        <time>2009-01-18T10:18:11Z</time>
      </trkpt>
      <trkpt lat="43.69678" lon="6.91434">
        <ele>1023.9414</ele>
        <time>2009-01-18T10:18:15Z</time>
      </trkpt>
      <trkpt lat="43.69681" lon="6.91439">
        <ele>1023.4609</ele>
        <time>2009-01-18T10:18:19Z</time>
      </trkpt>
      <trkpt lat="43.69688" lon="6.91452">
        <ele>1021.538</ele>
        <time>2009-01-18T10:18:25Z</time>
      </trkpt>
      <trkpt lat="43.69692" lon="6.91459">
        <ele>1020.0961</ele>
        <time>2009-01-18T10:18:30Z</time>
      </trkpt>
      <trkpt lat="43.69699" lon="6.91471">
        <ele>1016.2507</ele>
        <time>2009-01-18T10:18:36Z</time>
      </trkpt>
      <trkpt lat="43.69704" lon="6.91481">
        <ele>1013.3669</ele>
        <time>2009-01-18T10:18:41Z</time>
      </trkpt>
      <trkpt lat="43.69706" lon="6.91485">
        <ele>1010.9636</ele>
        <time>2009-01-18T10:18:46Z</time>
      </trkpt>
      <trkpt lat="43.69708" lon="6.9149">
        <ele>1015.2895</ele>
        <time>2009-01-18T10:19:01Z</time>
      </trkpt>
      <trkpt lat="43.69714" lon="6.91503">
        <ele>1012.8862</ele>
        <time>2009-01-18T10:19:07Z</time>
      </trkpt>
      <trkpt lat="43.69715" lon="6.91505">
        <ele>1011.4443</ele>
        <time>2009-01-18T10:19:14Z</time>
      </trkpt>
      <trkpt lat="43.6971" lon="6.9151">
        <ele>1012.4055</ele>
        <time>2009-01-18T10:19:20Z</time>
      </trkpt>
      <trkpt lat="43.69706" lon="6.9151">
        <ele>1015.2895</ele>
        <time>2009-01-18T10:19:27Z</time>
      </trkpt>
      <trkpt lat="43.69703" lon="6.91511">
        <ele>1013.3669</ele>
        <time>2009-01-18T10:19:34Z</time>
      </trkpt>
      <trkpt lat="43.69693" lon="6.91522">
        <ele>1012.8862</ele>
        <time>2009-01-18T10:19:40Z</time>
      </trkpt>
      <trkpt lat="43.6969" lon="6.91529">
        <ele>1013.8474</ele>
        <time>2009-01-18T10:19:44Z</time>
      </trkpt>
      <trkpt lat="43.69688" lon="6.91531">
        <ele>1010.4829</ele>
        <time>2009-01-18T10:19:49Z</time>
      </trkpt>
      <trkpt lat="43.69686" lon="6.91534">
        <ele>1011.925</ele>
        <time>2009-01-18T10:19:54Z</time>
      </trkpt>
      <trkpt lat="43.6968" lon="6.9155">
        <ele>1012.8862</ele>
        <time>2009-01-18T10:20:00Z</time>
      </trkpt>
      <trkpt lat="43.69677" lon="6.91572">
        <ele>1011.925</ele>
        <time>2009-01-18T10:20:06Z</time>
      </trkpt>
      <trkpt lat="43.69679" lon="6.91582">
        <ele>1010.0021</ele>
        <time>2009-01-18T10:20:11Z</time>
      </trkpt>
      <trkpt lat="43.69681" lon="6.91587">
        <ele>1007.5991</ele>
        <time>2009-01-18T10:20:15Z</time>
      </trkpt>
      <trkpt lat="43.6968" lon="6.91591">
        <ele>1006.1569</ele>
        <time>2009-01-18T10:20:23Z</time>
      </trkpt>
      <trkpt lat="43.69682" lon="6.91596">
        <ele>1003.2729</ele>
        <time>2009-01-18T10:20:29Z</time>
      </trkpt>
      <trkpt lat="43.69682" lon="6.91596">
        <ele>1002.3115</ele>
        <time>2009-01-18T10:20:36Z</time>
      </trkpt>
      <trkpt lat="43.69685" lon="6.916">
        <ele>1002.7922</ele>
        <time>2009-01-18T10:20:44Z</time>
      </trkpt>
      <trkpt lat="43.69685" lon="6.91602">
        <ele>1006.1569</ele>
        <time>2009-01-18T10:20:49Z</time>
      </trkpt>
      <trkpt lat="43.69688" lon="6.91609">
        <ele>1006.6376</ele>
        <time>2009-01-18T10:20:54Z</time>
      </trkpt>
      <trkpt lat="43.69692" lon="6.91615">
        <ele>1007.1184</ele>
        <time>2009-01-18T10:21:00Z</time>
      </trkpt>
      <trkpt lat="43.69694" lon="6.91617">
        <ele>1006.6376</ele>
        <time>2009-01-18T10:21:03Z</time>
      </trkpt>
      <trkpt lat="43.69695" lon="6.91627">
        <ele>1004.2346</ele>
        <time>2009-01-18T10:21:10Z</time>
      </trkpt>
      <trkpt lat="43.69694" lon="6.91628">
        <ele>1002.7922</ele>
        <time>2009-01-18T10:21:14Z</time>
      </trkpt>
      <trkpt lat="43.69694" lon="6.91626">
        <ele>999.42773</ele>
        <time>2009-01-18T10:21:28Z</time>
      </trkpt>
      <trkpt lat="43.69693" lon="6.91625">
        <ele>993.17919</ele>
        <time>2009-01-18T10:21:53Z</time>
      </trkpt>
      <trkpt lat="43.69688" lon="6.91623">
        <ele>994.62109</ele>
        <time>2009-01-18T10:21:59Z</time>
      </trkpt>
      <trkpt lat="43.6968" lon="6.91616">
        <ele>995.1018</ele>
        <time>2009-01-18T10:22:05Z</time>
      </trkpt>
      <trkpt lat="43.69677" lon="6.91615">
        <ele>995.1018</ele>
        <time>2009-01-18T10:22:06Z</time>
      </trkpt>
      <trkpt lat="43.69672" lon="6.91622">
        <ele>996.54394</ele>
        <time>2009-01-18T10:22:10Z</time>
      </trkpt>
      <trkpt lat="43.69674" lon="6.91634">
        <ele>997.02441</ele>
        <time>2009-01-18T10:22:16Z</time>
      </trkpt>
      <trkpt lat="43.6968" lon="6.91648">
        <ele>993.17919</ele>
        <time>2009-01-18T10:22:23Z</time>
      </trkpt>
      <trkpt lat="43.69684" lon="6.91656">
        <ele>992.69873</ele>
        <time>2009-01-18T10:22:27Z</time>
      </trkpt>
      <trkpt lat="43.69684" lon="6.91656">
        <ele>989.81469</ele>
        <time>2009-01-18T10:22:33Z</time>
      </trkpt>
      <trkpt lat="43.69684" lon="6.91658">
        <ele>990.29541</ele>
        <time>2009-01-18T10:22:40Z</time>
      </trkpt>
      <trkpt lat="43.69685" lon="6.91662">
        <ele>989.81469</ele>
        <time>2009-01-18T10:22:55Z</time>
      </trkpt>
      <trkpt lat="43.69691" lon="6.9167">
        <ele>989.81469</ele>
        <time>2009-01-18T10:23:00Z</time>
      </trkpt>
      <trkpt lat="43.69696" lon="6.91677">
        <ele>988.3728</ele>
        <time>2009-01-18T10:23:03Z</time>
      </trkpt>
      <trkpt lat="43.69693" lon="6.91687">
        <ele>988.3728</ele>
        <time>2009-01-18T10:23:07Z</time>
      </trkpt>
      <trkpt lat="43.6969" lon="6.91687">
        <ele>989.33398</ele>
        <time>2009-01-18T10:23:09Z</time>
      </trkpt>
      <trkpt lat="43.69681" lon="6.91685">
        <ele>989.81469</ele>
        <time>2009-01-18T10:23:13Z</time>
      </trkpt>
      <trkpt lat="43.69673" lon="6.91698">
        <ele>991.25659</ele>
        <time>2009-01-18T10:23:18Z</time>
      </trkpt>
      <trkpt lat="43.69672" lon="6.9171">
        <ele>993.65991</ele>
        <time>2009-01-18T10:23:23Z</time>
      </trkpt>
      <trkpt lat="43.69672" lon="6.91717">
        <ele>993.17919</ele>
        <time>2009-01-18T10:23:25Z</time>
      </trkpt>
      <trkpt lat="43.69669" lon="6.91732">
        <ele>992.21801</ele>
        <time>2009-01-18T10:23:30Z</time>
      </trkpt>
      <trkpt lat="43.69669" lon="6.91734">
        <ele>989.33398</ele>
        <time>2009-01-18T10:23:36Z</time>
      </trkpt>
      <trkpt lat="43.69669" lon="6.91735">
        <ele>983.56591</ele>
        <time>2009-01-18T10:23:56Z</time>
      </trkpt>
      <trkpt lat="43.69668" lon="6.91738">
        <ele>986.93041</ele>
        <time>2009-01-18T10:24:13Z</time>
      </trkpt>
      <trkpt lat="43.69668" lon="6.91738">
        <ele>987.41113</ele>
        <time>2009-01-18T10:24:23Z</time>
      </trkpt>
      <trkpt lat="43.69668" lon="6.91737">
        <ele>984.52734</ele>
        <time>2009-01-18T10:24:35Z</time>
      </trkpt>
      <trkpt lat="43.69669" lon="6.91736">
        <ele>983.56591</ele>
        <time>2009-01-18T10:24:47Z</time>
      </trkpt>
      <trkpt lat="43.69669" lon="6.91735">
        <ele>982.12402</ele>
        <time>2009-01-18T10:25:01Z</time>
      </trkpt>
      <trkpt lat="43.69672" lon="6.91742">
        <ele>980.20141</ele>
        <time>2009-01-18T10:25:06Z</time>
      </trkpt>
      <trkpt lat="43.69677" lon="6.91757">
        <ele>981.64331</ele>
        <time>2009-01-18T10:25:12Z</time>
      </trkpt>
      <trkpt lat="43.69678" lon="6.9176">
        <ele>979.23999</ele>
        <time>2009-01-18T10:25:17Z</time>
      </trkpt>
      <trkpt lat="43.69679" lon="6.91765">
        <ele>978.2788</ele>
        <time>2009-01-18T10:25:21Z</time>
      </trkpt>
      <trkpt lat="43.69679" lon="6.91772">
        <ele>979.23999</ele>
        <time>2009-01-18T10:25:26Z</time>
      </trkpt>
      <trkpt lat="43.69679" lon="6.91781">
        <ele>978.2788</ele>
        <time>2009-01-18T10:25:32Z</time>
      </trkpt>
      <trkpt lat="43.69679" lon="6.9179">
        <ele>978.75952</ele>
        <time>2009-01-18T10:25:38Z</time>
      </trkpt>
      <trkpt lat="43.69679" lon="6.91795">
        <ele>981.64331</ele>
        <time>2009-01-18T10:25:44Z</time>
      </trkpt>
      <trkpt lat="43.69678" lon="6.91796">
        <ele>983.56591</ele>
        <time>2009-01-18T10:25:53Z</time>
      </trkpt>
      <trkpt lat="43.69683" lon="6.91809">
        <ele>979.23999</ele>
        <time>2009-01-18T10:25:59Z</time>
      </trkpt>
      <trkpt lat="43.69701" lon="6.91828">
        <ele>976.83691</ele>
        <time>2009-01-18T10:26:05Z</time>
      </trkpt>
      <trkpt lat="43.69702" lon="6.91831">
        <ele>975.39477</ele>
        <time>2009-01-18T10:26:06Z</time>
      </trkpt>
      <trkpt lat="43.69706" lon="6.9185">
        <ele>976.83691</ele>
        <time>2009-01-18T10:26:11Z</time>
      </trkpt>
      <trkpt lat="43.69711" lon="6.91867">
        <ele>974.43359</ele>
        <time>2009-01-18T10:26:15Z</time>
      </trkpt>
      <trkpt lat="43.69713" lon="6.91881">
        <ele>973.95288</ele>
        <time>2009-01-18T10:26:19Z</time>
      </trkpt>
      <trkpt lat="43.69717" lon="6.91907">
        <ele>971.06884</ele>
        <time>2009-01-18T10:26:24Z</time>
      </trkpt>
      <trkpt lat="43.69723" lon="6.91933">
        <ele>965.78173</ele>
        <time>2009-01-18T10:26:29Z</time>
      </trkpt>
      <trkpt lat="43.69724" lon="6.91948">
        <ele>970.58813</ele>
        <time>2009-01-18T10:26:33Z</time>
      </trkpt>
      <trkpt lat="43.69726" lon="6.91956">
        <ele>974.43359</ele>
        <time>2009-01-18T10:26:46Z</time>
      </trkpt>
      <trkpt lat="43.69731" lon="6.91954">
        <ele>975.87548</ele>
        <time>2009-01-18T10:26:55Z</time>
      </trkpt>
      <trkpt lat="43.69725" lon="6.9195">
        <ele>974.9143</ele>
        <time>2009-01-18T10:27:26Z</time>
      </trkpt>
      <trkpt lat="43.69724" lon="6.91949">
        <ele>971.06884</ele>
        <time>2009-01-18T10:28:17Z</time>
      </trkpt>
      <trkpt lat="43.69725" lon="6.91947">
        <ele>964.82031</ele>
        <time>2009-01-18T10:29:15Z</time>
      </trkpt>
      <trkpt lat="43.69727" lon="6.91949">
        <ele>966.2622</ele>
        <time>2009-01-18T10:29:18Z</time>
      </trkpt>
      <trkpt lat="43.69728" lon="6.91967">
        <ele>968.18481</ele>
        <time>2009-01-18T10:29:23Z</time>
      </trkpt>
      <trkpt lat="43.69731" lon="6.91992">
        <ele>962.8977</ele>
        <time>2009-01-18T10:29:29Z</time>
      </trkpt>
      <trkpt lat="43.69727" lon="6.9201">
        <ele>959.05249</ele>
        <time>2009-01-18T10:29:33Z</time>
      </trkpt>
      <trkpt lat="43.69724" lon="6.92032">
        <ele>954.72631</ele>
        <time>2009-01-18T10:29:37Z</time>
      </trkpt>
      <trkpt lat="43.69721" lon="6.92061">
        <ele>951.84252</ele>
        <time>2009-01-18T10:29:42Z</time>
      </trkpt>
      <trkpt lat="43.69721" lon="6.92079">
        <ele>947.99731</ele>
        <time>2009-01-18T10:29:47Z</time>
      </trkpt>
      <trkpt lat="43.69722" lon="6.92084">
        <ele>945.59399</ele>
        <time>2009-01-18T10:29:49Z</time>
      </trkpt>
      <trkpt lat="43.69721" lon="6.92097">
        <ele>950.40063</ele>
        <time>2009-01-18T10:29:56Z</time>
      </trkpt>
      <trkpt lat="43.69719" lon="6.92104">
        <ele>951.36181</ele>
        <time>2009-01-18T10:30:04Z</time>
      </trkpt>
      <trkpt lat="43.69719" lon="6.92115">
        <ele>948.95849</ele>
        <time>2009-01-18T10:30:10Z</time>
      </trkpt>
      <trkpt lat="43.6972" lon="6.92122">
        <ele>952.32299</ele>
        <time>2009-01-18T10:30:16Z</time>
      </trkpt>
      <trkpt lat="43.69718" lon="6.92129">
        <ele>954.24584</ele>
        <time>2009-01-18T10:30:22Z</time>
      </trkpt>
      <trkpt lat="43.69716" lon="6.9214">
        <ele>955.20703</ele>
        <time>2009-01-18T10:30:30Z</time>
      </trkpt>
      <trkpt lat="43.69716" lon="6.92136">
        <ele>961.45581</ele>
        <time>2009-01-18T10:30:41Z</time>
      </trkpt>
      <trkpt lat="43.69715" lon="6.92145">
        <ele>959.05249</ele>
        <time>2009-01-18T10:30:46Z</time>
      </trkpt>
      <trkpt lat="43.69712" lon="6.92157">
        <ele>959.05249</ele>
        <time>2009-01-18T10:30:50Z</time>
      </trkpt>
      <trkpt lat="43.6971" lon="6.92171">
        <ele>957.61059</ele>
        <time>2009-01-18T10:30:55Z</time>
      </trkpt>
      <trkpt lat="43.69709" lon="6.92178">
        <ele>958.57177</ele>
        <time>2009-01-18T10:31:00Z</time>
      </trkpt>
      <trkpt lat="43.69708" lon="6.92184">
        <ele>956.64916</ele>
        <time>2009-01-18T10:31:06Z</time>
      </trkpt>
      <trkpt lat="43.6971" lon="6.92193">
        <ele>949.91992</ele>
        <time>2009-01-18T10:31:12Z</time>
      </trkpt>
      <trkpt lat="43.69714" lon="6.92207">
        <ele>943.19067</ele>
        <time>2009-01-18T10:31:21Z</time>
      </trkpt>
      <trkpt lat="43.69715" lon="6.92213">
        <ele>945.59399</ele>
        <time>2009-01-18T10:31:27Z</time>
      </trkpt>
      <trkpt lat="43.69715" lon="6.92214">
        <ele>945.59399</ele>
        <time>2009-01-18T10:31:30Z</time>
      </trkpt>
      <trkpt lat="43.69715" lon="6.92221">
        <ele>945.11328</ele>
        <time>2009-01-18T10:31:34Z</time>
      </trkpt>
      <trkpt lat="43.69715" lon="6.92238">
        <ele>946.55541</ele>
        <time>2009-01-18T10:31:43Z</time>
      </trkpt>
      <trkpt lat="43.69716" lon="6.92247">
        <ele>947.99731</ele>
        <time>2009-01-18T10:31:50Z</time>
      </trkpt>
      <trkpt lat="43.69716" lon="6.92255">
        <ele>947.03588</ele>
        <time>2009-01-18T10:31:55Z</time>
      </trkpt>
      <trkpt lat="43.69714" lon="6.92278">
        <ele>947.99731</ele>
        <time>2009-01-18T10:32:01Z</time>
      </trkpt>
      <trkpt lat="43.69714" lon="6.92288">
        <ele>947.99731</ele>
        <time>2009-01-18T10:32:05Z</time>
      </trkpt>
      <trkpt lat="43.69712" lon="6.92292">
        <ele>946.0747</ele>
        <time>2009-01-18T10:32:10Z</time>
      </trkpt>
      <trkpt lat="43.69711" lon="6.92296">
        <ele>947.03588</ele>
        <time>2009-01-18T10:32:14Z</time>
      </trkpt>
      <trkpt lat="43.69708" lon="6.92303">
        <ele>947.03588</ele>
        <time>2009-01-18T10:32:21Z</time>
      </trkpt>
      <trkpt lat="43.69705" lon="6.92311">
        <ele>946.55541</ele>
        <time>2009-01-18T10:32:28Z</time>
      </trkpt>
      <trkpt lat="43.69703" lon="6.92317">
        <ele>945.11328</ele>
        <time>2009-01-18T10:32:35Z</time>
      </trkpt>
      <trkpt lat="43.69703" lon="6.92315">
        <ele>953.76513</ele>
        <time>2009-01-18T10:32:49Z</time>
      </trkpt>
      <trkpt lat="43.69703" lon="6.92313">
        <ele>946.0747</ele>
        <time>2009-01-18T10:33:04Z</time>
      </trkpt>
      <trkpt lat="43.69698" lon="6.92322">
        <ele>944.15209</ele>
        <time>2009-01-18T10:33:11Z</time>
      </trkpt>
      <trkpt lat="43.69694" lon="6.92333">
        <ele>946.55541</ele>
        <time>2009-01-18T10:33:18Z</time>
      </trkpt>
      <trkpt lat="43.69691" lon="6.92348">
        <ele>944.63256</ele>
        <time>2009-01-18T10:33:25Z</time>
      </trkpt>
      <trkpt lat="43.6969" lon="6.92358">
        <ele>942.7102</ele>
        <time>2009-01-18T10:33:30Z</time>
      </trkpt>
      <trkpt lat="43.6969" lon="6.92369">
        <ele>945.59399</ele>
        <time>2009-01-18T10:33:36Z</time>
      </trkpt>
      <trkpt lat="43.69693" lon="6.92391">
        <ele>945.59399</ele>
        <time>2009-01-18T10:33:46Z</time>
      </trkpt>
      <trkpt lat="43.69695" lon="6.92401">
        <ele>943.67138</ele>
        <time>2009-01-18T10:33:52Z</time>
      </trkpt>
      <trkpt lat="43.69696" lon="6.92411">
        <ele>940.30688</ele>
        <time>2009-01-18T10:33:59Z</time>
      </trkpt>
      <trkpt lat="43.69695" lon="6.92414">
        <ele>939.82592</ele>
        <time>2009-01-18T10:34:04Z</time>
      </trkpt>
      <trkpt lat="43.69692" lon="6.92421">
        <ele>945.11328</ele>
        <time>2009-01-18T10:34:10Z</time>
      </trkpt>
      <trkpt lat="43.69695" lon="6.92433">
        <ele>945.59399</ele>
        <time>2009-01-18T10:34:17Z</time>
      </trkpt>
      <trkpt lat="43.69694" lon="6.9244">
        <ele>941.26806</ele>
        <time>2009-01-18T10:34:23Z</time>
      </trkpt>
      <trkpt lat="43.69696" lon="6.92446">
        <ele>939.34521</ele>
        <time>2009-01-18T10:34:26Z</time>
      </trkpt>
      <trkpt lat="43.69697" lon="6.9245">
        <ele>940.30688</ele>
        <time>2009-01-18T10:34:30Z</time>
      </trkpt>
      <trkpt lat="43.69696" lon="6.92463">
        <ele>941.26806</ele>
        <time>2009-01-18T10:34:37Z</time>
      </trkpt>
      <trkpt lat="43.69697" lon="6.92469">
        <ele>946.0747</ele>
        <time>2009-01-18T10:34:44Z</time>
      </trkpt>
      <trkpt lat="43.69695" lon="6.92471">
        <ele>942.7102</ele>
        <time>2009-01-18T10:34:50Z</time>
      </trkpt>
      <trkpt lat="43.69693" lon="6.92482">
        <ele>941.74877</ele>
        <time>2009-01-18T10:34:54Z</time>
      </trkpt>
      <trkpt lat="43.69693" lon="6.92495">
        <ele>943.67138</ele>
        <time>2009-01-18T10:34:58Z</time>
      </trkpt>
      <trkpt lat="43.69693" lon="6.92517">
        <ele>942.22949</ele>
        <time>2009-01-18T10:35:04Z</time>
      </trkpt>
      <trkpt lat="43.69693" lon="6.92531">
        <ele>937.90332</ele>
        <time>2009-01-18T10:35:09Z</time>
      </trkpt>
      <trkpt lat="43.69692" lon="6.92545">
        <ele>942.22949</ele>
        <time>2009-01-18T10:35:15Z</time>
      </trkpt>
      <trkpt lat="43.6969" lon="6.9255">
        <ele>944.15209</ele>
        <time>2009-01-18T10:35:21Z</time>
      </trkpt>
      <trkpt lat="43.69688" lon="6.92555">
        <ele>943.67138</ele>
        <time>2009-01-18T10:35:28Z</time>
      </trkpt>
      <trkpt lat="43.6969" lon="6.92569">
        <ele>956.64916</ele>
        <time>2009-01-18T10:35:50Z</time>
      </trkpt>
      <trkpt lat="43.69692" lon="6.92572">
        <ele>963.37841</ele>
        <time>2009-01-18T10:36:07Z</time>
      </trkpt>
      <trkpt lat="43.69692" lon="6.92569">
        <ele>949.91992</ele>
        <time>2009-01-18T10:36:52Z</time>
      </trkpt>
      <trkpt lat="43.69689" lon="6.92573">
        <ele>951.84252</ele>
        <time>2009-01-18T10:37:20Z</time>
      </trkpt>
      <trkpt lat="43.6969" lon="6.9257">
        <ele>937.4226</ele>
        <time>2009-01-18T10:37:42Z</time>
      </trkpt>
      <trkpt lat="43.69691" lon="6.92567">
        <ele>937.4226</ele>
        <time>2009-01-18T10:37:55Z</time>
      </trkpt>
      <trkpt lat="43.69692" lon="6.92565">
        <ele>939.34521</ele>
        <time>2009-01-18T10:38:05Z</time>
      </trkpt>
      <trkpt lat="43.69688" lon="6.92562">
        <ele>948.95849</ele>
        <time>2009-01-18T10:38:32Z</time>
      </trkpt>
      <trkpt lat="43.69683" lon="6.92572">
        <ele>947.5166</ele>
        <time>2009-01-18T10:38:37Z</time>
      </trkpt>
      <trkpt lat="43.6968" lon="6.92583">
        <ele>942.7102</ele>
        <time>2009-01-18T10:38:43Z</time>
      </trkpt>
      <trkpt lat="43.6968" lon="6.92584">
        <ele>942.22949</ele>
        <time>2009-01-18T10:38:45Z</time>
      </trkpt>
      <trkpt lat="43.69675" lon="6.92594">
        <ele>942.22949</ele>
        <time>2009-01-18T10:38:53Z</time>
      </trkpt>
      <trkpt lat="43.69671" lon="6.92601">
        <ele>942.22949</ele>
        <time>2009-01-18T10:38:59Z</time>
      </trkpt>
      <trkpt lat="43.69668" lon="6.9261">
        <ele>942.22949</ele>
        <time>2009-01-18T10:39:05Z</time>
      </trkpt>
      <trkpt lat="43.69666" lon="6.92613">
        <ele>938.86474</ele>
        <time>2009-01-18T10:39:10Z</time>
      </trkpt>
      <trkpt lat="43.69665" lon="6.92621">
        <ele>938.38403</ele>
        <time>2009-01-18T10:39:25Z</time>
      </trkpt>
      <trkpt lat="43.69663" lon="6.92642">
        <ele>934.0581</ele>
        <time>2009-01-18T10:39:30Z</time>
      </trkpt>
      <trkpt lat="43.69658" lon="6.92657">
        <ele>935.98071</ele>
        <time>2009-01-18T10:39:34Z</time>
      </trkpt>
      <trkpt lat="43.69649" lon="6.92674">
        <ele>940.78735</ele>
        <time>2009-01-18T10:39:39Z</time>
      </trkpt>
      <trkpt lat="43.69642" lon="6.92696">
        <ele>939.82592</ele>
        <time>2009-01-18T10:39:44Z</time>
      </trkpt>
      <trkpt lat="43.69645" lon="6.92706">
        <ele>935.01953</ele>
        <time>2009-01-18T10:39:50Z</time>
      </trkpt>
      <trkpt lat="43.69645" lon="6.92715">
        <ele>935.98071</ele>
        <time>2009-01-18T10:39:57Z</time>
      </trkpt>
      <trkpt lat="43.69647" lon="6.92725">
        <ele>933.57739</ele>
        <time>2009-01-18T10:40:04Z</time>
      </trkpt>
      <trkpt lat="43.69648" lon="6.92736">
        <ele>932.13549</ele>
        <time>2009-01-18T10:40:12Z</time>
      </trkpt>
      <trkpt lat="43.69647" lon="6.92748">
        <ele>931.17431</ele>
        <time>2009-01-18T10:40:20Z</time>
      </trkpt>
      <trkpt lat="43.69646" lon="6.92757">
        <ele>930.21289</ele>
        <time>2009-01-18T10:40:25Z</time>
      </trkpt>
      <trkpt lat="43.69646" lon="6.92767">
        <ele>931.65478</ele>
        <time>2009-01-18T10:40:33Z</time>
      </trkpt>
      <trkpt lat="43.69647" lon="6.92773">
        <ele>932.61621</ele>
        <time>2009-01-18T10:40:39Z</time>
      </trkpt>
      <trkpt lat="43.69648" lon="6.92778">
        <ele>931.17431</ele>
        <time>2009-01-18T10:40:43Z</time>
      </trkpt>
      <trkpt lat="43.6965" lon="6.92784">
        <ele>929.73217</ele>
        <time>2009-01-18T10:40:49Z</time>
      </trkpt>
      <trkpt lat="43.69649" lon="6.92798">
        <ele>932.13549</ele>
        <time>2009-01-18T10:40:57Z</time>
      </trkpt>
      <trkpt lat="43.69649" lon="6.92804">
        <ele>933.09667</ele>
        <time>2009-01-18T10:41:02Z</time>
      </trkpt>
      <trkpt lat="43.69649" lon="6.92815">
        <ele>935.01953</ele>
        <time>2009-01-18T10:41:09Z</time>
      </trkpt>
      <trkpt lat="43.69648" lon="6.92819">
        <ele>935.01953</ele>
        <time>2009-01-18T10:41:12Z</time>
      </trkpt>
      <trkpt lat="43.69647" lon="6.92833">
        <ele>934.53881</ele>
        <time>2009-01-18T10:41:21Z</time>
      </trkpt>
      <trkpt lat="43.69648" lon="6.92847">
        <ele>932.13549</ele>
        <time>2009-01-18T10:41:30Z</time>
      </trkpt>
      <trkpt lat="43.69647" lon="6.9285">
        <ele>932.61621</ele>
        <time>2009-01-18T10:41:35Z</time>
      </trkpt>
      <trkpt lat="43.69647" lon="6.92858">
        <ele>933.57739</ele>
        <time>2009-01-18T10:41:41Z</time>
      </trkpt>
      <trkpt lat="43.69646" lon="6.92865">
        <ele>933.09667</ele>
        <time>2009-01-18T10:41:50Z</time>
      </trkpt>
      <trkpt lat="43.69643" lon="6.92877">
        <ele>932.61621</ele>
        <time>2009-01-18T10:41:58Z</time>
      </trkpt>
      <trkpt lat="43.69643" lon="6.92887">
        <ele>933.09667</ele>
        <time>2009-01-18T10:42:05Z</time>
      </trkpt>
      <trkpt lat="43.69643" lon="6.92897">
        <ele>934.0581</ele>
        <time>2009-01-18T10:42:12Z</time>
      </trkpt>
      <trkpt lat="43.69643" lon="6.9291">
        <ele>932.61621</ele>
        <time>2009-01-18T10:42:20Z</time>
      </trkpt>
      <trkpt lat="43.69643" lon="6.92922">
        <ele>933.09667</ele>
        <time>2009-01-18T10:42:27Z</time>
      </trkpt>
      <trkpt lat="43.69642" lon="6.92933">
        <ele>934.0581</ele>
        <time>2009-01-18T10:42:34Z</time>
      </trkpt>
      <trkpt lat="43.69643" lon="6.92944">
        <ele>934.0581</ele>
        <time>2009-01-18T10:42:41Z</time>
      </trkpt>
      <trkpt lat="43.69644" lon="6.92955">
        <ele>934.53881</ele>
        <time>2009-01-18T10:42:48Z</time>
      </trkpt>
      <trkpt lat="43.69647" lon="6.92963">
        <ele>935.01953</ele>
        <time>2009-01-18T10:42:54Z</time>
      </trkpt>
      <trkpt lat="43.69649" lon="6.92975">
        <ele>935.98071</ele>
        <time>2009-01-18T10:43:02Z</time>
      </trkpt>
      <trkpt lat="43.69651" lon="6.92981">
        <ele>936.46142</ele>
        <time>2009-01-18T10:43:07Z</time>
      </trkpt>
      <trkpt lat="43.6965" lon="6.92991">
        <ele>935.5</ele>
        <time>2009-01-18T10:43:13Z</time>
      </trkpt>
      <trkpt lat="43.6965" lon="6.93003">
        <ele>933.57739</ele>
        <time>2009-01-18T10:43:21Z</time>
      </trkpt>
      <trkpt lat="43.69651" lon="6.93015">
        <ele>933.09667</ele>
        <time>2009-01-18T10:43:29Z</time>
      </trkpt>
      <trkpt lat="43.69651" lon="6.93026">
        <ele>933.57739</ele>
        <time>2009-01-18T10:43:36Z</time>
      </trkpt>
      <trkpt lat="43.69649" lon="6.93035">
        <ele>934.0581</ele>
        <time>2009-01-18T10:43:43Z</time>
      </trkpt>
      <trkpt lat="43.6965" lon="6.93035">
        <ele>935.5</ele>
        <time>2009-01-18T10:43:53Z</time>
      </trkpt>
      <trkpt lat="43.6965" lon="6.9304">
        <ele>935.5</ele>
        <time>2009-01-18T10:44:01Z</time>
      </trkpt>
      <trkpt lat="43.6965" lon="6.93041">
        <ele>936.46142</ele>
        <time>2009-01-18T10:44:07Z</time>
      </trkpt>
      <trkpt lat="43.69651" lon="6.93044">
        <ele>936.94189</ele>
        <time>2009-01-18T10:44:17Z</time>
      </trkpt>
      <trkpt lat="43.6965" lon="6.9305">
        <ele>936.46142</ele>
        <time>2009-01-18T10:44:21Z</time>
      </trkpt>
      <trkpt lat="43.69649" lon="6.93068">
        <ele>936.46142</ele>
        <time>2009-01-18T10:44:31Z</time>
      </trkpt>
      <trkpt lat="43.69648" lon="6.93075">
        <ele>936.46142</ele>
        <time>2009-01-18T10:44:37Z</time>
      </trkpt>
      <trkpt lat="43.69646" lon="6.93091">
        <ele>934.53881</ele>
        <time>2009-01-18T10:44:46Z</time>
      </trkpt>
      <trkpt lat="43.69642" lon="6.93103">
        <ele>935.01953</ele>
        <time>2009-01-18T10:44:54Z</time>
      </trkpt>
      <trkpt lat="43.69638" lon="6.93117">
        <ele>936.46142</ele>
        <time>2009-01-18T10:45:03Z</time>
      </trkpt>
      <trkpt lat="43.69636" lon="6.93128">
        <ele>936.94189</ele>
        <time>2009-01-18T10:45:10Z</time>
      </trkpt>
      <trkpt lat="43.69633" lon="6.93141">
        <ele>937.4226</ele>
        <time>2009-01-18T10:45:19Z</time>
      </trkpt>
      <trkpt lat="43.69628" lon="6.93149">
        <ele>938.38403</ele>
        <time>2009-01-18T10:45:27Z</time>
      </trkpt>
      <trkpt lat="43.69625" lon="6.93156">
        <ele>939.82592</ele>
        <time>2009-01-18T10:45:36Z</time>
      </trkpt>
      <trkpt lat="43.69625" lon="6.93158">
        <ele>938.38403</ele>
        <time>2009-01-18T10:45:46Z</time>
      </trkpt>
      <trkpt lat="43.69622" lon="6.93159">
        <ele>937.90332</ele>
        <time>2009-01-18T10:46:00Z</time>
      </trkpt>
      <trkpt lat="43.69621" lon="6.93158">
        <ele>939.34521</ele>
        <time>2009-01-18T10:46:09Z</time>
      </trkpt>
      <trkpt lat="43.6962" lon="6.93157">
        <ele>941.26806</ele>
        <time>2009-01-18T10:46:21Z</time>
      </trkpt>
      <trkpt lat="43.69611" lon="6.93161">
        <ele>942.22949</ele>
        <time>2009-01-18T10:46:28Z</time>
      </trkpt>
      <trkpt lat="43.69601" lon="6.93163">
        <ele>942.7102</ele>
        <time>2009-01-18T10:46:34Z</time>
      </trkpt>
      <trkpt lat="43.69596" lon="6.93163">
        <ele>940.78735</ele>
        <time>2009-01-18T10:46:39Z</time>
      </trkpt>
      <trkpt lat="43.69597" lon="6.93162">
        <ele>939.82592</ele>
        <time>2009-01-18T10:46:45Z</time>
      </trkpt>
      <trkpt lat="43.69598" lon="6.93164">
        <ele>939.82592</ele>
        <time>2009-01-18T10:46:52Z</time>
      </trkpt>
      <trkpt lat="43.69597" lon="6.93164">
        <ele>940.30688</ele>
        <time>2009-01-18T10:46:59Z</time>
      </trkpt>
      <trkpt lat="43.69596" lon="6.93163">
        <ele>938.86474</ele>
        <time>2009-01-18T10:47:04Z</time>
      </trkpt>
      <trkpt lat="43.69595" lon="6.93163">
        <ele>937.90332</ele>
        <time>2009-01-18T10:48:13Z</time>
      </trkpt>
      <trkpt lat="43.69594" lon="6.93163">
        <ele>938.38403</ele>
        <time>2009-01-18T10:48:21Z</time>
      </trkpt>
      <trkpt lat="43.69595" lon="6.93163">
        <ele>938.86474</ele>
        <time>2009-01-18T10:48:30Z</time>
      </trkpt>
      <trkpt lat="43.69594" lon="6.93161">
        <ele>941.74877</ele>
        <time>2009-01-18T10:48:39Z</time>
      </trkpt>
      <trkpt lat="43.69586" lon="6.93158">
        <ele>940.78735</ele>
        <time>2009-01-18T10:48:45Z</time>
      </trkpt>
      <trkpt lat="43.69582" lon="6.93158">
        <ele>941.26806</ele>
        <time>2009-01-18T10:48:50Z</time>
      </trkpt>
      <trkpt lat="43.69573" lon="6.93153">
        <ele>941.74877</ele>
        <time>2009-01-18T10:48:58Z</time>
      </trkpt>
      <trkpt lat="43.69565" lon="6.9315">
        <ele>941.74877</ele>
        <time>2009-01-18T10:49:05Z</time>
      </trkpt>
      <trkpt lat="43.69553" lon="6.93149">
        <ele>942.7102</ele>
        <time>2009-01-18T10:49:14Z</time>
      </trkpt>
      <trkpt lat="43.69539" lon="6.93152">
        <ele>941.74877</ele>
        <time>2009-01-18T10:49:24Z</time>
      </trkpt>
      <trkpt lat="43.69526" lon="6.93155">
        <ele>941.26806</ele>
        <time>2009-01-18T10:49:33Z</time>
      </trkpt>
      <trkpt lat="43.69517" lon="6.93157">
        <ele>940.78735</ele>
        <time>2009-01-18T10:49:40Z</time>
      </trkpt>
      <trkpt lat="43.69509" lon="6.93157">
        <ele>939.82592</ele>
        <time>2009-01-18T10:49:47Z</time>
      </trkpt>
      <trkpt lat="43.69508" lon="6.93157">
        <ele>939.82592</ele>
        <time>2009-01-18T10:49:52Z</time>
      </trkpt>
      <trkpt lat="43.69506" lon="6.93158">
        <ele>938.86474</ele>
        <time>2009-01-18T10:49:58Z</time>
      </trkpt>
      <trkpt lat="43.69506" lon="6.93158">
        <ele>939.34521</ele>
        <time>2009-01-18T10:50:01Z</time>
      </trkpt>
      <trkpt lat="43.69493" lon="6.93162">
        <ele>939.82592</ele>
        <time>2009-01-18T10:50:07Z</time>
      </trkpt>
      <trkpt lat="43.69477" lon="6.93173">
        <ele>938.86474</ele>
        <time>2009-01-18T10:50:12Z</time>
      </trkpt>
      <trkpt lat="43.69458" lon="6.93182">
        <ele>937.90332</ele>
        <time>2009-01-18T10:50:19Z</time>
      </trkpt>
      <trkpt lat="43.69457" lon="6.93182">
        <ele>937.4226</ele>
        <time>2009-01-18T10:50:23Z</time>
      </trkpt>
      <trkpt lat="43.69457" lon="6.93184">
        <ele>935.5</ele>
        <time>2009-01-18T10:50:38Z</time>
      </trkpt>
      <trkpt lat="43.69451" lon="6.93187">
        <ele>935.5</ele>
        <time>2009-01-18T10:50:44Z</time>
      </trkpt>
      <trkpt lat="43.69432" lon="6.93191">
        <ele>933.57739</ele>
        <time>2009-01-18T10:50:49Z</time>
      </trkpt>
      <trkpt lat="43.69409" lon="6.93186">
        <ele>928.29028</ele>
        <time>2009-01-18T10:50:55Z</time>
      </trkpt>
      <trkpt lat="43.6938" lon="6.93168">
        <ele>925.40625</ele>
        <time>2009-01-18T10:51:02Z</time>
      </trkpt>
      <trkpt lat="43.69354" lon="6.93152">
        <ele>924.92578</ele>
        <time>2009-01-18T10:51:08Z</time>
      </trkpt>
      <trkpt lat="43.69349" lon="6.93149">
        <ele>924.92578</ele>
        <time>2009-01-18T10:51:09Z</time>
      </trkpt>
      <trkpt lat="43.69333" lon="6.93142">
        <ele>924.92578</ele>
        <time>2009-01-18T10:51:13Z</time>
      </trkpt>
      <trkpt lat="43.69321" lon="6.93136">
        <ele>924.44506</ele>
        <time>2009-01-18T10:51:16Z</time>
      </trkpt>
      <trkpt lat="43.69297" lon="6.93122">
        <ele>924.44506</ele>
        <time>2009-01-18T10:51:21Z</time>
      </trkpt>
      <trkpt lat="43.69287" lon="6.93124">
        <ele>923.96411</ele>
        <time>2009-01-18T10:51:23Z</time>
      </trkpt>
      <trkpt lat="43.69278" lon="6.93128">
        <ele>922.0415</ele>
        <time>2009-01-18T10:51:25Z</time>
      </trkpt>
      <trkpt lat="43.69251" lon="6.93118">
        <ele>919.15771</ele>
        <time>2009-01-18T10:51:30Z</time>
      </trkpt>
      <trkpt lat="43.69247" lon="6.93104">
        <ele>917.2351</ele>
        <time>2009-01-18T10:51:32Z</time>
      </trkpt>
      <trkpt lat="43.69244" lon="6.93091">
        <ele>916.27368</ele>
        <time>2009-01-18T10:51:34Z</time>
      </trkpt>
      <trkpt lat="43.6923" lon="6.93074">
        <ele>914.83178</ele>
        <time>2009-01-18T10:51:38Z</time>
      </trkpt>
      <trkpt lat="43.69204" lon="6.93072">
        <ele>910.98657</ele>
        <time>2009-01-18T10:51:42Z</time>
      </trkpt>
      <trkpt lat="43.69188" lon="6.93064">
        <ele>906.17968</ele>
        <time>2009-01-18T10:51:45Z</time>
      </trkpt>
      <trkpt lat="43.69182" lon="6.9306">
        <ele>905.2185</ele>
        <time>2009-01-18T10:51:46Z</time>
      </trkpt>
      <trkpt lat="43.69162" lon="6.9303">
        <ele>900.89257</ele>
        <time>2009-01-18T10:51:51Z</time>
      </trkpt>
      <trkpt lat="43.69138" lon="6.93013">
        <ele>898.00878</ele>
        <time>2009-01-18T10:51:55Z</time>
      </trkpt>
      <trkpt lat="43.69118" lon="6.92998">
        <ele>895.60546</ele>
        <time>2009-01-18T10:51:59Z</time>
      </trkpt>
      <trkpt lat="43.6911" lon="6.92979">
        <ele>893.68286</ele>
        <time>2009-01-18T10:52:03Z</time>
      </trkpt>
      <trkpt lat="43.69095" lon="6.92971">
        <ele>890.31811</ele>
        <time>2009-01-18T10:52:06Z</time>
      </trkpt>
      <trkpt lat="43.69074" lon="6.92963">
        <ele>883.10815</ele>
        <time>2009-01-18T10:52:10Z</time>
      </trkpt>
      <trkpt lat="43.69064" lon="6.9296">
        <ele>882.14697</ele>
        <time>2009-01-18T10:52:12Z</time>
      </trkpt>
      <trkpt lat="43.69052" lon="6.92944">
        <ele>880.70507</ele>
        <time>2009-01-18T10:52:16Z</time>
      </trkpt>
      <trkpt lat="43.69051" lon="6.92927">
        <ele>880.22436</ele>
        <time>2009-01-18T10:52:19Z</time>
      </trkpt>
      <trkpt lat="43.69052" lon="6.92904">
        <ele>874.93701</ele>
        <time>2009-01-18T10:52:22Z</time>
      </trkpt>
      <trkpt lat="43.69034" lon="6.92883">
        <ele>877.82104</ele>
        <time>2009-01-18T10:52:26Z</time>
      </trkpt>
      <trkpt lat="43.69005" lon="6.92873">
        <ele>876.37915</ele>
        <time>2009-01-18T10:52:31Z</time>
      </trkpt>
      <trkpt lat="43.68998" lon="6.92877">
        <ele>874.45629</ele>
        <time>2009-01-18T10:52:35Z</time>
      </trkpt>
      <trkpt lat="43.69" lon="6.92882">
        <ele>876.37915</ele>
        <time>2009-01-18T10:52:49Z</time>
      </trkpt>
      <trkpt lat="43.68999" lon="6.92886">
        <ele>877.82104</ele>
        <time>2009-01-18T10:53:01Z</time>
      </trkpt>
      <trkpt lat="43.69005" lon="6.92902">
        <ele>876.85986</ele>
        <time>2009-01-18T10:53:06Z</time>
      </trkpt>
      <trkpt lat="43.69007" lon="6.92904">
        <ele>877.34057</ele>
        <time>2009-01-18T10:53:07Z</time>
      </trkpt>
      <trkpt lat="43.69015" lon="6.92914">
        <ele>875.89819</ele>
        <time>2009-01-18T10:53:13Z</time>
      </trkpt>
      <trkpt lat="43.69017" lon="6.92924">
        <ele>876.85986</ele>
        <time>2009-01-18T10:53:18Z</time>
      </trkpt>
      <trkpt lat="43.69018" lon="6.92934">
        <ele>877.34057</ele>
        <time>2009-01-18T10:53:24Z</time>
      </trkpt>
      <trkpt lat="43.69016" lon="6.92945">
        <ele>884.55029</ele>
        <time>2009-01-18T10:53:30Z</time>
      </trkpt>
      <trkpt lat="43.69013" lon="6.92956">
        <ele>891.27929</ele>
        <time>2009-01-18T10:53:37Z</time>
      </trkpt>
      <trkpt lat="43.69012" lon="6.92965">
        <ele>890.79858</ele>
        <time>2009-01-18T10:53:46Z</time>
      </trkpt>
      <trkpt lat="43.69011" lon="6.92981">
        <ele>890.31811</ele>
        <time>2009-01-18T10:53:51Z</time>
      </trkpt>
      <trkpt lat="43.69013" lon="6.93003">
        <ele>880.22436</ele>
        <time>2009-01-18T10:53:56Z</time>
      </trkpt>
      <trkpt lat="43.69014" lon="6.93009">
        <ele>880.22436</ele>
        <time>2009-01-18T10:53:59Z</time>
      </trkpt>
      <trkpt lat="43.69015" lon="6.93013">
        <ele>878.30175</ele>
        <time>2009-01-18T10:54:08Z</time>
      </trkpt>
      <trkpt lat="43.69014" lon="6.93018">
        <ele>880.22436</ele>
        <time>2009-01-18T10:54:12Z</time>
      </trkpt>
      <trkpt lat="43.69015" lon="6.93019">
        <ele>881.66625</ele>
        <time>2009-01-18T10:54:18Z</time>
      </trkpt>
      <trkpt lat="43.69017" lon="6.93022">
        <ele>884.55029</ele>
        <time>2009-01-18T10:54:21Z</time>
      </trkpt>
      <trkpt lat="43.69019" lon="6.93035">
        <ele>883.10815</ele>
        <time>2009-01-18T10:54:29Z</time>
      </trkpt>
      <trkpt lat="43.69017" lon="6.93035">
        <ele>881.66625</ele>
        <time>2009-01-18T10:54:35Z</time>
      </trkpt>
      <trkpt lat="43.69022" lon="6.93049">
        <ele>874.93701</ele>
        <time>2009-01-18T10:54:43Z</time>
      </trkpt>
      <trkpt lat="43.69016" lon="6.93064">
        <ele>873.97558</ele>
        <time>2009-01-18T10:54:48Z</time>
      </trkpt>
      <trkpt lat="43.69007" lon="6.93086">
        <ele>874.45629</ele>
        <time>2009-01-18T10:54:53Z</time>
      </trkpt>
      <trkpt lat="43.69002" lon="6.93104">
        <ele>875.41748</ele>
        <time>2009-01-18T10:54:58Z</time>
      </trkpt>
      <trkpt lat="43.69002" lon="6.93106">
        <ele>875.41748</ele>
        <time>2009-01-18T10:55:01Z</time>
      </trkpt>
      <trkpt lat="43.69001" lon="6.93115">
        <ele>872.05297</ele>
        <time>2009-01-18T10:55:07Z</time>
      </trkpt>
      <trkpt lat="43.68996" lon="6.93128">
        <ele>867.24658</ele>
        <time>2009-01-18T10:55:15Z</time>
      </trkpt>
      <trkpt lat="43.68993" lon="6.93131">
        <ele>866.76586</ele>
        <time>2009-01-18T10:55:21Z</time>
      </trkpt>
      <trkpt lat="43.68992" lon="6.93136">
        <ele>867.24658</ele>
        <time>2009-01-18T10:55:27Z</time>
      </trkpt>
      <trkpt lat="43.6899" lon="6.93145">
        <ele>873.97558</ele>
        <time>2009-01-18T10:55:44Z</time>
      </trkpt>
      <trkpt lat="43.68995" lon="6.93172">
        <ele>868.68847</ele>
        <time>2009-01-18T10:55:51Z</time>
      </trkpt>
      <trkpt lat="43.68999" lon="6.93196">
        <ele>868.20776</ele>
        <time>2009-01-18T10:55:57Z</time>
      </trkpt>
      <trkpt lat="43.69006" lon="6.93203">
        <ele>865.32397</ele>
        <time>2009-01-18T10:56:04Z</time>
      </trkpt>
      <trkpt lat="43.69012" lon="6.93208">
        <ele>864.84326</ele>
        <time>2009-01-18T10:56:11Z</time>
      </trkpt>
      <trkpt lat="43.69014" lon="6.93212">
        <ele>863.88183</ele>
        <time>2009-01-18T10:56:14Z</time>
      </trkpt>
      <trkpt lat="43.69015" lon="6.93217">
        <ele>865.32397</ele>
        <time>2009-01-18T10:56:17Z</time>
      </trkpt>
      <trkpt lat="43.69018" lon="6.93219">
        <ele>865.32397</ele>
        <time>2009-01-18T10:56:20Z</time>
      </trkpt>
      <trkpt lat="43.69022" lon="6.93231">
        <ele>872.53369</ele>
        <time>2009-01-18T10:56:28Z</time>
      </trkpt>
      <trkpt lat="43.69024" lon="6.93237">
        <ele>875.89819</ele>
        <time>2009-01-18T10:56:35Z</time>
      </trkpt>
      <trkpt lat="43.69025" lon="6.93241">
        <ele>879.26293</ele>
        <time>2009-01-18T10:56:40Z</time>
      </trkpt>
      <trkpt lat="43.69026" lon="6.93245">
        <ele>878.30175</ele>
        <time>2009-01-18T10:56:43Z</time>
      </trkpt>
      <trkpt lat="43.69024" lon="6.93254">
        <ele>880.22436</ele>
        <time>2009-01-18T10:56:48Z</time>
      </trkpt>
      <trkpt lat="43.69022" lon="6.93257">
        <ele>877.82104</ele>
        <time>2009-01-18T10:56:54Z</time>
      </trkpt>
      <trkpt lat="43.69018" lon="6.9327">
        <ele>875.89819</ele>
        <time>2009-01-18T10:57:00Z</time>
      </trkpt>
      <trkpt lat="43.69011" lon="6.93281">
        <ele>873.0144</ele>
        <time>2009-01-18T10:57:06Z</time>
      </trkpt>
      <trkpt lat="43.69004" lon="6.93295">
        <ele>876.85986</ele>
        <time>2009-01-18T10:57:11Z</time>
      </trkpt>
      <trkpt lat="43.68992" lon="6.93314">
        <ele>874.93701</ele>
        <time>2009-01-18T10:57:18Z</time>
      </trkpt>
      <trkpt lat="43.68982" lon="6.93325">
        <ele>874.45629</ele>
        <time>2009-01-18T10:57:23Z</time>
      </trkpt>
      <trkpt lat="43.68972" lon="6.93341">
        <ele>873.97558</ele>
        <time>2009-01-18T10:57:30Z</time>
      </trkpt>
      <trkpt lat="43.68964" lon="6.93349">
        <ele>873.97558</ele>
        <time>2009-01-18T10:57:33Z</time>
      </trkpt>
      <trkpt lat="43.6896" lon="6.93356">
        <ele>873.49511</ele>
        <time>2009-01-18T10:57:38Z</time>
      </trkpt>
      <trkpt lat="43.68959" lon="6.93357">
        <ele>873.49511</ele>
        <time>2009-01-18T10:57:39Z</time>
      </trkpt>
      <trkpt lat="43.68953" lon="6.93359">
        <ele>872.53369</ele>
        <time>2009-01-18T10:57:43Z</time>
      </trkpt>
      <trkpt lat="43.68936" lon="6.93373">
        <ele>871.09179</ele>
        <time>2009-01-18T10:57:51Z</time>
      </trkpt>
      <trkpt lat="43.68925" lon="6.9338">
        <ele>870.13037</ele>
        <time>2009-01-18T10:57:57Z</time>
      </trkpt>
      <trkpt lat="43.68916" lon="6.93379">
        <ele>868.20776</ele>
        <time>2009-01-18T10:58:02Z</time>
      </trkpt>
      <trkpt lat="43.68906" lon="6.9338">
        <ele>868.68847</ele>
        <time>2009-01-18T10:58:08Z</time>
      </trkpt>
      <trkpt lat="43.68904" lon="6.9338">
        <ele>870.13037</ele>
        <time>2009-01-18T10:58:09Z</time>
      </trkpt>
      <trkpt lat="43.68895" lon="6.93384">
        <ele>871.57226</ele>
        <time>2009-01-18T10:58:16Z</time>
      </trkpt>
      <trkpt lat="43.68891" lon="6.9339">
        <ele>870.61108</ele>
        <time>2009-01-18T10:58:20Z</time>
      </trkpt>
      <trkpt lat="43.68881" lon="6.93398">
        <ele>871.57226</ele>
        <time>2009-01-18T10:58:27Z</time>
      </trkpt>
      <trkpt lat="43.6887" lon="6.9341">
        <ele>873.0144</ele>
        <time>2009-01-18T10:58:33Z</time>
      </trkpt>
      <trkpt lat="43.68856" lon="6.93421">
        <ele>871.09179</ele>
        <time>2009-01-18T10:58:40Z</time>
      </trkpt>
      <trkpt lat="43.68841" lon="6.93433">
        <ele>868.68847</ele>
        <time>2009-01-18T10:58:48Z</time>
      </trkpt>
      <trkpt lat="43.68827" lon="6.9344">
        <ele>868.20776</ele>
        <time>2009-01-18T10:58:55Z</time>
      </trkpt>
      <trkpt lat="43.68815" lon="6.93445">
        <ele>867.72705</ele>
        <time>2009-01-18T10:59:03Z</time>
      </trkpt>
      <trkpt lat="43.68814" lon="6.93446">
        <ele>866.28515</ele>
        <time>2009-01-18T10:59:08Z</time>
      </trkpt>
      <trkpt lat="43.68806" lon="6.93443">
        <ele>865.80468</ele>
        <time>2009-01-18T10:59:16Z</time>
      </trkpt>
      <trkpt lat="43.68799" lon="6.9344">
        <ele>868.20776</ele>
        <time>2009-01-18T10:59:24Z</time>
      </trkpt>
      <trkpt lat="43.68791" lon="6.93437">
        <ele>869.16918</ele>
        <time>2009-01-18T10:59:32Z</time>
      </trkpt>
      <trkpt lat="43.68786" lon="6.93435">
        <ele>871.09179</ele>
        <time>2009-01-18T10:59:36Z</time>
      </trkpt>
      <trkpt lat="43.68782" lon="6.93431">
        <ele>870.61108</ele>
        <time>2009-01-18T10:59:43Z</time>
      </trkpt>
      <trkpt lat="43.68779" lon="6.93431">
        <ele>868.68847</ele>
        <time>2009-01-18T10:59:49Z</time>
      </trkpt>
      <trkpt lat="43.68778" lon="6.93428">
        <ele>871.57226</ele>
        <time>2009-01-18T11:00:05Z</time>
      </trkpt>
      <trkpt lat="43.68776" lon="6.93427">
        <ele>873.0144</ele>
        <time>2009-01-18T11:00:10Z</time>
      </trkpt>
      <trkpt lat="43.68766" lon="6.93416">
        <ele>873.0144</ele>
        <time>2009-01-18T11:00:17Z</time>
      </trkpt>
      <trkpt lat="43.68752" lon="6.93403">
        <ele>872.05297</ele>
        <time>2009-01-18T11:00:24Z</time>
      </trkpt>
      <trkpt lat="43.68741" lon="6.93396">
        <ele>870.13037</ele>
        <time>2009-01-18T11:00:30Z</time>
      </trkpt>
      <trkpt lat="43.68731" lon="6.93392">
        <ele>869.16918</ele>
        <time>2009-01-18T11:00:36Z</time>
      </trkpt>
      <trkpt lat="43.68718" lon="6.93388">
        <ele>869.16918</ele>
        <time>2009-01-18T11:00:42Z</time>
      </trkpt>
      <trkpt lat="43.6871" lon="6.93383">
        <ele>868.68847</ele>
        <time>2009-01-18T11:00:47Z</time>
      </trkpt>
      <trkpt lat="43.68701" lon="6.93372">
        <ele>870.61108</ele>
        <time>2009-01-18T11:00:53Z</time>
      </trkpt>
      <trkpt lat="43.68698" lon="6.93367">
        <ele>872.05297</ele>
        <time>2009-01-18T11:00:57Z</time>
      </trkpt>
      <trkpt lat="43.68697" lon="6.93366">
        <ele>874.45629</ele>
        <time>2009-01-18T11:01:02Z</time>
      </trkpt>
      <trkpt lat="43.68693" lon="6.93358">
        <ele>875.41748</ele>
        <time>2009-01-18T11:01:08Z</time>
      </trkpt>
      <trkpt lat="43.68693" lon="6.93355">
        <ele>875.89819</ele>
        <time>2009-01-18T11:01:14Z</time>
      </trkpt>
      <trkpt lat="43.68689" lon="6.93349">
        <ele>877.82104</ele>
        <time>2009-01-18T11:01:19Z</time>
      </trkpt>
      <trkpt lat="43.68686" lon="6.93338">
        <ele>878.30175</ele>
        <time>2009-01-18T11:01:24Z</time>
      </trkpt>
      <trkpt lat="43.68677" lon="6.93326">
        <ele>873.97558</ele>
        <time>2009-01-18T11:01:28Z</time>
      </trkpt>
      <trkpt lat="43.68664" lon="6.93324">
        <ele>874.45629</ele>
        <time>2009-01-18T11:01:34Z</time>
      </trkpt>
      <trkpt lat="43.68655" lon="6.93323">
        <ele>872.05297</ele>
        <time>2009-01-18T11:01:40Z</time>
      </trkpt>
      <trkpt lat="43.6865" lon="6.93322">
        <ele>868.68847</ele>
        <time>2009-01-18T11:01:48Z</time>
      </trkpt>
      <trkpt lat="43.68643" lon="6.93322">
        <ele>871.57226</ele>
        <time>2009-01-18T11:01:55Z</time>
      </trkpt>
      <trkpt lat="43.68639" lon="6.93322">
        <ele>872.53369</ele>
        <time>2009-01-18T11:02:01Z</time>
      </trkpt>
      <trkpt lat="43.68633" lon="6.93319">
        <ele>868.68847</ele>
        <time>2009-01-18T11:02:07Z</time>
      </trkpt>
      <trkpt lat="43.68616" lon="6.93317">
        <ele>869.6499</ele>
        <time>2009-01-18T11:02:15Z</time>
      </trkpt>
      <trkpt lat="43.68607" lon="6.93318">
        <ele>871.09179</ele>
        <time>2009-01-18T11:02:21Z</time>
      </trkpt>
      <trkpt lat="43.68599" lon="6.93323">
        <ele>872.05297</ele>
        <time>2009-01-18T11:02:28Z</time>
      </trkpt>
      <trkpt lat="43.68591" lon="6.93328">
        <ele>873.49511</ele>
        <time>2009-01-18T11:02:35Z</time>
      </trkpt>
      <trkpt lat="43.68581" lon="6.93334">
        <ele>878.78247</ele>
        <time>2009-01-18T11:02:41Z</time>
      </trkpt>
      <trkpt lat="43.68567" lon="6.93346">
        <ele>878.30175</ele>
        <time>2009-01-18T11:02:48Z</time>
      </trkpt>
      <trkpt lat="43.68558" lon="6.93349">
        <ele>878.78247</ele>
        <time>2009-01-18T11:02:53Z</time>
      </trkpt>
      <trkpt lat="43.68546" lon="6.93359">
        <ele>878.30175</ele>
        <time>2009-01-18T11:02:58Z</time>
      </trkpt>
      <trkpt lat="43.68536" lon="6.93365">
        <ele>873.97558</ele>
        <time>2009-01-18T11:03:04Z</time>
      </trkpt>
      <trkpt lat="43.68523" lon="6.93369">
        <ele>873.0144</ele>
        <time>2009-01-18T11:03:11Z</time>
      </trkpt>
      <trkpt lat="43.68504" lon="6.93376">
        <ele>873.0144</ele>
        <time>2009-01-18T11:03:19Z</time>
      </trkpt>
      <trkpt lat="43.68491" lon="6.93386">
        <ele>871.57226</ele>
        <time>2009-01-18T11:03:26Z</time>
      </trkpt>
      <trkpt lat="43.68471" lon="6.93397">
        <ele>872.05297</ele>
        <time>2009-01-18T11:03:34Z</time>
      </trkpt>
      <trkpt lat="43.68457" lon="6.93401">
        <ele>873.49511</ele>
        <time>2009-01-18T11:03:41Z</time>
      </trkpt>
      <trkpt lat="43.68443" lon="6.93402">
        <ele>874.93701</ele>
        <time>2009-01-18T11:03:47Z</time>
      </trkpt>
      <trkpt lat="43.68425" lon="6.93399">
        <ele>874.45629</ele>
        <time>2009-01-18T11:03:55Z</time>
      </trkpt>
      <trkpt lat="43.68412" lon="6.93394">
        <ele>874.45629</ele>
        <time>2009-01-18T11:04:02Z</time>
      </trkpt>
      <trkpt lat="43.68397" lon="6.93388">
        <ele>874.93701</ele>
        <time>2009-01-18T11:04:11Z</time>
      </trkpt>
      <trkpt lat="43.68387" lon="6.93383">
        <ele>873.0144</ele>
        <time>2009-01-18T11:04:18Z</time>
      </trkpt>
      <trkpt lat="43.68377" lon="6.93373">
        <ele>873.49511</ele>
        <time>2009-01-18T11:04:25Z</time>
      </trkpt>
      <trkpt lat="43.68369" lon="6.93367">
        <ele>875.89819</ele>
        <time>2009-01-18T11:04:30Z</time>
      </trkpt>
      <trkpt lat="43.68357" lon="6.93359">
        <ele>873.49511</ele>
        <time>2009-01-18T11:04:37Z</time>
      </trkpt>
      <trkpt lat="43.68343" lon="6.93349">
        <ele>871.09179</ele>
        <time>2009-01-18T11:04:45Z</time>
      </trkpt>
      <trkpt lat="43.68333" lon="6.93344">
        <ele>872.53369</ele>
        <time>2009-01-18T11:04:51Z</time>
      </trkpt>
      <trkpt lat="43.68327" lon="6.93341">
        <ele>872.05297</ele>
        <time>2009-01-18T11:04:56Z</time>
      </trkpt>
      <trkpt lat="43.68315" lon="6.93339">
        <ele>872.05297</ele>
        <time>2009-01-18T11:05:01Z</time>
      </trkpt>
      <trkpt lat="43.68299" lon="6.93339">
        <ele>871.57226</ele>
        <time>2009-01-18T11:05:07Z</time>
      </trkpt>
      <trkpt lat="43.68289" lon="6.93334">
        <ele>872.05297</ele>
        <time>2009-01-18T11:05:13Z</time>
      </trkpt>
      <trkpt lat="43.68283" lon="6.93323">
        <ele>872.53369</ele>
        <time>2009-01-18T11:05:19Z</time>
      </trkpt>
      <trkpt lat="43.68278" lon="6.93309">
        <ele>878.30175</ele>
        <time>2009-01-18T11:05:27Z</time>
      </trkpt>
      <trkpt lat="43.68272" lon="6.93295">
        <ele>881.18579</ele>
        <time>2009-01-18T11:05:34Z</time>
      </trkpt>
      <trkpt lat="43.68264" lon="6.9328">
        <ele>879.74365</ele>
        <time>2009-01-18T11:05:41Z</time>
      </trkpt>
      <trkpt lat="43.68257" lon="6.93269">
        <ele>880.22436</ele>
        <time>2009-01-18T11:05:47Z</time>
      </trkpt>
      <trkpt lat="43.68254" lon="6.93251">
        <ele>881.18579</ele>
        <time>2009-01-18T11:05:55Z</time>
      </trkpt>
      <trkpt lat="43.68253" lon="6.93236">
        <ele>882.62768</ele>
        <time>2009-01-18T11:06:02Z</time>
      </trkpt>
      <trkpt lat="43.68249" lon="6.93222">
        <ele>884.55029</ele>
        <time>2009-01-18T11:06:08Z</time>
      </trkpt>
      <trkpt lat="43.68243" lon="6.93209">
        <ele>884.55029</ele>
        <time>2009-01-18T11:06:14Z</time>
      </trkpt>
      <trkpt lat="43.68231" lon="6.93194">
        <ele>882.14697</ele>
        <time>2009-01-18T11:06:21Z</time>
      </trkpt>
      <trkpt lat="43.68222" lon="6.93181">
        <ele>879.26293</ele>
        <time>2009-01-18T11:06:28Z</time>
      </trkpt>
      <trkpt lat="43.68213" lon="6.93167">
        <ele>878.30175</ele>
        <time>2009-01-18T11:06:36Z</time>
      </trkpt>
      <trkpt lat="43.68202" lon="6.93154">
        <ele>880.70507</ele>
        <time>2009-01-18T11:06:44Z</time>
      </trkpt>
      <trkpt lat="43.68194" lon="6.93146">
        <ele>881.66625</ele>
        <time>2009-01-18T11:06:50Z</time>
      </trkpt>
      <trkpt lat="43.68181" lon="6.93123">
        <ele>880.70507</ele>
        <time>2009-01-18T11:07:02Z</time>
      </trkpt>
      <trkpt lat="43.68173" lon="6.93109">
        <ele>881.66625</ele>
        <time>2009-01-18T11:07:10Z</time>
      </trkpt>
      <trkpt lat="43.68167" lon="6.93095">
        <ele>883.58886</ele>
        <time>2009-01-18T11:07:18Z</time>
      </trkpt>
      <trkpt lat="43.68162" lon="6.93083">
        <ele>884.55029</ele>
        <time>2009-01-18T11:07:26Z</time>
      </trkpt>
      <trkpt lat="43.68154" lon="6.93073">
        <ele>885.031</ele>
        <time>2009-01-18T11:07:33Z</time>
      </trkpt>
      <trkpt lat="43.68149" lon="6.9307">
        <ele>885.031</ele>
        <time>2009-01-18T11:07:37Z</time>
      </trkpt>
      <trkpt lat="43.68139" lon="6.93057">
        <ele>884.55029</ele>
        <time>2009-01-18T11:07:46Z</time>
      </trkpt>
      <trkpt lat="43.68127" lon="6.93046">
        <ele>885.99218</ele>
        <time>2009-01-18T11:07:57Z</time>
      </trkpt>
      <trkpt lat="43.68126" lon="6.93043">
        <ele>885.99218</ele>
        <time>2009-01-18T11:08:02Z</time>
      </trkpt>
      <trkpt lat="43.68125" lon="6.93042">
        <ele>887.91479</ele>
        <time>2009-01-18T11:08:10Z</time>
      </trkpt>
      <trkpt lat="43.68127" lon="6.93041">
        <ele>888.3955</ele>
        <time>2009-01-18T11:08:32Z</time>
      </trkpt>
      <trkpt lat="43.68126" lon="6.93042">
        <ele>883.10815</ele>
        <time>2009-01-18T11:08:41Z</time>
      </trkpt>
      <trkpt lat="43.68123" lon="6.9304">
        <ele>883.58886</ele>
        <time>2009-01-18T11:08:47Z</time>
      </trkpt>
      <trkpt lat="43.68117" lon="6.93034">
        <ele>886.95336</ele>
        <time>2009-01-18T11:08:54Z</time>
      </trkpt>
      <trkpt lat="43.68112" lon="6.93028">
        <ele>888.87622</ele>
        <time>2009-01-18T11:09:01Z</time>
      </trkpt>
      <trkpt lat="43.68107" lon="6.93021">
        <ele>891.76</ele>
        <time>2009-01-18T11:09:08Z</time>
      </trkpt>
      <trkpt lat="43.68101" lon="6.93014">
        <ele>891.27929</ele>
        <time>2009-01-18T11:09:15Z</time>
      </trkpt>
      <trkpt lat="43.68094" lon="6.93006">
        <ele>891.76</ele>
        <time>2009-01-18T11:09:23Z</time>
      </trkpt>
      <trkpt lat="43.6809" lon="6.93001">
        <ele>893.20214</ele>
        <time>2009-01-18T11:09:30Z</time>
      </trkpt>
      <trkpt lat="43.68084" lon="6.92992">
        <ele>897.04736</ele>
        <time>2009-01-18T11:09:38Z</time>
      </trkpt>
      <trkpt lat="43.68079" lon="6.92982">
        <ele>898.00878</ele>
        <time>2009-01-18T11:09:47Z</time>
      </trkpt>
      <trkpt lat="43.68077" lon="6.92978">
        <ele>896.08618</ele>
        <time>2009-01-18T11:09:54Z</time>
      </trkpt>
      <trkpt lat="43.68077" lon="6.92976">
        <ele>895.60546</ele>
        <time>2009-01-18T11:10:00Z</time>
      </trkpt>
      <trkpt lat="43.68075" lon="6.92974">
        <ele>896.56689</ele>
        <time>2009-01-18T11:10:09Z</time>
      </trkpt>
      <trkpt lat="43.68071" lon="6.92964">
        <ele>897.04736</ele>
        <time>2009-01-18T11:10:18Z</time>
      </trkpt>
      <trkpt lat="43.68071" lon="6.92965">
        <ele>897.52807</ele>
        <time>2009-01-18T11:10:23Z</time>
      </trkpt>
      <trkpt lat="43.68066" lon="6.92968">
        <ele>896.08618</ele>
        <time>2009-01-18T11:10:28Z</time>
      </trkpt>
      <trkpt lat="43.68057" lon="6.9297">
        <ele>896.56689</ele>
        <time>2009-01-18T11:10:35Z</time>
      </trkpt>
      <trkpt lat="43.6805" lon="6.9297">
        <ele>898.00878</ele>
        <time>2009-01-18T11:10:44Z</time>
      </trkpt>
      <trkpt lat="43.68049" lon="6.9297">
        <ele>898.00878</ele>
        <time>2009-01-18T11:10:50Z</time>
      </trkpt>
      <trkpt lat="43.68049" lon="6.92971">
        <ele>899.93139</ele>
        <time>2009-01-18T11:10:59Z</time>
      </trkpt>
      <trkpt lat="43.68039" lon="6.92979">
        <ele>899.93139</ele>
        <time>2009-01-18T11:11:06Z</time>
      </trkpt>
      <trkpt lat="43.68031" lon="6.9299">
        <ele>898.96997</ele>
        <time>2009-01-18T11:11:12Z</time>
      </trkpt>
      <trkpt lat="43.68024" lon="6.92991">
        <ele>897.52807</ele>
        <time>2009-01-18T11:11:17Z</time>
      </trkpt>
      <trkpt lat="43.68021" lon="6.9299">
        <ele>895.60546</ele>
        <time>2009-01-18T11:11:21Z</time>
      </trkpt>
      <trkpt lat="43.6802" lon="6.92991">
        <ele>894.16357</ele>
        <time>2009-01-18T11:11:26Z</time>
      </trkpt>
      <trkpt lat="43.6802" lon="6.93001">
        <ele>894.16357</ele>
        <time>2009-01-18T11:11:32Z</time>
      </trkpt>
      <trkpt lat="43.68019" lon="6.93004">
        <ele>897.52807</ele>
        <time>2009-01-18T11:11:42Z</time>
      </trkpt>
      <trkpt lat="43.6802" lon="6.93001">
        <ele>897.52807</ele>
        <time>2009-01-18T11:12:07Z</time>
      </trkpt>
      <trkpt lat="43.68021" lon="6.93">
        <ele>893.68286</ele>
        <time>2009-01-18T11:12:25Z</time>
      </trkpt>
      <trkpt lat="43.6802" lon="6.92998">
        <ele>896.08618</ele>
        <time>2009-01-18T11:12:33Z</time>
      </trkpt>
      <trkpt lat="43.68021" lon="6.92995">
        <ele>898.00878</ele>
        <time>2009-01-18T11:12:51Z</time>
      </trkpt>
      <trkpt lat="43.6802" lon="6.93003">
        <ele>895.60546</ele>
        <time>2009-01-18T11:14:05Z</time>
      </trkpt>
      <trkpt lat="43.68021" lon="6.93001">
        <ele>895.12475</ele>
        <time>2009-01-18T11:14:37Z</time>
      </trkpt>
      <trkpt lat="43.68021" lon="6.93003">
        <ele>897.52807</ele>
        <time>2009-01-18T11:15:07Z</time>
      </trkpt>
      <trkpt lat="43.68022" lon="6.93003">
        <ele>898.00878</ele>
        <time>2009-01-18T11:22:44Z</time>
      </trkpt>
      <trkpt lat="43.68022" lon="6.93003">
        <ele>897.52807</ele>
        <time>2009-01-18T11:22:57Z</time>
      </trkpt>
      <trkpt lat="43.68021" lon="6.93003">
        <ele>898.48925</ele>
        <time>2009-01-18T11:23:08Z</time>
      </trkpt>
      <trkpt lat="43.68017" lon="6.93006">
        <ele>901.854</ele>
        <time>2009-01-18T11:24:01Z</time>
      </trkpt>
      <trkpt lat="43.68019" lon="6.93002">
        <ele>898.96997</ele>
        <time>2009-01-18T11:24:29Z</time>
      </trkpt>
      <trkpt lat="43.68019" lon="6.93001">
        <ele>896.56689</ele>
        <time>2009-01-18T11:24:36Z</time>
      </trkpt>
      <trkpt lat="43.68019" lon="6.93002">
        <ele>896.56689</ele>
        <time>2009-01-18T11:24:40Z</time>
      </trkpt>
      <trkpt lat="43.68011" lon="6.93008">
        <ele>895.60546</ele>
        <time>2009-01-18T11:24:45Z</time>
      </trkpt>
      <trkpt lat="43.68009" lon="6.93018">
        <ele>894.64404</ele>
        <time>2009-01-18T11:24:47Z</time>
      </trkpt>
      <trkpt lat="43.67998" lon="6.93056">
        <ele>888.3955</ele>
        <time>2009-01-18T11:24:54Z</time>
      </trkpt>
      <trkpt lat="43.67995" lon="6.93062">
        <ele>887.43408</ele>
        <time>2009-01-18T11:24:55Z</time>
      </trkpt>
      <trkpt lat="43.67993" lon="6.93086">
        <ele>884.06958</ele>
        <time>2009-01-18T11:24:59Z</time>
      </trkpt>
      <trkpt lat="43.67991" lon="6.93095">
        <ele>881.66625</ele>
        <time>2009-01-18T11:25:01Z</time>
      </trkpt>
      <trkpt lat="43.67986" lon="6.93114">
        <ele>877.34057</ele>
        <time>2009-01-18T11:25:04Z</time>
      </trkpt>
      <trkpt lat="43.67971" lon="6.9314">
        <ele>869.6499</ele>
        <time>2009-01-18T11:25:09Z</time>
      </trkpt>
      <trkpt lat="43.67957" lon="6.93161">
        <ele>863.40136</ele>
        <time>2009-01-18T11:25:14Z</time>
      </trkpt>
      <trkpt lat="43.67957" lon="6.93164">
        <ele>861.95947</ele>
        <time>2009-01-18T11:25:18Z</time>
      </trkpt>
      <trkpt lat="43.67958" lon="6.93163">
        <ele>861.47875</ele>
        <time>2009-01-18T11:25:24Z</time>
      </trkpt>
      <trkpt lat="43.6796" lon="6.93161">
        <ele>861.95947</ele>
        <time>2009-01-18T11:25:33Z</time>
      </trkpt>
      <trkpt lat="43.67961" lon="6.93161">
        <ele>861.95947</ele>
        <time>2009-01-18T11:25:37Z</time>
      </trkpt>
      <trkpt lat="43.67954" lon="6.93174">
        <ele>860.51733</ele>
        <time>2009-01-18T11:25:41Z</time>
      </trkpt>
      <trkpt lat="43.67948" lon="6.93189">
        <ele>858.59448</ele>
        <time>2009-01-18T11:25:43Z</time>
      </trkpt>
      <trkpt lat="43.67938" lon="6.93213">
        <ele>854.26879</ele>
        <time>2009-01-18T11:25:47Z</time>
      </trkpt>
      <trkpt lat="43.67947" lon="6.93228">
        <ele>851.86547</ele>
        <time>2009-01-18T11:25:50Z</time>
      </trkpt>
      <trkpt lat="43.67962" lon="6.93248">
        <ele>848.50073</ele>
        <time>2009-01-18T11:25:54Z</time>
      </trkpt>
      <trkpt lat="43.67976" lon="6.93271">
        <ele>844.65551</ele>
        <time>2009-01-18T11:25:58Z</time>
      </trkpt>
      <trkpt lat="43.67986" lon="6.93282">
        <ele>842.73291</ele>
        <time>2009-01-18T11:26:00Z</time>
      </trkpt>
      <trkpt lat="43.68004" lon="6.93308">
        <ele>838.88769</ele>
        <time>2009-01-18T11:26:05Z</time>
      </trkpt>
      <trkpt lat="43.68006" lon="6.93313">
        <ele>837.92626</ele>
        <time>2009-01-18T11:26:07Z</time>
      </trkpt>
      <trkpt lat="43.68002" lon="6.93318">
        <ele>834.08105</ele>
        <time>2009-01-18T11:26:11Z</time>
      </trkpt>
      <trkpt lat="43.67998" lon="6.93316">
        <ele>833.60034</ele>
        <time>2009-01-18T11:26:12Z</time>
      </trkpt>
      <trkpt lat="43.67973" lon="6.93306">
        <ele>831.19726</ele>
        <time>2009-01-18T11:26:18Z</time>
      </trkpt>
      <trkpt lat="43.6797" lon="6.93306">
        <ele>830.23583</ele>
        <time>2009-01-18T11:26:19Z</time>
      </trkpt>
      <trkpt lat="43.67957" lon="6.93304">
        <ele>826.39038</ele>
        <time>2009-01-18T11:26:25Z</time>
      </trkpt>
      <trkpt lat="43.67954" lon="6.93304">
        <ele>825.42895</ele>
        <time>2009-01-18T11:26:26Z</time>
      </trkpt>
      <trkpt lat="43.67933" lon="6.93312">
        <ele>820.62255</ele>
        <time>2009-01-18T11:26:32Z</time>
      </trkpt>
      <trkpt lat="43.67922" lon="6.93314">
        <ele>817.73852</ele>
        <time>2009-01-18T11:26:35Z</time>
      </trkpt>
      <trkpt lat="43.67911" lon="6.93325">
        <ele>814.37402</ele>
        <time>2009-01-18T11:26:39Z</time>
      </trkpt>
      <trkpt lat="43.67898" lon="6.93332">
        <ele>811.00927</ele>
        <time>2009-01-18T11:26:42Z</time>
      </trkpt>
      <trkpt lat="43.67875" lon="6.93342">
        <ele>804.76074</ele>
        <time>2009-01-18T11:26:47Z</time>
      </trkpt>
      <trkpt lat="43.67873" lon="6.93342">
        <ele>802.83813</ele>
        <time>2009-01-18T11:26:48Z</time>
      </trkpt>
      <trkpt lat="43.67868" lon="6.93339">
        <ele>801.39624</ele>
        <time>2009-01-18T11:26:52Z</time>
      </trkpt>
      <trkpt lat="43.67859" lon="6.93338">
        <ele>798.99291</ele>
        <time>2009-01-18T11:26:56Z</time>
      </trkpt>
      <trkpt lat="43.6785" lon="6.93337">
        <ele>796.58984</ele>
        <time>2009-01-18T11:27:00Z</time>
      </trkpt>
      <trkpt lat="43.67836" lon="6.93323">
        <ele>794.18627</ele>
        <time>2009-01-18T11:27:05Z</time>
      </trkpt>
      <trkpt lat="43.6782" lon="6.93313">
        <ele>791.78295</ele>
        <time>2009-01-18T11:27:09Z</time>
      </trkpt>
      <trkpt lat="43.67801" lon="6.93303">
        <ele>789.37963</ele>
        <time>2009-01-18T11:27:15Z</time>
      </trkpt>
      <trkpt lat="43.6779" lon="6.93295">
        <ele>785.53442</ele>
        <time>2009-01-18T11:27:19Z</time>
      </trkpt>
      <trkpt lat="43.67783" lon="6.93287">
        <ele>781.6892</ele>
        <time>2009-01-18T11:27:23Z</time>
      </trkpt>
      <trkpt lat="43.67769" lon="6.93279">
        <ele>774.95996</ele>
        <time>2009-01-18T11:27:29Z</time>
      </trkpt>
      <trkpt lat="43.67756" lon="6.93275">
        <ele>772.07592</ele>
        <time>2009-01-18T11:27:34Z</time>
      </trkpt>
      <trkpt lat="43.67744" lon="6.93265">
        <ele>768.71142</ele>
        <time>2009-01-18T11:27:39Z</time>
      </trkpt>
      <trkpt lat="43.67729" lon="6.93252">
        <ele>765.34692</ele>
        <time>2009-01-18T11:27:44Z</time>
      </trkpt>
      <trkpt lat="43.67721" lon="6.93252">
        <ele>765.34692</ele>
        <time>2009-01-18T11:27:47Z</time>
      </trkpt>
      <trkpt lat="43.6771" lon="6.93247">
        <ele>762.94335</ele>
        <time>2009-01-18T11:27:51Z</time>
      </trkpt>
      <trkpt lat="43.67693" lon="6.93249">
        <ele>760.05932</ele>
        <time>2009-01-18T11:27:57Z</time>
      </trkpt>
      <trkpt lat="43.67678" lon="6.93258">
        <ele>753.33032</ele>
        <time>2009-01-18T11:28:02Z</time>
      </trkpt>
      <trkpt lat="43.67678" lon="6.93256">
        <ele>751.40771</ele>
        <time>2009-01-18T11:28:06Z</time>
      </trkpt>
      <trkpt lat="43.67682" lon="6.93256">
        <ele>750.927</ele>
        <time>2009-01-18T11:28:27Z</time>
      </trkpt>
      <trkpt lat="43.67679" lon="6.93261">
        <ele>754.77221</ele>
        <time>2009-01-18T11:28:55Z</time>
      </trkpt>
      <trkpt lat="43.67677" lon="6.93264">
        <ele>752.8496</ele>
        <time>2009-01-18T11:29:03Z</time>
      </trkpt>
      <trkpt lat="43.67675" lon="6.93267">
        <ele>751.40771</ele>
        <time>2009-01-18T11:29:08Z</time>
      </trkpt>
      <trkpt lat="43.67662" lon="6.93279">
        <ele>748.04321</ele>
        <time>2009-01-18T11:29:13Z</time>
      </trkpt>
      <trkpt lat="43.67649" lon="6.93294">
        <ele>744.19775</ele>
        <time>2009-01-18T11:29:17Z</time>
      </trkpt>
      <trkpt lat="43.67633" lon="6.93311">
        <ele>740.833</ele>
        <time>2009-01-18T11:29:21Z</time>
      </trkpt>
      <trkpt lat="43.67625" lon="6.93325">
        <ele>737.94921</ele>
        <time>2009-01-18T11:29:24Z</time>
      </trkpt>
      <trkpt lat="43.67618" lon="6.93331">
        <ele>734.104</ele>
        <time>2009-01-18T11:29:26Z</time>
      </trkpt>
      <trkpt lat="43.6761" lon="6.93338">
        <ele>730.73925</ele>
        <time>2009-01-18T11:29:29Z</time>
      </trkpt>
      <trkpt lat="43.67602" lon="6.93354">
        <ele>725.4519</ele>
        <time>2009-01-18T11:29:34Z</time>
      </trkpt>
      <trkpt lat="43.67592" lon="6.93356">
        <ele>722.56811</ele>
        <time>2009-01-18T11:29:38Z</time>
      </trkpt>
      <trkpt lat="43.67582" lon="6.93366">
        <ele>719.68432</ele>
        <time>2009-01-18T11:29:42Z</time>
      </trkpt>
      <trkpt lat="43.67572" lon="6.9338">
        <ele>713.43554</ele>
        <time>2009-01-18T11:29:47Z</time>
      </trkpt>
      <trkpt lat="43.67561" lon="6.93383">
        <ele>709.10961</ele>
        <time>2009-01-18T11:29:52Z</time>
      </trkpt>
      <trkpt lat="43.67556" lon="6.93384">
        <ele>705.2644</ele>
        <time>2009-01-18T11:29:54Z</time>
      </trkpt>
      <trkpt lat="43.67545" lon="6.93384">
        <ele>699.01562</ele>
        <time>2009-01-18T11:29:59Z</time>
      </trkpt>
      <trkpt lat="43.67542" lon="6.93383">
        <ele>698.05444</ele>
        <time>2009-01-18T11:30:00Z</time>
      </trkpt>
      <trkpt lat="43.67534" lon="6.9338">
        <ele>691.8059</ele>
        <time>2009-01-18T11:30:04Z</time>
      </trkpt>
      <trkpt lat="43.67526" lon="6.9339">
        <ele>686.03808</ele>
        <time>2009-01-18T11:30:08Z</time>
      </trkpt>
      <trkpt lat="43.67524" lon="6.93393">
        <ele>684.59619</ele>
        <time>2009-01-18T11:30:09Z</time>
      </trkpt>
      <trkpt lat="43.67514" lon="6.93391">
        <ele>679.7893</ele>
        <time>2009-01-18T11:30:13Z</time>
      </trkpt>
      <trkpt lat="43.675" lon="6.93385">
        <ele>678.34741</ele>
        <time>2009-01-18T11:30:17Z</time>
      </trkpt>
      <trkpt lat="43.67486" lon="6.9338">
        <ele>675.94409</ele>
        <time>2009-01-18T11:30:21Z</time>
      </trkpt>
      <trkpt lat="43.67465" lon="6.93376">
        <ele>672.57958</ele>
        <time>2009-01-18T11:30:25Z</time>
      </trkpt>
      <trkpt lat="43.67435" lon="6.93373">
        <ele>666.33081</ele>
        <time>2009-01-18T11:30:31Z</time>
      </trkpt>
      <trkpt lat="43.67421" lon="6.93369">
        <ele>660.08227</ele>
        <time>2009-01-18T11:30:34Z</time>
      </trkpt>
      <trkpt lat="43.67412" lon="6.93362">
        <ele>656.23706</ele>
        <time>2009-01-18T11:30:37Z</time>
      </trkpt>
      <trkpt lat="43.67393" lon="6.93365">
        <ele>650.9497</ele>
        <time>2009-01-18T11:30:42Z</time>
      </trkpt>
      <trkpt lat="43.67387" lon="6.93379">
        <ele>646.62402</ele>
        <time>2009-01-18T11:30:45Z</time>
      </trkpt>
      <trkpt lat="43.6738" lon="6.93398">
        <ele>644.2207</ele>
        <time>2009-01-18T11:30:49Z</time>
      </trkpt>
      <trkpt lat="43.67383" lon="6.93411">
        <ele>641.33666</ele>
        <time>2009-01-18T11:30:51Z</time>
      </trkpt>
      <trkpt lat="43.67392" lon="6.93441">
        <ele>636.53027</ele>
        <time>2009-01-18T11:30:56Z</time>
      </trkpt>
      <trkpt lat="43.67404" lon="6.93471">
        <ele>634.1267</ele>
        <time>2009-01-18T11:31:01Z</time>
      </trkpt>
      <trkpt lat="43.67407" lon="6.93468">
        <ele>633.16528</ele>
        <time>2009-01-18T11:31:04Z</time>
      </trkpt>
      <trkpt lat="43.67402" lon="6.93467">
        <ele>632.68481</ele>
        <time>2009-01-18T11:31:07Z</time>
      </trkpt>
      <trkpt lat="43.67403" lon="6.93466">
        <ele>630.28149</ele>
        <time>2009-01-18T11:31:13Z</time>
      </trkpt>
      <trkpt lat="43.67403" lon="6.93467">
        <ele>632.68481</ele>
        <time>2009-01-18T11:31:34Z</time>
      </trkpt>
      <trkpt lat="43.67403" lon="6.93465">
        <ele>632.68481</ele>
        <time>2009-01-18T11:31:37Z</time>
      </trkpt>
      <trkpt lat="43.67402" lon="6.93461">
        <ele>634.1267</ele>
        <time>2009-01-18T11:31:43Z</time>
      </trkpt>
      <trkpt lat="43.67401" lon="6.93467">
        <ele>634.1267</ele>
        <time>2009-01-18T11:31:49Z</time>
      </trkpt>
      <trkpt lat="43.67401" lon="6.93469">
        <ele>633.16528</ele>
        <time>2009-01-18T11:31:56Z</time>
      </trkpt>
      <trkpt lat="43.67402" lon="6.93467">
        <ele>631.72338</ele>
        <time>2009-01-18T11:32:04Z</time>
      </trkpt>
      <trkpt lat="43.67402" lon="6.93466">
        <ele>632.2041</ele>
        <time>2009-01-18T11:32:17Z</time>
      </trkpt>
      <trkpt lat="43.674" lon="6.93466">
        <ele>632.68481</ele>
        <time>2009-01-18T11:32:27Z</time>
      </trkpt>
      <trkpt lat="43.67394" lon="6.93458">
        <ele>630.7622</ele>
        <time>2009-01-18T11:32:34Z</time>
      </trkpt>
      <trkpt lat="43.67393" lon="6.93459">
        <ele>631.24291</ele>
        <time>2009-01-18T11:32:42Z</time>
      </trkpt>
      <trkpt lat="43.67391" lon="6.93455">
        <ele>629.80078</ele>
        <time>2009-01-18T11:32:54Z</time>
      </trkpt>
      <trkpt lat="43.67375" lon="6.93439">
        <ele>628.83959</ele>
        <time>2009-01-18T11:32:59Z</time>
      </trkpt>
      <trkpt lat="43.67367" lon="6.93431">
        <ele>628.35888</ele>
        <time>2009-01-18T11:33:01Z</time>
      </trkpt>
      <trkpt lat="43.67345" lon="6.93396">
        <ele>626.91699</ele>
        <time>2009-01-18T11:33:07Z</time>
      </trkpt>
      <trkpt lat="43.67336" lon="6.93376">
        <ele>626.43627</ele>
        <time>2009-01-18T11:33:10Z</time>
      </trkpt>
      <trkpt lat="43.67325" lon="6.93325">
        <ele>624.99438</ele>
        <time>2009-01-18T11:33:16Z</time>
      </trkpt>
      <trkpt lat="43.67324" lon="6.93299">
        <ele>623.07177</ele>
        <time>2009-01-18T11:33:19Z</time>
      </trkpt>
      <trkpt lat="43.67319" lon="6.93275">
        <ele>621.14916</ele>
        <time>2009-01-18T11:33:22Z</time>
      </trkpt>
      <trkpt lat="43.67312" lon="6.9321">
        <ele>616.82299</ele>
        <time>2009-01-18T11:33:30Z</time>
      </trkpt>
      <trkpt lat="43.67311" lon="6.93164">
        <ele>613.93896</ele>
        <time>2009-01-18T11:33:36Z</time>
      </trkpt>
      <trkpt lat="43.67317" lon="6.93128">
        <ele>612.97778</ele>
        <time>2009-01-18T11:33:42Z</time>
      </trkpt>
      <trkpt lat="43.67326" lon="6.93098">
        <ele>612.0166</ele>
        <time>2009-01-18T11:33:48Z</time>
      </trkpt>
      <trkpt lat="43.67331" lon="6.9309">
        <ele>611.05517</ele>
        <time>2009-01-18T11:33:52Z</time>
      </trkpt>
      <trkpt lat="43.67339" lon="6.93081">
        <ele>609.61328</ele>
        <time>2009-01-18T11:33:55Z</time>
      </trkpt>
      <trkpt lat="43.67347" lon="6.9306">
        <ele>609.13256</ele>
        <time>2009-01-18T11:33:58Z</time>
      </trkpt>
      <trkpt lat="43.67357" lon="6.93041">
        <ele>609.61328</ele>
        <time>2009-01-18T11:34:01Z</time>
      </trkpt>
      <trkpt lat="43.67361" lon="6.93032">
        <ele>611.53588</ele>
        <time>2009-01-18T11:34:05Z</time>
      </trkpt>
      <trkpt lat="43.6736" lon="6.9303">
        <ele>612.0166</ele>
        <time>2009-01-18T11:34:06Z</time>
      </trkpt>
      <trkpt lat="43.67356" lon="6.93024">
        <ele>612.0166</ele>
        <time>2009-01-18T11:34:11Z</time>
      </trkpt>
      <trkpt lat="43.67355" lon="6.93025">
        <ele>613.45849</ele>
        <time>2009-01-18T11:34:15Z</time>
      </trkpt>
      <trkpt lat="43.67357" lon="6.93034">
        <ele>615.3811</ele>
        <time>2009-01-18T11:34:20Z</time>
      </trkpt>
      <trkpt lat="43.67347" lon="6.93042">
        <ele>612.97778</ele>
        <time>2009-01-18T11:34:24Z</time>
      </trkpt>
      <trkpt lat="43.67335" lon="6.93032">
        <ele>611.05517</ele>
        <time>2009-01-18T11:34:27Z</time>
      </trkpt>
      <trkpt lat="43.67331" lon="6.93029">
        <ele>611.53588</ele>
        <time>2009-01-18T11:34:28Z</time>
      </trkpt>
      <trkpt lat="43.67317" lon="6.93024">
        <ele>609.61328</ele>
        <time>2009-01-18T11:34:31Z</time>
      </trkpt>
      <trkpt lat="43.67292" lon="6.9303">
        <ele>603.84521</ele>
        <time>2009-01-18T11:34:36Z</time>
      </trkpt>
      <trkpt lat="43.67277" lon="6.93036">
        <ele>601.9226</ele>
        <time>2009-01-18T11:34:39Z</time>
      </trkpt>
      <trkpt lat="43.67256" lon="6.93047">
        <ele>598.55786</ele>
        <time>2009-01-18T11:34:44Z</time>
      </trkpt>
      <trkpt lat="43.67233" lon="6.93053">
        <ele>596.15478</ele>
        <time>2009-01-18T11:34:50Z</time>
      </trkpt>
      <trkpt lat="43.67229" lon="6.93054">
        <ele>597.11596</ele>
        <time>2009-01-18T11:34:52Z</time>
      </trkpt>
      <trkpt lat="43.67229" lon="6.93068">
        <ele>593.75146</ele>
        <time>2009-01-18T11:34:56Z</time>
      </trkpt>
      <trkpt lat="43.6723" lon="6.93089">
        <ele>589.90625</ele>
        <time>2009-01-18T11:35:01Z</time>
      </trkpt>
      <trkpt lat="43.67227" lon="6.93093">
        <ele>589.42553</ele>
        <time>2009-01-18T11:35:02Z</time>
      </trkpt>
      <trkpt lat="43.67215" lon="6.93109">
        <ele>585.58007</ele>
        <time>2009-01-18T11:35:06Z</time>
      </trkpt>
      <trkpt lat="43.6719" lon="6.93119">
        <ele>579.81225</ele>
        <time>2009-01-18T11:35:11Z</time>
      </trkpt>
      <trkpt lat="43.6717" lon="6.93135">
        <ele>577.40917</ele>
        <time>2009-01-18T11:35:15Z</time>
      </trkpt>
      <trkpt lat="43.6716" lon="6.93144">
        <ele>576.44775</ele>
        <time>2009-01-18T11:35:20Z</time>
      </trkpt>
      <trkpt lat="43.67159" lon="6.93145">
        <ele>578.37036</ele>
        <time>2009-01-18T11:35:38Z</time>
      </trkpt>
      <trkpt lat="43.67157" lon="6.93146">
        <ele>576.44775</ele>
        <time>2009-01-18T11:35:47Z</time>
      </trkpt>
      <trkpt lat="43.67149" lon="6.93155">
        <ele>575.00585</ele>
        <time>2009-01-18T11:35:51Z</time>
      </trkpt>
      <trkpt lat="43.67144" lon="6.93169">
        <ele>575.48632</ele>
        <time>2009-01-18T11:35:58Z</time>
      </trkpt>
      <trkpt lat="43.67144" lon="6.93169">
        <ele>575.96704</ele>
        <time>2009-01-18T11:36:01Z</time>
      </trkpt>
      <trkpt lat="43.67137" lon="6.93181">
        <ele>573.56396</ele>
        <time>2009-01-18T11:36:06Z</time>
      </trkpt>
      <trkpt lat="43.67129" lon="6.93191">
        <ele>571.64086</ele>
        <time>2009-01-18T11:36:09Z</time>
      </trkpt>
      <trkpt lat="43.6712" lon="6.932">
        <ele>570.19897</ele>
        <time>2009-01-18T11:36:11Z</time>
      </trkpt>
      <trkpt lat="43.67112" lon="6.93208">
        <ele>569.23779</ele>
        <time>2009-01-18T11:36:13Z</time>
      </trkpt>
      <trkpt lat="43.671" lon="6.93205">
        <ele>567.31518</ele>
        <time>2009-01-18T11:36:17Z</time>
      </trkpt>
      <trkpt lat="43.67091" lon="6.93202">
        <ele>564.91186</ele>
        <time>2009-01-18T11:36:22Z</time>
      </trkpt>
      <trkpt lat="43.67086" lon="6.93209">
        <ele>567.79565</ele>
        <time>2009-01-18T11:36:27Z</time>
      </trkpt>
      <trkpt lat="43.67087" lon="6.9321">
        <ele>564.91186</ele>
        <time>2009-01-18T11:36:32Z</time>
      </trkpt>
      <trkpt lat="43.67088" lon="6.9321">
        <ele>565.39257</ele>
        <time>2009-01-18T11:36:33Z</time>
      </trkpt>
      <trkpt lat="43.6709" lon="6.932">
        <ele>565.39257</ele>
        <time>2009-01-18T11:36:38Z</time>
      </trkpt>
      <trkpt lat="43.67088" lon="6.93185">
        <ele>565.39257</ele>
        <time>2009-01-18T11:36:43Z</time>
      </trkpt>
      <trkpt lat="43.67079" lon="6.93178">
        <ele>563.95043</ele>
        <time>2009-01-18T11:36:48Z</time>
      </trkpt>
      <trkpt lat="43.6707" lon="6.9318">
        <ele>564.43115</ele>
        <time>2009-01-18T11:36:50Z</time>
      </trkpt>
      <trkpt lat="43.67054" lon="6.93193">
        <ele>563.95043</ele>
        <time>2009-01-18T11:36:56Z</time>
      </trkpt>
      <trkpt lat="43.67052" lon="6.93196">
        <ele>564.43115</ele>
        <time>2009-01-18T11:36:58Z</time>
      </trkpt>
      <trkpt lat="43.67051" lon="6.93198">
        <ele>563.46997</ele>
        <time>2009-01-18T11:37:00Z</time>
      </trkpt>
      <trkpt lat="43.67044" lon="6.93214">
        <ele>564.43115</ele>
        <time>2009-01-18T11:37:04Z</time>
      </trkpt>
      <trkpt lat="43.67031" lon="6.93236">
        <ele>565.39257</ele>
        <time>2009-01-18T11:37:09Z</time>
      </trkpt>
      <trkpt lat="43.67027" lon="6.93244">
        <ele>565.87329</ele>
        <time>2009-01-18T11:37:14Z</time>
      </trkpt>
      <trkpt lat="43.67031" lon="6.93237">
        <ele>564.43115</ele>
        <time>2009-01-18T11:37:21Z</time>
      </trkpt>
      <trkpt lat="43.67031" lon="6.93238">
        <ele>564.91186</ele>
        <time>2009-01-18T11:37:27Z</time>
      </trkpt>
      <trkpt lat="43.67016" lon="6.93243">
        <ele>562.98925</ele>
        <time>2009-01-18T11:37:32Z</time>
      </trkpt>
      <trkpt lat="43.67" lon="6.93248">
        <ele>560.10522</ele>
        <time>2009-01-18T11:37:36Z</time>
      </trkpt>
      <trkpt lat="43.67" lon="6.93258">
        <ele>557.22143</ele>
        <time>2009-01-18T11:37:39Z</time>
      </trkpt>
      <trkpt lat="43.67006" lon="6.93263">
        <ele>556.26</ele>
        <time>2009-01-18T11:37:43Z</time>
      </trkpt>
      <trkpt lat="43.67011" lon="6.93262">
        <ele>556.26</ele>
        <time>2009-01-18T11:37:46Z</time>
      </trkpt>
      <trkpt lat="43.67012" lon="6.93263">
        <ele>556.26</ele>
        <time>2009-01-18T11:37:48Z</time>
      </trkpt>
      <trkpt lat="43.67017" lon="6.93264">
        <ele>555.77929</ele>
        <time>2009-01-18T11:37:53Z</time>
      </trkpt>
      <trkpt lat="43.67018" lon="6.93261">
        <ele>554.3374</ele>
        <time>2009-01-18T11:37:54Z</time>
      </trkpt>
      <trkpt lat="43.67019" lon="6.93255">
        <ele>552.89526</ele>
        <time>2009-01-18T11:37:56Z</time>
      </trkpt>
      <trkpt lat="43.67025" lon="6.93249">
        <ele>554.81787</ele>
        <time>2009-01-18T11:38:01Z</time>
      </trkpt>
      <trkpt lat="43.67025" lon="6.93248">
        <ele>555.77929</ele>
        <time>2009-01-18T11:38:02Z</time>
      </trkpt>
      <trkpt lat="43.67006" lon="6.93251">
        <ele>553.37597</ele>
        <time>2009-01-18T11:38:08Z</time>
      </trkpt>
      <trkpt lat="43.66992" lon="6.93255">
        <ele>554.3374</ele>
        <time>2009-01-18T11:38:12Z</time>
      </trkpt>
      <trkpt lat="43.6699" lon="6.93255">
        <ele>555.77929</ele>
        <time>2009-01-18T11:38:17Z</time>
      </trkpt>
      <trkpt lat="43.66993" lon="6.93258">
        <ele>553.85668</ele>
        <time>2009-01-18T11:38:24Z</time>
      </trkpt>
      <trkpt lat="43.66994" lon="6.93262">
        <ele>552.89526</ele>
        <time>2009-01-18T11:38:29Z</time>
      </trkpt>
      <trkpt lat="43.67001" lon="6.93258">
        <ele>553.37597</ele>
        <time>2009-01-18T11:38:37Z</time>
      </trkpt>
      <trkpt lat="43.67003" lon="6.93257">
        <ele>554.3374</ele>
        <time>2009-01-18T11:38:39Z</time>
      </trkpt>
      <trkpt lat="43.67011" lon="6.93256">
        <ele>556.74072</ele>
        <time>2009-01-18T11:38:47Z</time>
      </trkpt>
      <trkpt lat="43.67012" lon="6.93252">
        <ele>556.74072</ele>
        <time>2009-01-18T11:38:53Z</time>
      </trkpt>
      <trkpt lat="43.67017" lon="6.93247">
        <ele>559.62475</ele>
        <time>2009-01-18T11:38:59Z</time>
      </trkpt>
      <trkpt lat="43.67023" lon="6.93248">
        <ele>561.06665</ele>
        <time>2009-01-18T11:39:06Z</time>
      </trkpt>
      <trkpt lat="43.67033" lon="6.9324">
        <ele>563.95043</ele>
        <time>2009-01-18T11:39:12Z</time>
      </trkpt>
      <trkpt lat="43.67036" lon="6.93236">
        <ele>564.91186</ele>
        <time>2009-01-18T11:39:14Z</time>
      </trkpt>
      <trkpt lat="43.6704" lon="6.93227">
        <ele>564.91186</ele>
        <time>2009-01-18T11:39:18Z</time>
      </trkpt>
      <trkpt lat="43.67045" lon="6.93212">
        <ele>561.54736</ele>
        <time>2009-01-18T11:39:24Z</time>
      </trkpt>
      <trkpt lat="43.67053" lon="6.93204">
        <ele>563.46997</ele>
        <time>2009-01-18T11:39:29Z</time>
      </trkpt>
      <trkpt lat="43.67052" lon="6.932">
        <ele>563.46997</ele>
        <time>2009-01-18T11:39:33Z</time>
      </trkpt>
      <trkpt lat="43.67045" lon="6.93213">
        <ele>563.46997</ele>
        <time>2009-01-18T11:39:37Z</time>
      </trkpt>
      <trkpt lat="43.67042" lon="6.93217">
        <ele>562.98925</ele>
        <time>2009-01-18T11:39:38Z</time>
      </trkpt>
      <trkpt lat="43.67033" lon="6.93229">
        <ele>563.46997</ele>
        <time>2009-01-18T11:39:41Z</time>
      </trkpt>
      <trkpt lat="43.67014" lon="6.93242">
        <ele>562.02807</ele>
        <time>2009-01-18T11:39:45Z</time>
      </trkpt>
      <trkpt lat="43.66995" lon="6.93256">
        <ele>560.58593</ele>
        <time>2009-01-18T11:39:50Z</time>
      </trkpt>
      <trkpt lat="43.66996" lon="6.93256">
        <ele>559.62475</ele>
        <time>2009-01-18T11:39:54Z</time>
      </trkpt>
      <trkpt lat="43.67" lon="6.93253">
        <ele>556.74072</ele>
        <time>2009-01-18T11:40:00Z</time>
      </trkpt>
      <trkpt lat="43.67001" lon="6.93252">
        <ele>556.26</ele>
        <time>2009-01-18T11:40:01Z</time>
      </trkpt>
      <trkpt lat="43.67006" lon="6.93249">
        <ele>553.37597</ele>
        <time>2009-01-18T11:40:05Z</time>
      </trkpt>
      <trkpt lat="43.6701" lon="6.93253">
        <ele>553.37597</ele>
        <time>2009-01-18T11:40:08Z</time>
      </trkpt>
      <trkpt lat="43.67019" lon="6.93252">
        <ele>555.77929</ele>
        <time>2009-01-18T11:40:14Z</time>
      </trkpt>
      <trkpt lat="43.67023" lon="6.93251">
        <ele>556.74072</ele>
        <time>2009-01-18T11:40:19Z</time>
      </trkpt>
      <trkpt lat="43.67021" lon="6.93257">
        <ele>562.02807</ele>
        <time>2009-01-18T11:40:39Z</time>
      </trkpt>
      <trkpt lat="43.67026" lon="6.9327">
        <ele>561.54736</ele>
        <time>2009-01-18T11:40:46Z</time>
      </trkpt>
      <trkpt lat="43.6704" lon="6.93266">
        <ele>563.46997</ele>
        <time>2009-01-18T11:40:52Z</time>
      </trkpt>
      <trkpt lat="43.67051" lon="6.93261">
        <ele>561.54736</ele>
        <time>2009-01-18T11:40:58Z</time>
      </trkpt>
      <trkpt lat="43.67054" lon="6.93247">
        <ele>559.14404</ele>
        <time>2009-01-18T11:41:02Z</time>
      </trkpt>
      <trkpt lat="43.67054" lon="6.93219">
        <ele>561.06665</ele>
        <time>2009-01-18T11:41:10Z</time>
      </trkpt>
      <trkpt lat="43.67053" lon="6.93211">
        <ele>564.43115</ele>
        <time>2009-01-18T11:41:13Z</time>
      </trkpt>
      <trkpt lat="43.6706" lon="6.93205">
        <ele>569.7185</ele>
        <time>2009-01-18T11:41:18Z</time>
      </trkpt>
      <trkpt lat="43.67056" lon="6.932">
        <ele>569.7185</ele>
        <time>2009-01-18T11:41:22Z</time>
      </trkpt>
      <trkpt lat="43.67052" lon="6.93204">
        <ele>569.7185</ele>
        <time>2009-01-18T11:41:24Z</time>
      </trkpt>
      <trkpt lat="43.67039" lon="6.93221">
        <ele>570.19897</ele>
        <time>2009-01-18T11:41:28Z</time>
      </trkpt>
      <trkpt lat="43.67025" lon="6.93235">
        <ele>571.64086</ele>
        <time>2009-01-18T11:41:31Z</time>
      </trkpt>
      <trkpt lat="43.67004" lon="6.93246">
        <ele>567.79565</ele>
        <time>2009-01-18T11:41:35Z</time>
      </trkpt>
      <trkpt lat="43.66987" lon="6.93257">
        <ele>563.95043</ele>
        <time>2009-01-18T11:41:39Z</time>
      </trkpt>
      <trkpt lat="43.6699" lon="6.9327">
        <ele>560.10522</ele>
        <time>2009-01-18T11:41:43Z</time>
      </trkpt>
      <trkpt lat="43.66995" lon="6.9327">
        <ele>557.70214</ele>
        <time>2009-01-18T11:41:45Z</time>
      </trkpt>
      <trkpt lat="43.67009" lon="6.93265">
        <ele>554.81787</ele>
        <time>2009-01-18T11:41:52Z</time>
      </trkpt>
      <trkpt lat="43.67022" lon="6.93265">
        <ele>554.3374</ele>
        <time>2009-01-18T11:41:58Z</time>
      </trkpt>
      <trkpt lat="43.67036" lon="6.93265">
        <ele>556.26</ele>
        <time>2009-01-18T11:42:04Z</time>
      </trkpt>
      <trkpt lat="43.67044" lon="6.93265">
        <ele>556.26</ele>
        <time>2009-01-18T11:42:08Z</time>
      </trkpt>
      <trkpt lat="43.67046" lon="6.93264">
        <ele>557.22143</ele>
        <time>2009-01-18T11:42:09Z</time>
      </trkpt>
      <trkpt lat="43.67054" lon="6.93249">
        <ele>554.81787</ele>
        <time>2009-01-18T11:42:15Z</time>
      </trkpt>
      <trkpt lat="43.67053" lon="6.93243">
        <ele>555.29858</ele>
        <time>2009-01-18T11:42:17Z</time>
      </trkpt>
      <trkpt lat="43.67051" lon="6.93224">
        <ele>557.22143</ele>
        <time>2009-01-18T11:42:24Z</time>
      </trkpt>
      <trkpt lat="43.67052" lon="6.93217">
        <ele>560.10522</ele>
        <time>2009-01-18T11:42:29Z</time>
      </trkpt>
      <trkpt lat="43.67052" lon="6.93212">
        <ele>564.43115</ele>
        <time>2009-01-18T11:42:34Z</time>
      </trkpt>
      <trkpt lat="43.67053" lon="6.93211">
        <ele>568.27636</ele>
        <time>2009-01-18T11:42:43Z</time>
      </trkpt>
      <trkpt lat="43.67054" lon="6.93212">
        <ele>566.35375</ele>
        <time>2009-01-18T11:42:50Z</time>
      </trkpt>
      <trkpt lat="43.67056" lon="6.93208">
        <ele>566.35375</ele>
        <time>2009-01-18T11:42:59Z</time>
      </trkpt>
      <trkpt lat="43.67059" lon="6.93198">
        <ele>566.83447</ele>
        <time>2009-01-18T11:43:07Z</time>
      </trkpt>
      <trkpt lat="43.67058" lon="6.93197">
        <ele>566.35375</ele>
        <time>2009-01-18T11:43:13Z</time>
      </trkpt>
      <trkpt lat="43.67058" lon="6.93197">
        <ele>566.35375</ele>
        <time>2009-01-18T11:43:14Z</time>
      </trkpt>
      <trkpt lat="43.67049" lon="6.93212">
        <ele>565.39257</ele>
        <time>2009-01-18T11:43:19Z</time>
      </trkpt>
      <trkpt lat="43.67046" lon="6.93218">
        <ele>565.39257</ele>
        <time>2009-01-18T11:43:20Z</time>
      </trkpt>
      <trkpt lat="43.67033" lon="6.93237">
        <ele>566.35375</ele>
        <time>2009-01-18T11:43:23Z</time>
      </trkpt>
      <trkpt lat="43.67008" lon="6.93246">
        <ele>565.39257</ele>
        <time>2009-01-18T11:43:27Z</time>
      </trkpt>
      <trkpt lat="43.66991" lon="6.93251">
        <ele>564.43115</ele>
        <time>2009-01-18T11:43:31Z</time>
      </trkpt>
      <trkpt lat="43.66993" lon="6.93251">
        <ele>561.06665</ele>
        <time>2009-01-18T11:43:34Z</time>
      </trkpt>
      <trkpt lat="43.66999" lon="6.93249">
        <ele>554.81787</ele>
        <time>2009-01-18T11:43:40Z</time>
      </trkpt>
      <trkpt lat="43.67001" lon="6.93251">
        <ele>554.3374</ele>
        <time>2009-01-18T11:43:43Z</time>
      </trkpt>
      <trkpt lat="43.67007" lon="6.93251">
        <ele>552.41455</ele>
        <time>2009-01-18T11:43:50Z</time>
      </trkpt>
      <trkpt lat="43.67007" lon="6.93251">
        <ele>551.45336</ele>
        <time>2009-01-18T11:43:52Z</time>
      </trkpt>
      <trkpt lat="43.67005" lon="6.93249">
        <ele>550.01147</ele>
        <time>2009-01-18T11:43:55Z</time>
      </trkpt>
      <trkpt lat="43.67" lon="6.9325">
        <ele>549.05004</ele>
        <time>2009-01-18T11:44:01Z</time>
      </trkpt>
      <trkpt lat="43.66994" lon="6.93256">
        <ele>549.05004</ele>
        <time>2009-01-18T11:44:07Z</time>
      </trkpt>
      <trkpt lat="43.66991" lon="6.93256">
        <ele>551.93408</ele>
        <time>2009-01-18T11:44:13Z</time>
      </trkpt>
      <trkpt lat="43.66991" lon="6.93255">
        <ele>550.49218</ele>
        <time>2009-01-18T11:44:27Z</time>
      </trkpt>
      <trkpt lat="43.66985" lon="6.93248">
        <ele>551.93408</ele>
        <time>2009-01-18T11:44:32Z</time>
      </trkpt>
      <trkpt lat="43.6697" lon="6.93236">
        <ele>549.05004</ele>
        <time>2009-01-18T11:44:37Z</time>
      </trkpt>
      <trkpt lat="43.66956" lon="6.93237">
        <ele>546.64685</ele>
        <time>2009-01-18T11:44:41Z</time>
      </trkpt>
      <trkpt lat="43.66941" lon="6.93238">
        <ele>546.64685</ele>
        <time>2009-01-18T11:44:45Z</time>
      </trkpt>
      <trkpt lat="43.66936" lon="6.93241">
        <ele>546.64685</ele>
        <time>2009-01-18T11:44:47Z</time>
      </trkpt>
      <trkpt lat="43.66924" lon="6.93233">
        <ele>550.01147</ele>
        <time>2009-01-18T11:44:51Z</time>
      </trkpt>
      <trkpt lat="43.66921" lon="6.93233">
        <ele>550.49218</ele>
        <time>2009-01-18T11:44:52Z</time>
      </trkpt>
      <trkpt lat="43.66905" lon="6.93232">
        <ele>552.41455</ele>
        <time>2009-01-18T11:44:58Z</time>
      </trkpt>
      <trkpt lat="43.66895" lon="6.93226">
        <ele>553.37597</ele>
        <time>2009-01-18T11:45:01Z</time>
      </trkpt>
      <trkpt lat="43.66882" lon="6.93225">
        <ele>552.89526</ele>
        <time>2009-01-18T11:45:05Z</time>
      </trkpt>
      <trkpt lat="43.66875" lon="6.93216">
        <ele>550.97265</ele>
        <time>2009-01-18T11:45:11Z</time>
      </trkpt>
      <trkpt lat="43.66869" lon="6.93214">
        <ele>548.56933</ele>
        <time>2009-01-18T11:45:13Z</time>
      </trkpt>
      <trkpt lat="43.6685" lon="6.93197">
        <ele>540.39831</ele>
        <time>2009-01-18T11:45:19Z</time>
      </trkpt>
      <trkpt lat="43.66835" lon="6.93187">
        <ele>539.9176</ele>
        <time>2009-01-18T11:45:25Z</time>
      </trkpt>
      <trkpt lat="43.66825" lon="6.93184">
        <ele>536.5531</ele>
        <time>2009-01-18T11:45:30Z</time>
      </trkpt>
      <trkpt lat="43.66819" lon="6.93181">
        <ele>533.66894</ele>
        <time>2009-01-18T11:45:35Z</time>
      </trkpt>
      <trkpt lat="43.66818" lon="6.93185">
        <ele>526.93981</ele>
        <time>2009-01-18T11:45:51Z</time>
      </trkpt>
      <trkpt lat="43.66819" lon="6.93185">
        <ele>527.42041</ele>
        <time>2009-01-18T11:45:56Z</time>
      </trkpt>
      <trkpt lat="43.6682" lon="6.93182">
        <ele>524.53649</ele>
        <time>2009-01-18T11:46:07Z</time>
      </trkpt>
      <trkpt lat="43.66817" lon="6.93184">
        <ele>531.26574</ele>
        <time>2009-01-18T11:46:20Z</time>
      </trkpt>
      <trkpt lat="43.66817" lon="6.93182">
        <ele>531.26574</ele>
        <time>2009-01-18T11:46:26Z</time>
      </trkpt>
      <trkpt lat="43.66815" lon="6.93179">
        <ele>529.82373</ele>
        <time>2009-01-18T11:46:31Z</time>
      </trkpt>
      <trkpt lat="43.66814" lon="6.93177">
        <ele>529.82373</ele>
        <time>2009-01-18T11:46:40Z</time>
      </trkpt>
      <trkpt lat="43.66812" lon="6.93173">
        <ele>528.86254</ele>
        <time>2009-01-18T11:46:45Z</time>
      </trkpt>
      <trkpt lat="43.6681" lon="6.93172">
        <ele>527.42041</ele>
        <time>2009-01-18T11:46:49Z</time>
      </trkpt>
      <trkpt lat="43.66805" lon="6.93176">
        <ele>524.53649</ele>
        <time>2009-01-18T11:46:53Z</time>
      </trkpt>
      <trkpt lat="43.66801" lon="6.93179">
        <ele>518.76855</ele>
        <time>2009-01-18T11:46:59Z</time>
      </trkpt>
      <trkpt lat="43.66799" lon="6.93183">
        <ele>519.24926</ele>
        <time>2009-01-18T11:47:07Z</time>
      </trkpt>
      <trkpt lat="43.66799" lon="6.9318">
        <ele>518.28784</ele>
        <time>2009-01-18T11:47:24Z</time>
      </trkpt>
      <trkpt lat="43.66799" lon="6.93177">
        <ele>519.24926</ele>
        <time>2009-01-18T11:47:29Z</time>
      </trkpt>
      <trkpt lat="43.668" lon="6.93177">
        <ele>521.17199</ele>
        <time>2009-01-18T11:47:36Z</time>
      </trkpt>
      <trkpt lat="43.66798" lon="6.93172">
        <ele>519.72985</ele>
        <time>2009-01-18T11:47:47Z</time>
      </trkpt>
      <trkpt lat="43.66793" lon="6.93168">
        <ele>519.72985</ele>
        <time>2009-01-18T11:47:51Z</time>
      </trkpt>
      <trkpt lat="43.66783" lon="6.93173">
        <ele>522.13317</ele>
        <time>2009-01-18T11:47:56Z</time>
      </trkpt>
      <trkpt lat="43.66777" lon="6.93181">
        <ele>516.84594</ele>
        <time>2009-01-18T11:48:02Z</time>
      </trkpt>
      <trkpt lat="43.66766" lon="6.9318">
        <ele>513.96203</ele>
        <time>2009-01-18T11:48:08Z</time>
      </trkpt>
      <trkpt lat="43.66763" lon="6.93173">
        <ele>513.00073</ele>
        <time>2009-01-18T11:48:12Z</time>
      </trkpt>
      <trkpt lat="43.66761" lon="6.93172">
        <ele>513.48144</ele>
        <time>2009-01-18T11:48:14Z</time>
      </trkpt>
      <trkpt lat="43.66756" lon="6.93171">
        <ele>510.11669</ele>
        <time>2009-01-18T11:48:20Z</time>
      </trkpt>
      <trkpt lat="43.66754" lon="6.9317">
        <ele>510.59729</ele>
        <time>2009-01-18T11:48:28Z</time>
      </trkpt>
      <trkpt lat="43.66754" lon="6.93172">
        <ele>509.15539</ele>
        <time>2009-01-18T11:48:36Z</time>
      </trkpt>
      <trkpt lat="43.66755" lon="6.93175">
        <ele>506.27148</ele>
        <time>2009-01-18T11:48:46Z</time>
      </trkpt>
      <trkpt lat="43.66756" lon="6.93181">
        <ele>504.82946</ele>
        <time>2009-01-18T11:48:53Z</time>
      </trkpt>
      <trkpt lat="43.6676" lon="6.93182">
        <ele>503.86816</ele>
        <time>2009-01-18T11:49:02Z</time>
      </trkpt>
      <trkpt lat="43.66759" lon="6.93187">
        <ele>493.77429</ele>
        <time>2009-01-18T11:49:42Z</time>
      </trkpt>
      <trkpt lat="43.66759" lon="6.93183">
        <ele>496.17773</ele>
        <time>2009-01-18T11:49:52Z</time>
      </trkpt>
      <trkpt lat="43.66757" lon="6.93173">
        <ele>497.61962</ele>
        <time>2009-01-18T11:49:57Z</time>
      </trkpt>
      <trkpt lat="43.66753" lon="6.93173">
        <ele>502.90673</ele>
        <time>2009-01-18T11:50:07Z</time>
      </trkpt>
      <trkpt lat="43.66749" lon="6.93179">
        <ele>513.48144</ele>
        <time>2009-01-18T11:50:25Z</time>
      </trkpt>
      <trkpt lat="43.66748" lon="6.93178">
        <ele>516.84594</ele>
        <time>2009-01-18T11:50:42Z</time>
      </trkpt>
      <trkpt lat="43.66749" lon="6.93177">
        <ele>513.00073</ele>
        <time>2009-01-18T11:50:49Z</time>
      </trkpt>
      <trkpt lat="43.66749" lon="6.93175">
        <ele>509.6361</ele>
        <time>2009-01-18T11:50:54Z</time>
      </trkpt>
      <trkpt lat="43.66753" lon="6.93171">
        <ele>506.75207</ele>
        <time>2009-01-18T11:51:05Z</time>
      </trkpt>
      <trkpt lat="43.66756" lon="6.93172">
        <ele>506.27148</ele>
        <time>2009-01-18T11:51:28Z</time>
      </trkpt>
      <trkpt lat="43.66758" lon="6.93173">
        <ele>504.34887</ele>
        <time>2009-01-18T11:51:46Z</time>
      </trkpt>
      <trkpt lat="43.66752" lon="6.93167">
        <ele>513.48144</ele>
        <time>2009-01-18T11:52:02Z</time>
      </trkpt>
      <trkpt lat="43.6675" lon="6.93174">
        <ele>516.36523</ele>
        <time>2009-01-18T11:52:14Z</time>
      </trkpt>
      <trkpt lat="43.66752" lon="6.93171">
        <ele>510.59729</ele>
        <time>2009-01-18T11:52:20Z</time>
      </trkpt>
      <trkpt lat="43.66753" lon="6.9317">
        <ele>507.23278</ele>
        <time>2009-01-18T11:52:25Z</time>
      </trkpt>
      <trkpt lat="43.6675" lon="6.93158">
        <ele>505.79089</ele>
        <time>2009-01-18T11:52:31Z</time>
      </trkpt>
      <trkpt lat="43.6675" lon="6.93156">
        <ele>506.75207</ele>
        <time>2009-01-18T11:52:32Z</time>
      </trkpt>
      <trkpt lat="43.66754" lon="6.93137">
        <ele>509.15539</ele>
        <time>2009-01-18T11:52:38Z</time>
      </trkpt>
      <trkpt lat="43.66747" lon="6.93116">
        <ele>507.23278</ele>
        <time>2009-01-18T11:52:43Z</time>
      </trkpt>
      <trkpt lat="43.66744" lon="6.93102">
        <ele>504.34887</ele>
        <time>2009-01-18T11:52:46Z</time>
      </trkpt>
      <trkpt lat="43.66733" lon="6.93104">
        <ele>498.10034</ele>
        <time>2009-01-18T11:52:50Z</time>
      </trkpt>
      <trkpt lat="43.66724" lon="6.93117">
        <ele>496.65832</ele>
        <time>2009-01-18T11:52:54Z</time>
      </trkpt>
      <trkpt lat="43.66718" lon="6.93133">
        <ele>493.77429</ele>
        <time>2009-01-18T11:52:59Z</time>
      </trkpt>
      <trkpt lat="43.66713" lon="6.93154">
        <ele>498.10034</ele>
        <time>2009-01-18T11:53:04Z</time>
      </trkpt>
      <trkpt lat="43.66717" lon="6.93173">
        <ele>500.02294</ele>
        <time>2009-01-18T11:53:08Z</time>
      </trkpt>
      <trkpt lat="43.6673" lon="6.93184">
        <ele>503.38745</ele>
        <time>2009-01-18T11:53:12Z</time>
      </trkpt>
      <trkpt lat="43.66744" lon="6.93184">
        <ele>503.86816</ele>
        <time>2009-01-18T11:53:16Z</time>
      </trkpt>
      <trkpt lat="43.66754" lon="6.93182">
        <ele>508.67468</ele>
        <time>2009-01-18T11:53:21Z</time>
      </trkpt>
      <trkpt lat="43.66755" lon="6.93183">
        <ele>509.15539</ele>
        <time>2009-01-18T11:53:28Z</time>
      </trkpt>
      <trkpt lat="43.66754" lon="6.93184">
        <ele>509.6361</ele>
        <time>2009-01-18T11:53:36Z</time>
      </trkpt>
      <trkpt lat="43.66758" lon="6.93178">
        <ele>507.23278</ele>
        <time>2009-01-18T11:53:42Z</time>
      </trkpt>
      <trkpt lat="43.66759" lon="6.93177">
        <ele>507.23278</ele>
        <time>2009-01-18T11:53:50Z</time>
      </trkpt>
      <trkpt lat="43.66759" lon="6.93173">
        <ele>505.31018</ele>
        <time>2009-01-18T11:53:58Z</time>
      </trkpt>
      <trkpt lat="43.6676" lon="6.9317">
        <ele>504.34887</ele>
        <time>2009-01-18T11:54:02Z</time>
      </trkpt>
      <trkpt lat="43.66764" lon="6.93163">
        <ele>501.46484</ele>
        <time>2009-01-18T11:54:09Z</time>
      </trkpt>
      <trkpt lat="43.66768" lon="6.93152">
        <ele>500.02294</ele>
        <time>2009-01-18T11:54:15Z</time>
      </trkpt>
      <trkpt lat="43.66773" lon="6.93129">
        <ele>500.02294</ele>
        <time>2009-01-18T11:54:23Z</time>
      </trkpt>
      <trkpt lat="43.66773" lon="6.93111">
        <ele>507.23278</ele>
        <time>2009-01-18T11:54:29Z</time>
      </trkpt>
      <trkpt lat="43.66769" lon="6.93089">
        <ele>512.52001</ele>
        <time>2009-01-18T11:54:37Z</time>
      </trkpt>
      <trkpt lat="43.66768" lon="6.93071">
        <ele>512.03942</ele>
        <time>2009-01-18T11:54:44Z</time>
      </trkpt>
      <trkpt lat="43.66767" lon="6.9305">
        <ele>516.36523</ele>
        <time>2009-01-18T11:54:51Z</time>
      </trkpt>
      <trkpt lat="43.66765" lon="6.93035">
        <ele>523.57519</ele>
        <time>2009-01-18T11:54:56Z</time>
      </trkpt>
      <trkpt lat="43.66764" lon="6.93014">
        <ele>528.38183</ele>
        <time>2009-01-18T11:55:02Z</time>
      </trkpt>
      <trkpt lat="43.66762" lon="6.92992">
        <ele>526.93981</ele>
        <time>2009-01-18T11:55:09Z</time>
      </trkpt>
      <trkpt lat="43.66764" lon="6.92973">
        <ele>521.17199</ele>
        <time>2009-01-18T11:55:15Z</time>
      </trkpt>
      <trkpt lat="43.66761" lon="6.92952">
        <ele>517.80725</ele>
        <time>2009-01-18T11:55:21Z</time>
      </trkpt>
      <trkpt lat="43.66759" lon="6.92931">
        <ele>517.80725</ele>
        <time>2009-01-18T11:55:28Z</time>
      </trkpt>
      <trkpt lat="43.66763" lon="6.92912">
        <ele>513.96203</ele>
        <time>2009-01-18T11:55:34Z</time>
      </trkpt>
      <trkpt lat="43.66766" lon="6.92893">
        <ele>516.36523</ele>
        <time>2009-01-18T11:55:40Z</time>
      </trkpt>
      <trkpt lat="43.66774" lon="6.92874">
        <ele>513.48144</ele>
        <time>2009-01-18T11:55:47Z</time>
      </trkpt>
      <trkpt lat="43.66785" lon="6.92859">
        <ele>512.03942</ele>
        <time>2009-01-18T11:55:53Z</time>
      </trkpt>
      <trkpt lat="43.66799" lon="6.92836">
        <ele>514.92333</ele>
        <time>2009-01-18T11:56:01Z</time>
      </trkpt>
      <trkpt lat="43.66804" lon="6.92821">
        <ele>514.44262</ele>
        <time>2009-01-18T11:56:06Z</time>
      </trkpt>
      <trkpt lat="43.66817" lon="6.92803">
        <ele>510.59729</ele>
        <time>2009-01-18T11:56:12Z</time>
      </trkpt>
      <trkpt lat="43.66831" lon="6.92782">
        <ele>511.55871</ele>
        <time>2009-01-18T11:56:18Z</time>
      </trkpt>
      <trkpt lat="43.66847" lon="6.92752">
        <ele>517.80725</ele>
        <time>2009-01-18T11:56:25Z</time>
      </trkpt>
      <trkpt lat="43.66857" lon="6.92723">
        <ele>519.24926</ele>
        <time>2009-01-18T11:56:32Z</time>
      </trkpt>
      <trkpt lat="43.66863" lon="6.92695">
        <ele>521.17199</ele>
        <time>2009-01-18T11:56:38Z</time>
      </trkpt>
      <trkpt lat="43.66864" lon="6.92662">
        <ele>527.901</ele>
        <time>2009-01-18T11:56:46Z</time>
      </trkpt>
      <trkpt lat="43.66859" lon="6.92646">
        <ele>530.78515</ele>
        <time>2009-01-18T11:56:52Z</time>
      </trkpt>
      <trkpt lat="43.66853" lon="6.92626">
        <ele>535.59155</ele>
        <time>2009-01-18T11:56:58Z</time>
      </trkpt>
      <trkpt lat="43.66853" lon="6.92609">
        <ele>536.07238</ele>
        <time>2009-01-18T11:57:02Z</time>
      </trkpt>
      <trkpt lat="43.66847" lon="6.92577">
        <ele>534.14965</ele>
        <time>2009-01-18T11:57:10Z</time>
      </trkpt>
      <trkpt lat="43.66852" lon="6.92546">
        <ele>536.5531</ele>
        <time>2009-01-18T11:57:17Z</time>
      </trkpt>
      <trkpt lat="43.66852" lon="6.92526">
        <ele>534.14965</ele>
        <time>2009-01-18T11:57:22Z</time>
      </trkpt>
      <trkpt lat="43.66849" lon="6.92507">
        <ele>533.66894</ele>
        <time>2009-01-18T11:57:27Z</time>
      </trkpt>
      <trkpt lat="43.66843" lon="6.92485">
        <ele>532.22705</ele>
        <time>2009-01-18T11:57:32Z</time>
      </trkpt>
      <trkpt lat="43.66831" lon="6.92468">
        <ele>535.59155</ele>
        <time>2009-01-18T11:57:37Z</time>
      </trkpt>
      <trkpt lat="43.66823" lon="6.92436">
        <ele>537.99499</ele>
        <time>2009-01-18T11:57:45Z</time>
      </trkpt>
      <trkpt lat="43.66819" lon="6.92408">
        <ele>542.32092</ele>
        <time>2009-01-18T11:57:52Z</time>
      </trkpt>
      <trkpt lat="43.66817" lon="6.92385">
        <ele>543.76281</ele>
        <time>2009-01-18T11:57:59Z</time>
      </trkpt>
      <trkpt lat="43.66816" lon="6.92354">
        <ele>534.63037</ele>
        <time>2009-01-18T11:58:07Z</time>
      </trkpt>
      <trkpt lat="43.66812" lon="6.92328">
        <ele>530.78515</ele>
        <time>2009-01-18T11:58:14Z</time>
      </trkpt>
      <trkpt lat="43.66803" lon="6.92293">
        <ele>530.78515</ele>
        <time>2009-01-18T11:58:22Z</time>
      </trkpt>
      <trkpt lat="43.66791" lon="6.92265">
        <ele>533.66894</ele>
        <time>2009-01-18T11:58:29Z</time>
      </trkpt>
      <trkpt lat="43.66775" lon="6.92229">
        <ele>541.84021</ele>
        <time>2009-01-18T11:58:38Z</time>
      </trkpt>
      <trkpt lat="43.66765" lon="6.92199">
        <ele>546.64685</ele>
        <time>2009-01-18T11:58:46Z</time>
      </trkpt>
      <trkpt lat="43.66756" lon="6.92172">
        <ele>545.68554</ele>
        <time>2009-01-18T11:58:53Z</time>
      </trkpt>
      <trkpt lat="43.66756" lon="6.92169">
        <ele>546.64685</ele>
        <time>2009-01-18T11:58:54Z</time>
      </trkpt>
      <trkpt lat="43.66764" lon="6.92176">
        <ele>548.56933</ele>
        <time>2009-01-18T11:58:59Z</time>
      </trkpt>
      <trkpt lat="43.66766" lon="6.92181">
        <ele>549.05004</ele>
        <time>2009-01-18T11:59:01Z</time>
      </trkpt>
      <trkpt lat="43.66777" lon="6.92204">
        <ele>550.01147</ele>
        <time>2009-01-18T11:59:10Z</time>
      </trkpt>
      <trkpt lat="43.66784" lon="6.92214">
        <ele>550.01147</ele>
        <time>2009-01-18T11:59:17Z</time>
      </trkpt>
      <trkpt lat="43.66786" lon="6.92215">
        <ele>549.53076</ele>
        <time>2009-01-18T11:59:22Z</time>
      </trkpt>
      <trkpt lat="43.66786" lon="6.92207">
        <ele>549.53076</ele>
        <time>2009-01-18T11:59:29Z</time>
      </trkpt>
      <trkpt lat="43.66787" lon="6.92207">
        <ele>552.41455</ele>
        <time>2009-01-18T11:59:35Z</time>
      </trkpt>
      <trkpt lat="43.66786" lon="6.92208">
        <ele>552.89526</ele>
        <time>2009-01-18T11:59:37Z</time>
      </trkpt>
      <trkpt lat="43.66789" lon="6.92216">
        <ele>554.81787</ele>
        <time>2009-01-18T11:59:43Z</time>
      </trkpt>
      <trkpt lat="43.66794" lon="6.92229">
        <ele>555.77929</ele>
        <time>2009-01-18T11:59:50Z</time>
      </trkpt>
      <trkpt lat="43.668" lon="6.9224">
        <ele>555.77929</ele>
        <time>2009-01-18T11:59:57Z</time>
      </trkpt>
      <trkpt lat="43.66803" lon="6.92248">
        <ele>556.26</ele>
        <time>2009-01-18T12:00:02Z</time>
      </trkpt>
      <trkpt lat="43.66806" lon="6.92249">
        <ele>554.3374</ele>
        <time>2009-01-18T12:00:07Z</time>
      </trkpt>
      <trkpt lat="43.66807" lon="6.92253">
        <ele>553.85668</ele>
        <time>2009-01-18T12:00:13Z</time>
      </trkpt>
      <trkpt lat="43.66807" lon="6.92255">
        <ele>556.74072</ele>
        <time>2009-01-18T12:00:20Z</time>
      </trkpt>
      <trkpt lat="43.66807" lon="6.92256">
        <ele>559.14404</ele>
        <time>2009-01-18T12:00:28Z</time>
      </trkpt>
      <trkpt lat="43.66796" lon="6.92245">
        <ele>557.70214</ele>
        <time>2009-01-18T12:00:33Z</time>
      </trkpt>
      <trkpt lat="43.66784" lon="6.92218">
        <ele>557.22143</ele>
        <time>2009-01-18T12:00:39Z</time>
      </trkpt>
      <trkpt lat="43.66784" lon="6.92215">
        <ele>557.70214</ele>
        <time>2009-01-18T12:00:40Z</time>
      </trkpt>
      <trkpt lat="43.66787" lon="6.92212">
        <ele>558.66333</ele>
        <time>2009-01-18T12:00:45Z</time>
      </trkpt>
      <trkpt lat="43.66788" lon="6.92212">
        <ele>556.74072</ele>
        <time>2009-01-18T12:01:20Z</time>
      </trkpt>
    </trkseg>
  </trk>
</gpx>